<?xml version="1.0" encoding="UTF-8" standalone="no" ?>
<gpx xmlns="http://www.topografix.com/GPX/1/1" xmlns:xsi="http://www.w3.org/2001/XMLSchema-instance" xsi:schemaLocation="http://www.topografix.com/GPX/1/1 http://www.topografix.com/GPX/1/1/gpx.xsd" version="1.1" creator="VisuGPX - https://www.visugpx.com">
  <metadata>
    <name>sortie massif de la gardiole</name>
    <desc><![CDATA[sortie dans le massif de la gardiole, beau paysage, calme quelques personnes en promenade]]></desc>
  </metadata>
  <trk>
    <name><![CDATA[Gar2]]></name>
    <trkseg>
      <trkpt lat="43.49535" lon="3.71078">
        <ele>79.5</ele>
        <time>2008-11-15T12:53:24Z</time>
      </trkpt>
      <trkpt lat="43.49535" lon="3.71078">
        <ele>79.5</ele>
        <time>2008-11-15T12:53:29Z</time>
      </trkpt>
      <trkpt lat="43.49533" lon="3.71079">
        <ele>86</ele>
        <time>2008-11-15T12:53:58Z</time>
      </trkpt>
      <trkpt lat="43.49533" lon="3.7108">
        <ele>87.5</ele>
        <time>2008-11-15T12:54:34Z</time>
      </trkpt>
      <trkpt lat="43.49531" lon="3.71083">
        <ele>90</ele>
        <time>2008-11-15T12:54:59Z</time>
      </trkpt>
      <trkpt lat="43.4953" lon="3.71086">
        <ele>91</ele>
        <time>2008-11-15T12:55:07Z</time>
      </trkpt>
      <trkpt lat="43.49529" lon="3.71087">
        <ele>94</ele>
        <time>2008-11-15T12:55:22Z</time>
      </trkpt>
      <trkpt lat="43.49529" lon="3.71084">
        <ele>95</ele>
        <time>2008-11-15T12:55:35Z</time>
      </trkpt>
      <trkpt lat="43.49531" lon="3.71086">
        <ele>94</ele>
        <time>2008-11-15T12:55:52Z</time>
      </trkpt>
      <trkpt lat="43.49531" lon="3.71088">
        <ele>95.5</ele>
        <time>2008-11-15T12:56:02Z</time>
      </trkpt>
      <trkpt lat="43.49532" lon="3.71084">
        <ele>96</ele>
        <time>2008-11-15T12:56:08Z</time>
      </trkpt>
      <trkpt lat="43.49535" lon="3.71085">
        <ele>96</ele>
        <time>2008-11-15T12:56:19Z</time>
      </trkpt>
      <trkpt lat="43.49535" lon="3.71083">
        <ele>94.5</ele>
        <time>2008-11-15T12:56:34Z</time>
      </trkpt>
      <trkpt lat="43.49532" lon="3.71089">
        <ele>99.5</ele>
        <time>2008-11-15T12:56:49Z</time>
      </trkpt>
      <trkpt lat="43.49531" lon="3.71089">
        <ele>100</ele>
        <time>2008-11-15T12:57:08Z</time>
      </trkpt>
      <trkpt lat="43.49531" lon="3.71092">
        <ele>101</ele>
        <time>2008-11-15T12:57:19Z</time>
      </trkpt>
      <trkpt lat="43.49533" lon="3.71098">
        <ele>99.5</ele>
        <time>2008-11-15T12:57:26Z</time>
      </trkpt>
      <trkpt lat="43.49532" lon="3.71106">
        <ele>98.5</ele>
        <time>2008-11-15T12:57:32Z</time>
      </trkpt>
      <trkpt lat="43.49525" lon="3.71123">
        <ele>99.5</ele>
        <time>2008-11-15T12:57:44Z</time>
      </trkpt>
      <trkpt lat="43.49522" lon="3.71134">
        <ele>100</ele>
        <time>2008-11-15T12:57:51Z</time>
      </trkpt>
      <trkpt lat="43.49515" lon="3.71148">
        <ele>99</ele>
        <time>2008-11-15T12:58:14Z</time>
      </trkpt>
      <trkpt lat="43.49515" lon="3.71149">
        <ele>97.5</ele>
        <time>2008-11-15T12:58:46Z</time>
      </trkpt>
      <trkpt lat="43.4951" lon="3.71162">
        <ele>99.5</ele>
        <time>2008-11-15T12:59:07Z</time>
      </trkpt>
      <trkpt lat="43.49504" lon="3.71177">
        <ele>101</ele>
        <time>2008-11-15T12:59:17Z</time>
      </trkpt>
      <trkpt lat="43.49496" lon="3.71186">
        <ele>102</ele>
        <time>2008-11-15T12:59:27Z</time>
      </trkpt>
      <trkpt lat="43.49485" lon="3.71178">
        <ele>102</ele>
        <time>2008-11-15T12:59:37Z</time>
      </trkpt>
      <trkpt lat="43.49473" lon="3.71169">
        <ele>101</ele>
        <time>2008-11-15T12:59:48Z</time>
      </trkpt>
      <trkpt lat="43.49462" lon="3.71169">
        <ele>100.5</ele>
        <time>2008-11-15T12:59:59Z</time>
      </trkpt>
      <trkpt lat="43.49455" lon="3.71182">
        <ele>101.5</ele>
        <time>2008-11-15T13:00:11Z</time>
      </trkpt>
      <trkpt lat="43.4946" lon="3.71188">
        <ele>101.5</ele>
        <time>2008-11-15T13:00:21Z</time>
      </trkpt>
      <trkpt lat="43.4947" lon="3.71198">
        <ele>101</ele>
        <time>2008-11-15T13:00:34Z</time>
      </trkpt>
      <trkpt lat="43.4948" lon="3.71207">
        <ele>101</ele>
        <time>2008-11-15T13:00:46Z</time>
      </trkpt>
      <trkpt lat="43.49494" lon="3.71221">
        <ele>105</ele>
        <time>2008-11-15T13:01:04Z</time>
      </trkpt>
      <trkpt lat="43.495" lon="3.71227">
        <ele>106.5</ele>
        <time>2008-11-15T13:01:11Z</time>
      </trkpt>
      <trkpt lat="43.49508" lon="3.71238">
        <ele>106.5</ele>
        <time>2008-11-15T13:01:22Z</time>
      </trkpt>
      <trkpt lat="43.49517" lon="3.71245">
        <ele>105.5</ele>
        <time>2008-11-15T13:01:31Z</time>
      </trkpt>
      <trkpt lat="43.49526" lon="3.71253">
        <ele>105.5</ele>
        <time>2008-11-15T13:01:42Z</time>
      </trkpt>
      <trkpt lat="43.49536" lon="3.71261">
        <ele>104</ele>
        <time>2008-11-15T13:01:54Z</time>
      </trkpt>
      <trkpt lat="43.49544" lon="3.71266">
        <ele>103.5</ele>
        <time>2008-11-15T13:02:02Z</time>
      </trkpt>
      <trkpt lat="43.4956" lon="3.7128">
        <ele>102.5</ele>
        <time>2008-11-15T13:02:22Z</time>
      </trkpt>
      <trkpt lat="43.49568" lon="3.71286">
        <ele>102.5</ele>
        <time>2008-11-15T13:02:31Z</time>
      </trkpt>
      <trkpt lat="43.49584" lon="3.71301">
        <ele>100.5</ele>
        <time>2008-11-15T13:02:51Z</time>
      </trkpt>
      <trkpt lat="43.49583" lon="3.71316">
        <ele>99.5</ele>
        <time>2008-11-15T13:03:02Z</time>
      </trkpt>
      <trkpt lat="43.49578" lon="3.71331">
        <ele>99.5</ele>
        <time>2008-11-15T13:03:14Z</time>
      </trkpt>
      <trkpt lat="43.49575" lon="3.71344">
        <ele>100</ele>
        <time>2008-11-15T13:03:24Z</time>
      </trkpt>
      <trkpt lat="43.49572" lon="3.71354">
        <ele>100</ele>
        <time>2008-11-15T13:03:31Z</time>
      </trkpt>
      <trkpt lat="43.4957" lon="3.71362">
        <ele>99.5</ele>
        <time>2008-11-15T13:03:37Z</time>
      </trkpt>
      <trkpt lat="43.49568" lon="3.71368">
        <ele>99.5</ele>
        <time>2008-11-15T13:03:42Z</time>
      </trkpt>
      <trkpt lat="43.49566" lon="3.71375">
        <ele>99.5</ele>
        <time>2008-11-15T13:03:47Z</time>
      </trkpt>
      <trkpt lat="43.49564" lon="3.71382">
        <ele>100</ele>
        <time>2008-11-15T13:03:52Z</time>
      </trkpt>
      <trkpt lat="43.49562" lon="3.71389">
        <ele>100</ele>
        <time>2008-11-15T13:03:57Z</time>
      </trkpt>
      <trkpt lat="43.4956" lon="3.71396">
        <ele>100.5</ele>
        <time>2008-11-15T13:04:02Z</time>
      </trkpt>
      <trkpt lat="43.49558" lon="3.71403">
        <ele>100.5</ele>
        <time>2008-11-15T13:04:07Z</time>
      </trkpt>
      <trkpt lat="43.49557" lon="3.71405">
        <ele>100.5</ele>
        <time>2008-11-15T13:04:12Z</time>
      </trkpt>
      <trkpt lat="43.49556" lon="3.7141">
        <ele>100.5</ele>
        <time>2008-11-15T13:04:17Z</time>
      </trkpt>
      <trkpt lat="43.49555" lon="3.71417">
        <ele>101</ele>
        <time>2008-11-15T13:04:22Z</time>
      </trkpt>
      <trkpt lat="43.49545" lon="3.71456">
        <ele>100.5</ele>
        <time>2008-11-15T13:04:51Z</time>
      </trkpt>
      <trkpt lat="43.49543" lon="3.71463">
        <ele>100.5</ele>
        <time>2008-11-15T13:04:57Z</time>
      </trkpt>
      <trkpt lat="43.4954" lon="3.71473">
        <ele>100.5</ele>
        <time>2008-11-15T13:05:06Z</time>
      </trkpt>
      <trkpt lat="43.49536" lon="3.71483">
        <ele>101</ele>
        <time>2008-11-15T13:05:14Z</time>
      </trkpt>
      <trkpt lat="43.49534" lon="3.7149">
        <ele>101</ele>
        <time>2008-11-15T13:05:19Z</time>
      </trkpt>
      <trkpt lat="43.49532" lon="3.71496">
        <ele>101.5</ele>
        <time>2008-11-15T13:05:24Z</time>
      </trkpt>
      <trkpt lat="43.4953" lon="3.71502">
        <ele>101.5</ele>
        <time>2008-11-15T13:05:29Z</time>
      </trkpt>
      <trkpt lat="43.49528" lon="3.71509">
        <ele>102</ele>
        <time>2008-11-15T13:05:34Z</time>
      </trkpt>
      <trkpt lat="43.49527" lon="3.71516">
        <ele>103</ele>
        <time>2008-11-15T13:05:39Z</time>
      </trkpt>
      <trkpt lat="43.49526" lon="3.71522">
        <ele>104</ele>
        <time>2008-11-15T13:05:44Z</time>
      </trkpt>
      <trkpt lat="43.49525" lon="3.7153">
        <ele>105</ele>
        <time>2008-11-15T13:05:51Z</time>
      </trkpt>
      <trkpt lat="43.49522" lon="3.71543">
        <ele>105</ele>
        <time>2008-11-15T13:06:01Z</time>
      </trkpt>
      <trkpt lat="43.49521" lon="3.71546">
        <ele>105</ele>
        <time>2008-11-15T13:06:09Z</time>
      </trkpt>
      <trkpt lat="43.4952" lon="3.71554">
        <ele>105</ele>
        <time>2008-11-15T13:06:26Z</time>
      </trkpt>
      <trkpt lat="43.49518" lon="3.71565">
        <ele>105</ele>
        <time>2008-11-15T13:06:36Z</time>
      </trkpt>
      <trkpt lat="43.49516" lon="3.71574">
        <ele>105.5</ele>
        <time>2008-11-15T13:06:44Z</time>
      </trkpt>
      <trkpt lat="43.49515" lon="3.71586">
        <ele>106.5</ele>
        <time>2008-11-15T13:06:53Z</time>
      </trkpt>
      <trkpt lat="43.49512" lon="3.71597">
        <ele>107.5</ele>
        <time>2008-11-15T13:07:01Z</time>
      </trkpt>
      <trkpt lat="43.4951" lon="3.71604">
        <ele>108</ele>
        <time>2008-11-15T13:07:21Z</time>
      </trkpt>
      <trkpt lat="43.49508" lon="3.7161">
        <ele>108.5</ele>
        <time>2008-11-15T13:07:31Z</time>
      </trkpt>
      <trkpt lat="43.49504" lon="3.71618">
        <ele>108</ele>
        <time>2008-11-15T13:07:49Z</time>
      </trkpt>
      <trkpt lat="43.49502" lon="3.71625">
        <ele>107.5</ele>
        <time>2008-11-15T13:08:27Z</time>
      </trkpt>
      <trkpt lat="43.49501" lon="3.71631">
        <ele>108.5</ele>
        <time>2008-11-15T13:08:36Z</time>
      </trkpt>
      <trkpt lat="43.49499" lon="3.71635">
        <ele>108</ele>
        <time>2008-11-15T13:08:57Z</time>
      </trkpt>
      <trkpt lat="43.49498" lon="3.71641">
        <ele>108</ele>
        <time>2008-11-15T13:09:02Z</time>
      </trkpt>
      <trkpt lat="43.49495" lon="3.71647">
        <ele>108</ele>
        <time>2008-11-15T13:09:07Z</time>
      </trkpt>
      <trkpt lat="43.49493" lon="3.71654">
        <ele>108</ele>
        <time>2008-11-15T13:09:12Z</time>
      </trkpt>
      <trkpt lat="43.49491" lon="3.71662">
        <ele>108</ele>
        <time>2008-11-15T13:09:17Z</time>
      </trkpt>
      <trkpt lat="43.49491" lon="3.7167">
        <ele>108.5</ele>
        <time>2008-11-15T13:09:22Z</time>
      </trkpt>
      <trkpt lat="43.4949" lon="3.71678">
        <ele>109.5</ele>
        <time>2008-11-15T13:09:27Z</time>
      </trkpt>
      <trkpt lat="43.49488" lon="3.71686">
        <ele>109.5</ele>
        <time>2008-11-15T13:09:32Z</time>
      </trkpt>
      <trkpt lat="43.49485" lon="3.71694">
        <ele>109.5</ele>
        <time>2008-11-15T13:09:37Z</time>
      </trkpt>
      <trkpt lat="43.49484" lon="3.71701">
        <ele>109.5</ele>
        <time>2008-11-15T13:09:42Z</time>
      </trkpt>
      <trkpt lat="43.49484" lon="3.71709">
        <ele>110</ele>
        <time>2008-11-15T13:09:47Z</time>
      </trkpt>
      <trkpt lat="43.49485" lon="3.71715">
        <ele>110.5</ele>
        <time>2008-11-15T13:09:52Z</time>
      </trkpt>
      <trkpt lat="43.49488" lon="3.71721">
        <ele>111.5</ele>
        <time>2008-11-15T13:09:57Z</time>
      </trkpt>
      <trkpt lat="43.49489" lon="3.71728">
        <ele>112</ele>
        <time>2008-11-15T13:10:02Z</time>
      </trkpt>
      <trkpt lat="43.49492" lon="3.71734">
        <ele>112.5</ele>
        <time>2008-11-15T13:10:07Z</time>
      </trkpt>
      <trkpt lat="43.49495" lon="3.71739">
        <ele>112.5</ele>
        <time>2008-11-15T13:10:12Z</time>
      </trkpt>
      <trkpt lat="43.49498" lon="3.71744">
        <ele>112.5</ele>
        <time>2008-11-15T13:10:17Z</time>
      </trkpt>
      <trkpt lat="43.49501" lon="3.71748">
        <ele>113</ele>
        <time>2008-11-15T13:10:22Z</time>
      </trkpt>
      <trkpt lat="43.49504" lon="3.71752">
        <ele>114</ele>
        <time>2008-11-15T13:10:27Z</time>
      </trkpt>
      <trkpt lat="43.49508" lon="3.71757">
        <ele>114.5</ele>
        <time>2008-11-15T13:10:32Z</time>
      </trkpt>
      <trkpt lat="43.49511" lon="3.71761">
        <ele>115</ele>
        <time>2008-11-15T13:10:37Z</time>
      </trkpt>
      <trkpt lat="43.49515" lon="3.71765">
        <ele>115.5</ele>
        <time>2008-11-15T13:10:42Z</time>
      </trkpt>
      <trkpt lat="43.49518" lon="3.7177">
        <ele>116</ele>
        <time>2008-11-15T13:10:47Z</time>
      </trkpt>
      <trkpt lat="43.4952" lon="3.71776">
        <ele>116.5</ele>
        <time>2008-11-15T13:10:52Z</time>
      </trkpt>
      <trkpt lat="43.49519" lon="3.71782">
        <ele>116.5</ele>
        <time>2008-11-15T13:10:57Z</time>
      </trkpt>
      <trkpt lat="43.49516" lon="3.71787">
        <ele>116</ele>
        <time>2008-11-15T13:11:02Z</time>
      </trkpt>
      <trkpt lat="43.49513" lon="3.71791">
        <ele>116.5</ele>
        <time>2008-11-15T13:11:07Z</time>
      </trkpt>
      <trkpt lat="43.49512" lon="3.71797">
        <ele>116</ele>
        <time>2008-11-15T13:11:12Z</time>
      </trkpt>
      <trkpt lat="43.49511" lon="3.71804">
        <ele>116</ele>
        <time>2008-11-15T13:11:17Z</time>
      </trkpt>
      <trkpt lat="43.49512" lon="3.7181">
        <ele>116</ele>
        <time>2008-11-15T13:11:22Z</time>
      </trkpt>
      <trkpt lat="43.49514" lon="3.71817">
        <ele>116</ele>
        <time>2008-11-15T13:11:27Z</time>
      </trkpt>
      <trkpt lat="43.49516" lon="3.71822">
        <ele>116</ele>
        <time>2008-11-15T13:11:32Z</time>
      </trkpt>
      <trkpt lat="43.49519" lon="3.71828">
        <ele>117</ele>
        <time>2008-11-15T13:11:37Z</time>
      </trkpt>
      <trkpt lat="43.49521" lon="3.71834">
        <ele>117.5</ele>
        <time>2008-11-15T13:11:42Z</time>
      </trkpt>
      <trkpt lat="43.49523" lon="3.71839">
        <ele>118</ele>
        <time>2008-11-15T13:11:47Z</time>
      </trkpt>
      <trkpt lat="43.49525" lon="3.71844">
        <ele>118</ele>
        <time>2008-11-15T13:11:52Z</time>
      </trkpt>
      <trkpt lat="43.49527" lon="3.7185">
        <ele>118</ele>
        <time>2008-11-15T13:11:57Z</time>
      </trkpt>
      <trkpt lat="43.4953" lon="3.71857">
        <ele>118</ele>
        <time>2008-11-15T13:12:02Z</time>
      </trkpt>
      <trkpt lat="43.49532" lon="3.71863">
        <ele>118</ele>
        <time>2008-11-15T13:12:07Z</time>
      </trkpt>
      <trkpt lat="43.49539" lon="3.7188">
        <ele>118.5</ele>
        <time>2008-11-15T13:12:21Z</time>
      </trkpt>
      <trkpt lat="43.49539" lon="3.71881">
        <ele>119</ele>
        <time>2008-11-15T13:12:22Z</time>
      </trkpt>
      <trkpt lat="43.49542" lon="3.71888">
        <ele>118.5</ele>
        <time>2008-11-15T13:12:27Z</time>
      </trkpt>
      <trkpt lat="43.49542" lon="3.71889">
        <ele>119</ele>
        <time>2008-11-15T13:12:28Z</time>
      </trkpt>
      <trkpt lat="43.49545" lon="3.71895">
        <ele>119</ele>
        <time>2008-11-15T13:12:33Z</time>
      </trkpt>
      <trkpt lat="43.49547" lon="3.71901">
        <ele>119.5</ele>
        <time>2008-11-15T13:12:38Z</time>
      </trkpt>
      <trkpt lat="43.49549" lon="3.71906">
        <ele>120</ele>
        <time>2008-11-15T13:12:43Z</time>
      </trkpt>
      <trkpt lat="43.49551" lon="3.71911">
        <ele>120</ele>
        <time>2008-11-15T13:12:48Z</time>
      </trkpt>
      <trkpt lat="43.49554" lon="3.71916">
        <ele>120.5</ele>
        <time>2008-11-15T13:12:53Z</time>
      </trkpt>
      <trkpt lat="43.49556" lon="3.7192">
        <ele>121</ele>
        <time>2008-11-15T13:12:58Z</time>
      </trkpt>
      <trkpt lat="43.49557" lon="3.71926">
        <ele>120.5</ele>
        <time>2008-11-15T13:13:03Z</time>
      </trkpt>
      <trkpt lat="43.49557" lon="3.71933">
        <ele>120</ele>
        <time>2008-11-15T13:13:08Z</time>
      </trkpt>
      <trkpt lat="43.49557" lon="3.7194">
        <ele>120</ele>
        <time>2008-11-15T13:13:13Z</time>
      </trkpt>
      <trkpt lat="43.49556" lon="3.71946">
        <ele>120</ele>
        <time>2008-11-15T13:13:18Z</time>
      </trkpt>
      <trkpt lat="43.49557" lon="3.71953">
        <ele>120</ele>
        <time>2008-11-15T13:13:23Z</time>
      </trkpt>
      <trkpt lat="43.49558" lon="3.71959">
        <ele>120</ele>
        <time>2008-11-15T13:13:28Z</time>
      </trkpt>
      <trkpt lat="43.49559" lon="3.71965">
        <ele>120.5</ele>
        <time>2008-11-15T13:13:33Z</time>
      </trkpt>
      <trkpt lat="43.49563" lon="3.71967">
        <ele>121</ele>
        <time>2008-11-15T13:13:38Z</time>
      </trkpt>
      <trkpt lat="43.49565" lon="3.71973">
        <ele>121.5</ele>
        <time>2008-11-15T13:13:43Z</time>
      </trkpt>
      <trkpt lat="43.49568" lon="3.71982">
        <ele>122</ele>
        <time>2008-11-15T13:13:51Z</time>
      </trkpt>
      <trkpt lat="43.49575" lon="3.71992">
        <ele>121.5</ele>
        <time>2008-11-15T13:14:01Z</time>
      </trkpt>
      <trkpt lat="43.49581" lon="3.72004">
        <ele>122</ele>
        <time>2008-11-15T13:14:11Z</time>
      </trkpt>
      <trkpt lat="43.49584" lon="3.72011">
        <ele>122</ele>
        <time>2008-11-15T13:14:17Z</time>
      </trkpt>
      <trkpt lat="43.49587" lon="3.72017">
        <ele>122.5</ele>
        <time>2008-11-15T13:14:22Z</time>
      </trkpt>
      <trkpt lat="43.4959" lon="3.72023">
        <ele>123</ele>
        <time>2008-11-15T13:14:27Z</time>
      </trkpt>
      <trkpt lat="43.49594" lon="3.72028">
        <ele>123</ele>
        <time>2008-11-15T13:14:32Z</time>
      </trkpt>
      <trkpt lat="43.49598" lon="3.72032">
        <ele>123</ele>
        <time>2008-11-15T13:14:37Z</time>
      </trkpt>
      <trkpt lat="43.49602" lon="3.72034">
        <ele>122.5</ele>
        <time>2008-11-15T13:14:42Z</time>
      </trkpt>
      <trkpt lat="43.49606" lon="3.72037">
        <ele>122</ele>
        <time>2008-11-15T13:14:47Z</time>
      </trkpt>
      <trkpt lat="43.49609" lon="3.72041">
        <ele>122</ele>
        <time>2008-11-15T13:14:52Z</time>
      </trkpt>
      <trkpt lat="43.49609" lon="3.72046">
        <ele>122.5</ele>
        <time>2008-11-15T13:14:57Z</time>
      </trkpt>
      <trkpt lat="43.49606" lon="3.72051">
        <ele>123</ele>
        <time>2008-11-15T13:15:02Z</time>
      </trkpt>
      <trkpt lat="43.49603" lon="3.72056">
        <ele>123.5</ele>
        <time>2008-11-15T13:15:07Z</time>
      </trkpt>
      <trkpt lat="43.496" lon="3.72061">
        <ele>123.5</ele>
        <time>2008-11-15T13:15:12Z</time>
      </trkpt>
      <trkpt lat="43.49596" lon="3.72065">
        <ele>123.5</ele>
        <time>2008-11-15T13:15:17Z</time>
      </trkpt>
      <trkpt lat="43.49591" lon="3.72068">
        <ele>123</ele>
        <time>2008-11-15T13:15:22Z</time>
      </trkpt>
      <trkpt lat="43.49587" lon="3.72071">
        <ele>122</ele>
        <time>2008-11-15T13:15:27Z</time>
      </trkpt>
      <trkpt lat="43.49583" lon="3.72074">
        <ele>120.5</ele>
        <time>2008-11-15T13:15:32Z</time>
      </trkpt>
      <trkpt lat="43.49579" lon="3.72076">
        <ele>119.5</ele>
        <time>2008-11-15T13:15:37Z</time>
      </trkpt>
      <trkpt lat="43.49574" lon="3.72078">
        <ele>118.5</ele>
        <time>2008-11-15T13:15:42Z</time>
      </trkpt>
      <trkpt lat="43.4957" lon="3.7208">
        <ele>118.5</ele>
        <time>2008-11-15T13:15:47Z</time>
      </trkpt>
      <trkpt lat="43.49565" lon="3.72082">
        <ele>118</ele>
        <time>2008-11-15T13:15:52Z</time>
      </trkpt>
      <trkpt lat="43.4956" lon="3.72085">
        <ele>118</ele>
        <time>2008-11-15T13:15:57Z</time>
      </trkpt>
      <trkpt lat="43.49552" lon="3.72091">
        <ele>117</ele>
        <time>2008-11-15T13:16:06Z</time>
      </trkpt>
      <trkpt lat="43.49547" lon="3.72094">
        <ele>115</ele>
        <time>2008-11-15T13:16:12Z</time>
      </trkpt>
      <trkpt lat="43.49545" lon="3.72095">
        <ele>114.5</ele>
        <time>2008-11-15T13:16:20Z</time>
      </trkpt>
      <trkpt lat="43.4954" lon="3.72101">
        <ele>114</ele>
        <time>2008-11-15T13:16:26Z</time>
      </trkpt>
      <trkpt lat="43.49537" lon="3.72108">
        <ele>115</ele>
        <time>2008-11-15T13:16:31Z</time>
      </trkpt>
      <trkpt lat="43.49534" lon="3.72113">
        <ele>115.5</ele>
        <time>2008-11-15T13:16:36Z</time>
      </trkpt>
      <trkpt lat="43.49535" lon="3.72114">
        <ele>116</ele>
        <time>2008-11-15T13:16:41Z</time>
      </trkpt>
      <trkpt lat="43.49518" lon="3.72124">
        <ele>116</ele>
        <time>2008-11-15T13:16:51Z</time>
      </trkpt>
      <trkpt lat="43.49506" lon="3.72133">
        <ele>115</ele>
        <time>2008-11-15T13:16:56Z</time>
      </trkpt>
      <trkpt lat="43.49509" lon="3.7213">
        <ele>115</ele>
        <time>2008-11-15T13:17:01Z</time>
      </trkpt>
      <trkpt lat="43.49509" lon="3.72132">
        <ele>115</ele>
        <time>2008-11-15T13:17:06Z</time>
      </trkpt>
      <trkpt lat="43.49512" lon="3.72137">
        <ele>119.5</ele>
        <time>2008-11-15T13:17:11Z</time>
      </trkpt>
      <trkpt lat="43.49512" lon="3.72149">
        <ele>122</ele>
        <time>2008-11-15T13:17:16Z</time>
      </trkpt>
      <trkpt lat="43.49512" lon="3.72156">
        <ele>123.5</ele>
        <time>2008-11-15T13:17:21Z</time>
      </trkpt>
      <trkpt lat="43.49513" lon="3.72163">
        <ele>122.5</ele>
        <time>2008-11-15T13:17:26Z</time>
      </trkpt>
      <trkpt lat="43.49516" lon="3.72168">
        <ele>122.5</ele>
        <time>2008-11-15T13:17:31Z</time>
      </trkpt>
      <trkpt lat="43.49521" lon="3.72172">
        <ele>122</ele>
        <time>2008-11-15T13:17:36Z</time>
      </trkpt>
      <trkpt lat="43.49526" lon="3.72175">
        <ele>122</ele>
        <time>2008-11-15T13:17:41Z</time>
      </trkpt>
      <trkpt lat="43.49531" lon="3.72178">
        <ele>122.5</ele>
        <time>2008-11-15T13:17:46Z</time>
      </trkpt>
      <trkpt lat="43.49534" lon="3.72181">
        <ele>123</ele>
        <time>2008-11-15T13:17:51Z</time>
      </trkpt>
      <trkpt lat="43.49538" lon="3.72185">
        <ele>123.5</ele>
        <time>2008-11-15T13:17:56Z</time>
      </trkpt>
      <trkpt lat="43.49542" lon="3.72189">
        <ele>122.5</ele>
        <time>2008-11-15T13:18:01Z</time>
      </trkpt>
      <trkpt lat="43.49546" lon="3.72192">
        <ele>122.5</ele>
        <time>2008-11-15T13:18:06Z</time>
      </trkpt>
      <trkpt lat="43.4955" lon="3.72196">
        <ele>123.5</ele>
        <time>2008-11-15T13:18:11Z</time>
      </trkpt>
      <trkpt lat="43.49553" lon="3.722">
        <ele>124.5</ele>
        <time>2008-11-15T13:18:16Z</time>
      </trkpt>
      <trkpt lat="43.49557" lon="3.72203">
        <ele>125.5</ele>
        <time>2008-11-15T13:18:21Z</time>
      </trkpt>
      <trkpt lat="43.4956" lon="3.72206">
        <ele>126</ele>
        <time>2008-11-15T13:18:26Z</time>
      </trkpt>
      <trkpt lat="43.49566" lon="3.7221">
        <ele>125.5</ele>
        <time>2008-11-15T13:18:31Z</time>
      </trkpt>
      <trkpt lat="43.4957" lon="3.72215">
        <ele>126</ele>
        <time>2008-11-15T13:18:36Z</time>
      </trkpt>
      <trkpt lat="43.49574" lon="3.72218">
        <ele>126</ele>
        <time>2008-11-15T13:18:41Z</time>
      </trkpt>
      <trkpt lat="43.49578" lon="3.72222">
        <ele>125.5</ele>
        <time>2008-11-15T13:18:46Z</time>
      </trkpt>
      <trkpt lat="43.49583" lon="3.72227">
        <ele>125.5</ele>
        <time>2008-11-15T13:18:51Z</time>
      </trkpt>
      <trkpt lat="43.49587" lon="3.72232">
        <ele>126.5</ele>
        <time>2008-11-15T13:18:56Z</time>
      </trkpt>
      <trkpt lat="43.49591" lon="3.72237">
        <ele>126.5</ele>
        <time>2008-11-15T13:19:01Z</time>
      </trkpt>
      <trkpt lat="43.49595" lon="3.72241">
        <ele>126.5</ele>
        <time>2008-11-15T13:19:06Z</time>
      </trkpt>
      <trkpt lat="43.49599" lon="3.72245">
        <ele>126.5</ele>
        <time>2008-11-15T13:19:11Z</time>
      </trkpt>
      <trkpt lat="43.49604" lon="3.7225">
        <ele>126.5</ele>
        <time>2008-11-15T13:19:16Z</time>
      </trkpt>
      <trkpt lat="43.49608" lon="3.72254">
        <ele>125.5</ele>
        <time>2008-11-15T13:19:21Z</time>
      </trkpt>
      <trkpt lat="43.49612" lon="3.72259">
        <ele>126</ele>
        <time>2008-11-15T13:19:26Z</time>
      </trkpt>
      <trkpt lat="43.49616" lon="3.72264">
        <ele>125.5</ele>
        <time>2008-11-15T13:19:31Z</time>
      </trkpt>
      <trkpt lat="43.4962" lon="3.72269">
        <ele>126</ele>
        <time>2008-11-15T13:19:36Z</time>
      </trkpt>
      <trkpt lat="43.49624" lon="3.72274">
        <ele>126</ele>
        <time>2008-11-15T13:19:41Z</time>
      </trkpt>
      <trkpt lat="43.49629" lon="3.7228">
        <ele>126</ele>
        <time>2008-11-15T13:19:46Z</time>
      </trkpt>
      <trkpt lat="43.49638" lon="3.72291">
        <ele>127</ele>
        <time>2008-11-15T13:19:56Z</time>
      </trkpt>
      <trkpt lat="43.49642" lon="3.72297">
        <ele>127.5</ele>
        <time>2008-11-15T13:20:02Z</time>
      </trkpt>
      <trkpt lat="43.49648" lon="3.72305">
        <ele>128.5</ele>
        <time>2008-11-15T13:20:10Z</time>
      </trkpt>
      <trkpt lat="43.49653" lon="3.7231">
        <ele>130</ele>
        <time>2008-11-15T13:20:16Z</time>
      </trkpt>
      <trkpt lat="43.49657" lon="3.72316">
        <ele>130.5</ele>
        <time>2008-11-15T13:20:22Z</time>
      </trkpt>
      <trkpt lat="43.49661" lon="3.72321">
        <ele>130.5</ele>
        <time>2008-11-15T13:20:27Z</time>
      </trkpt>
      <trkpt lat="43.49665" lon="3.72326">
        <ele>131</ele>
        <time>2008-11-15T13:20:32Z</time>
      </trkpt>
      <trkpt lat="43.49669" lon="3.7233">
        <ele>131.5</ele>
        <time>2008-11-15T13:20:37Z</time>
      </trkpt>
      <trkpt lat="43.49672" lon="3.72336">
        <ele>132</ele>
        <time>2008-11-15T13:20:42Z</time>
      </trkpt>
      <trkpt lat="43.49676" lon="3.72341">
        <ele>132.5</ele>
        <time>2008-11-15T13:20:47Z</time>
      </trkpt>
      <trkpt lat="43.49681" lon="3.72346">
        <ele>132.5</ele>
        <time>2008-11-15T13:20:52Z</time>
      </trkpt>
      <trkpt lat="43.49685" lon="3.72351">
        <ele>132.5</ele>
        <time>2008-11-15T13:20:57Z</time>
      </trkpt>
      <trkpt lat="43.4969" lon="3.72356">
        <ele>132.5</ele>
        <time>2008-11-15T13:21:02Z</time>
      </trkpt>
      <trkpt lat="43.49694" lon="3.7236">
        <ele>133</ele>
        <time>2008-11-15T13:21:07Z</time>
      </trkpt>
      <trkpt lat="43.49699" lon="3.72365">
        <ele>133.5</ele>
        <time>2008-11-15T13:21:12Z</time>
      </trkpt>
      <trkpt lat="43.49703" lon="3.7237">
        <ele>133.5</ele>
        <time>2008-11-15T13:21:17Z</time>
      </trkpt>
      <trkpt lat="43.49707" lon="3.72375">
        <ele>134</ele>
        <time>2008-11-15T13:21:22Z</time>
      </trkpt>
      <trkpt lat="43.49712" lon="3.7238">
        <ele>134</ele>
        <time>2008-11-15T13:21:27Z</time>
      </trkpt>
      <trkpt lat="43.49716" lon="3.72384">
        <ele>134</ele>
        <time>2008-11-15T13:21:32Z</time>
      </trkpt>
      <trkpt lat="43.4972" lon="3.72389">
        <ele>134</ele>
        <time>2008-11-15T13:21:37Z</time>
      </trkpt>
      <trkpt lat="43.49725" lon="3.72394">
        <ele>134</ele>
        <time>2008-11-15T13:21:42Z</time>
      </trkpt>
      <trkpt lat="43.49729" lon="3.72399">
        <ele>134</ele>
        <time>2008-11-15T13:21:47Z</time>
      </trkpt>
      <trkpt lat="43.49734" lon="3.72404">
        <ele>134.5</ele>
        <time>2008-11-15T13:21:52Z</time>
      </trkpt>
      <trkpt lat="43.49737" lon="3.72409">
        <ele>134.5</ele>
        <time>2008-11-15T13:21:57Z</time>
      </trkpt>
      <trkpt lat="43.49742" lon="3.72415">
        <ele>135</ele>
        <time>2008-11-15T13:22:02Z</time>
      </trkpt>
      <trkpt lat="43.49746" lon="3.7242">
        <ele>135</ele>
        <time>2008-11-15T13:22:07Z</time>
      </trkpt>
      <trkpt lat="43.4975" lon="3.72424">
        <ele>135.5</ele>
        <time>2008-11-15T13:22:12Z</time>
      </trkpt>
      <trkpt lat="43.49751" lon="3.72425">
        <ele>135</ele>
        <time>2008-11-15T13:22:17Z</time>
      </trkpt>
      <trkpt lat="43.49755" lon="3.7243">
        <ele>135.5</ele>
        <time>2008-11-15T13:22:22Z</time>
      </trkpt>
      <trkpt lat="43.49759" lon="3.72434">
        <ele>135</ele>
        <time>2008-11-15T13:22:29Z</time>
      </trkpt>
      <trkpt lat="43.49762" lon="3.72438">
        <ele>134.5</ele>
        <time>2008-11-15T13:23:04Z</time>
      </trkpt>
      <trkpt lat="43.49765" lon="3.72441">
        <ele>134</ele>
        <time>2008-11-15T13:23:10Z</time>
      </trkpt>
      <trkpt lat="43.49773" lon="3.72451">
        <ele>133.5</ele>
        <time>2008-11-15T13:23:19Z</time>
      </trkpt>
      <trkpt lat="43.49779" lon="3.72458">
        <ele>133</ele>
        <time>2008-11-15T13:23:26Z</time>
      </trkpt>
      <trkpt lat="43.49791" lon="3.72472">
        <ele>133.5</ele>
        <time>2008-11-15T13:23:41Z</time>
      </trkpt>
      <trkpt lat="43.49795" lon="3.72476">
        <ele>134</ele>
        <time>2008-11-15T13:23:46Z</time>
      </trkpt>
      <trkpt lat="43.49803" lon="3.72486">
        <ele>135</ele>
        <time>2008-11-15T13:23:55Z</time>
      </trkpt>
      <trkpt lat="43.49808" lon="3.72493">
        <ele>135</ele>
        <time>2008-11-15T13:24:01Z</time>
      </trkpt>
      <trkpt lat="43.49813" lon="3.72498">
        <ele>135</ele>
        <time>2008-11-15T13:24:07Z</time>
      </trkpt>
      <trkpt lat="43.49817" lon="3.72503">
        <ele>135</ele>
        <time>2008-11-15T13:24:12Z</time>
      </trkpt>
      <trkpt lat="43.4982" lon="3.72508">
        <ele>135.5</ele>
        <time>2008-11-15T13:24:17Z</time>
      </trkpt>
      <trkpt lat="43.49824" lon="3.72513">
        <ele>135.5</ele>
        <time>2008-11-15T13:24:22Z</time>
      </trkpt>
      <trkpt lat="43.49829" lon="3.72518">
        <ele>136</ele>
        <time>2008-11-15T13:24:27Z</time>
      </trkpt>
      <trkpt lat="43.49833" lon="3.72523">
        <ele>136</ele>
        <time>2008-11-15T13:24:32Z</time>
      </trkpt>
      <trkpt lat="43.49837" lon="3.72528">
        <ele>136</ele>
        <time>2008-11-15T13:24:37Z</time>
      </trkpt>
      <trkpt lat="43.49839" lon="3.72535">
        <ele>136.5</ele>
        <time>2008-11-15T13:24:42Z</time>
      </trkpt>
      <trkpt lat="43.4984" lon="3.72542">
        <ele>137</ele>
        <time>2008-11-15T13:24:47Z</time>
      </trkpt>
      <trkpt lat="43.49837" lon="3.72549">
        <ele>137.5</ele>
        <time>2008-11-15T13:24:52Z</time>
      </trkpt>
      <trkpt lat="43.49836" lon="3.72553">
        <ele>138</ele>
        <time>2008-11-15T13:24:57Z</time>
      </trkpt>
      <trkpt lat="43.49834" lon="3.72559">
        <ele>138</ele>
        <time>2008-11-15T13:25:02Z</time>
      </trkpt>
      <trkpt lat="43.49834" lon="3.72561">
        <ele>138</ele>
        <time>2008-11-15T13:25:07Z</time>
      </trkpt>
      <trkpt lat="43.4983" lon="3.72566">
        <ele>139</ele>
        <time>2008-11-15T13:25:12Z</time>
      </trkpt>
      <trkpt lat="43.49827" lon="3.72571">
        <ele>139</ele>
        <time>2008-11-15T13:25:17Z</time>
      </trkpt>
      <trkpt lat="43.49823" lon="3.72575">
        <ele>139</ele>
        <time>2008-11-15T13:25:22Z</time>
      </trkpt>
      <trkpt lat="43.49819" lon="3.72579">
        <ele>140</ele>
        <time>2008-11-15T13:25:27Z</time>
      </trkpt>
      <trkpt lat="43.49815" lon="3.72584">
        <ele>140.5</ele>
        <time>2008-11-15T13:25:32Z</time>
      </trkpt>
      <trkpt lat="43.49812" lon="3.72589">
        <ele>141</ele>
        <time>2008-11-15T13:25:37Z</time>
      </trkpt>
      <trkpt lat="43.49809" lon="3.72595">
        <ele>142.5</ele>
        <time>2008-11-15T13:25:42Z</time>
      </trkpt>
      <trkpt lat="43.49807" lon="3.72601">
        <ele>143</ele>
        <time>2008-11-15T13:25:47Z</time>
      </trkpt>
      <trkpt lat="43.49805" lon="3.72607">
        <ele>144</ele>
        <time>2008-11-15T13:25:52Z</time>
      </trkpt>
      <trkpt lat="43.49802" lon="3.72613">
        <ele>144</ele>
        <time>2008-11-15T13:25:57Z</time>
      </trkpt>
      <trkpt lat="43.49799" lon="3.72619">
        <ele>144</ele>
        <time>2008-11-15T13:26:02Z</time>
      </trkpt>
      <trkpt lat="43.49796" lon="3.72624">
        <ele>144</ele>
        <time>2008-11-15T13:26:07Z</time>
      </trkpt>
      <trkpt lat="43.49793" lon="3.7263">
        <ele>144</ele>
        <time>2008-11-15T13:26:12Z</time>
      </trkpt>
      <trkpt lat="43.49791" lon="3.72636">
        <ele>144</ele>
        <time>2008-11-15T13:26:17Z</time>
      </trkpt>
      <trkpt lat="43.4979" lon="3.72642">
        <ele>144.5</ele>
        <time>2008-11-15T13:26:22Z</time>
      </trkpt>
      <trkpt lat="43.49788" lon="3.72648">
        <ele>145</ele>
        <time>2008-11-15T13:26:27Z</time>
      </trkpt>
      <trkpt lat="43.49785" lon="3.72654">
        <ele>145.5</ele>
        <time>2008-11-15T13:26:32Z</time>
      </trkpt>
      <trkpt lat="43.49783" lon="3.7266">
        <ele>145.5</ele>
        <time>2008-11-15T13:26:37Z</time>
      </trkpt>
      <trkpt lat="43.49779" lon="3.72667">
        <ele>146</ele>
        <time>2008-11-15T13:26:42Z</time>
      </trkpt>
      <trkpt lat="43.49775" lon="3.72673">
        <ele>147</ele>
        <time>2008-11-15T13:26:47Z</time>
      </trkpt>
      <trkpt lat="43.49771" lon="3.72679">
        <ele>147.5</ele>
        <time>2008-11-15T13:26:52Z</time>
      </trkpt>
      <trkpt lat="43.49768" lon="3.72684">
        <ele>147.5</ele>
        <time>2008-11-15T13:26:57Z</time>
      </trkpt>
      <trkpt lat="43.49764" lon="3.72691">
        <ele>147.5</ele>
        <time>2008-11-15T13:27:02Z</time>
      </trkpt>
      <trkpt lat="43.49762" lon="3.72697">
        <ele>147.5</ele>
        <time>2008-11-15T13:27:07Z</time>
      </trkpt>
      <trkpt lat="43.49759" lon="3.72703">
        <ele>147.5</ele>
        <time>2008-11-15T13:27:12Z</time>
      </trkpt>
      <trkpt lat="43.4975" lon="3.7272">
        <ele>148</ele>
        <time>2008-11-15T13:27:27Z</time>
      </trkpt>
      <trkpt lat="43.49747" lon="3.72729">
        <ele>148.5</ele>
        <time>2008-11-15T13:27:35Z</time>
      </trkpt>
      <trkpt lat="43.49745" lon="3.72742">
        <ele>148.5</ele>
        <time>2008-11-15T13:27:45Z</time>
      </trkpt>
      <trkpt lat="43.49744" lon="3.72749">
        <ele>148.5</ele>
        <time>2008-11-15T13:27:51Z</time>
      </trkpt>
      <trkpt lat="43.49744" lon="3.72755">
        <ele>148</ele>
        <time>2008-11-15T13:27:56Z</time>
      </trkpt>
      <trkpt lat="43.49744" lon="3.72762">
        <ele>148.5</ele>
        <time>2008-11-15T13:28:01Z</time>
      </trkpt>
      <trkpt lat="43.49743" lon="3.72768">
        <ele>149</ele>
        <time>2008-11-15T13:28:06Z</time>
      </trkpt>
      <trkpt lat="43.4974" lon="3.72774">
        <ele>149</ele>
        <time>2008-11-15T13:28:11Z</time>
      </trkpt>
      <trkpt lat="43.49738" lon="3.7278">
        <ele>149.5</ele>
        <time>2008-11-15T13:28:16Z</time>
      </trkpt>
      <trkpt lat="43.49734" lon="3.72783">
        <ele>150</ele>
        <time>2008-11-15T13:28:21Z</time>
      </trkpt>
      <trkpt lat="43.49729" lon="3.72788">
        <ele>150.5</ele>
        <time>2008-11-15T13:28:26Z</time>
      </trkpt>
      <trkpt lat="43.49725" lon="3.72792">
        <ele>151</ele>
        <time>2008-11-15T13:28:31Z</time>
      </trkpt>
      <trkpt lat="43.4972" lon="3.72795">
        <ele>151</ele>
        <time>2008-11-15T13:28:36Z</time>
      </trkpt>
      <trkpt lat="43.49715" lon="3.72797">
        <ele>151</ele>
        <time>2008-11-15T13:28:41Z</time>
      </trkpt>
      <trkpt lat="43.49711" lon="3.72797">
        <ele>150.5</ele>
        <time>2008-11-15T13:28:46Z</time>
      </trkpt>
      <trkpt lat="43.49707" lon="3.72798">
        <ele>150.5</ele>
        <time>2008-11-15T13:28:51Z</time>
      </trkpt>
      <trkpt lat="43.49703" lon="3.728">
        <ele>150</ele>
        <time>2008-11-15T13:28:56Z</time>
      </trkpt>
      <trkpt lat="43.49701" lon="3.728">
        <ele>150.5</ele>
        <time>2008-11-15T13:29:31Z</time>
      </trkpt>
      <trkpt lat="43.49698" lon="3.72804">
        <ele>149.5</ele>
        <time>2008-11-15T13:29:50Z</time>
      </trkpt>
      <trkpt lat="43.49694" lon="3.7281">
        <ele>151.5</ele>
        <time>2008-11-15T13:29:56Z</time>
      </trkpt>
      <trkpt lat="43.49687" lon="3.72818">
        <ele>153.5</ele>
        <time>2008-11-15T13:30:05Z</time>
      </trkpt>
      <trkpt lat="43.49683" lon="3.72825">
        <ele>154.5</ele>
        <time>2008-11-15T13:30:11Z</time>
      </trkpt>
      <trkpt lat="43.49676" lon="3.72834">
        <ele>154.5</ele>
        <time>2008-11-15T13:30:20Z</time>
      </trkpt>
      <trkpt lat="43.49671" lon="3.72842">
        <ele>155.5</ele>
        <time>2008-11-15T13:30:28Z</time>
      </trkpt>
      <trkpt lat="43.49668" lon="3.72847">
        <ele>156</ele>
        <time>2008-11-15T13:30:33Z</time>
      </trkpt>
      <trkpt lat="43.49665" lon="3.72853">
        <ele>155.5</ele>
        <time>2008-11-15T13:30:38Z</time>
      </trkpt>
      <trkpt lat="43.49661" lon="3.72858">
        <ele>154.5</ele>
        <time>2008-11-15T13:30:43Z</time>
      </trkpt>
      <trkpt lat="43.49658" lon="3.72864">
        <ele>155.5</ele>
        <time>2008-11-15T13:30:48Z</time>
      </trkpt>
      <trkpt lat="43.49655" lon="3.7287">
        <ele>156.5</ele>
        <time>2008-11-15T13:30:53Z</time>
      </trkpt>
      <trkpt lat="43.49653" lon="3.72877">
        <ele>156.5</ele>
        <time>2008-11-15T13:30:58Z</time>
      </trkpt>
      <trkpt lat="43.49652" lon="3.72883">
        <ele>157</ele>
        <time>2008-11-15T13:31:03Z</time>
      </trkpt>
      <trkpt lat="43.49652" lon="3.72894">
        <ele>156.5</ele>
        <time>2008-11-15T13:31:11Z</time>
      </trkpt>
      <trkpt lat="43.49652" lon="3.72901">
        <ele>157</ele>
        <time>2008-11-15T13:31:16Z</time>
      </trkpt>
      <trkpt lat="43.49652" lon="3.72901">
        <ele>157</ele>
        <time>2008-11-15T13:31:16Z</time>
      </trkpt>
      <trkpt lat="43.49653" lon="3.72906">
        <ele>157.5</ele>
        <time>2008-11-15T13:31:19Z</time>
      </trkpt>
      <trkpt lat="43.49653" lon="3.72913">
        <ele>158.5</ele>
        <time>2008-11-15T13:31:24Z</time>
      </trkpt>
      <trkpt lat="43.49652" lon="3.72919">
        <ele>158</ele>
        <time>2008-11-15T13:31:29Z</time>
      </trkpt>
      <trkpt lat="43.49652" lon="3.72924">
        <ele>158</ele>
        <time>2008-11-15T13:31:34Z</time>
      </trkpt>
      <trkpt lat="43.49653" lon="3.7293">
        <ele>159</ele>
        <time>2008-11-15T13:31:39Z</time>
      </trkpt>
      <trkpt lat="43.49653" lon="3.72932">
        <ele>159</ele>
        <time>2008-11-15T13:31:44Z</time>
      </trkpt>
      <trkpt lat="43.49653" lon="3.72938">
        <ele>159</ele>
        <time>2008-11-15T13:31:49Z</time>
      </trkpt>
      <trkpt lat="43.49655" lon="3.72944">
        <ele>159</ele>
        <time>2008-11-15T13:31:54Z</time>
      </trkpt>
      <trkpt lat="43.49655" lon="3.72949">
        <ele>159</ele>
        <time>2008-11-15T13:31:59Z</time>
      </trkpt>
      <trkpt lat="43.49654" lon="3.72954">
        <ele>159.5</ele>
        <time>2008-11-15T13:32:04Z</time>
      </trkpt>
      <trkpt lat="43.49652" lon="3.72957">
        <ele>159</ele>
        <time>2008-11-15T13:32:09Z</time>
      </trkpt>
      <trkpt lat="43.49651" lon="3.72958">
        <ele>158</ele>
        <time>2008-11-15T13:32:14Z</time>
      </trkpt>
      <trkpt lat="43.4965" lon="3.72961">
        <ele>157.5</ele>
        <time>2008-11-15T13:32:19Z</time>
      </trkpt>
      <trkpt lat="43.49647" lon="3.72966">
        <ele>158</ele>
        <time>2008-11-15T13:32:24Z</time>
      </trkpt>
      <trkpt lat="43.49643" lon="3.72971">
        <ele>158.5</ele>
        <time>2008-11-15T13:32:29Z</time>
      </trkpt>
      <trkpt lat="43.4964" lon="3.72976">
        <ele>159</ele>
        <time>2008-11-15T13:32:34Z</time>
      </trkpt>
      <trkpt lat="43.49637" lon="3.72981">
        <ele>159.5</ele>
        <time>2008-11-15T13:32:39Z</time>
      </trkpt>
      <trkpt lat="43.49635" lon="3.72988">
        <ele>160</ele>
        <time>2008-11-15T13:32:44Z</time>
      </trkpt>
      <trkpt lat="43.49633" lon="3.72995">
        <ele>160</ele>
        <time>2008-11-15T13:32:49Z</time>
      </trkpt>
      <trkpt lat="43.49631" lon="3.73001">
        <ele>160</ele>
        <time>2008-11-15T13:32:54Z</time>
      </trkpt>
      <trkpt lat="43.4963" lon="3.73008">
        <ele>160.5</ele>
        <time>2008-11-15T13:32:59Z</time>
      </trkpt>
      <trkpt lat="43.49629" lon="3.73015">
        <ele>161</ele>
        <time>2008-11-15T13:33:04Z</time>
      </trkpt>
      <trkpt lat="43.49629" lon="3.73022">
        <ele>161</ele>
        <time>2008-11-15T13:33:09Z</time>
      </trkpt>
      <trkpt lat="43.4963" lon="3.73029">
        <ele>160.5</ele>
        <time>2008-11-15T13:33:14Z</time>
      </trkpt>
      <trkpt lat="43.4963" lon="3.73035">
        <ele>160.5</ele>
        <time>2008-11-15T13:33:19Z</time>
      </trkpt>
      <trkpt lat="43.4963" lon="3.73041">
        <ele>161</ele>
        <time>2008-11-15T13:33:24Z</time>
      </trkpt>
      <trkpt lat="43.49628" lon="3.73047">
        <ele>161.5</ele>
        <time>2008-11-15T13:33:29Z</time>
      </trkpt>
      <trkpt lat="43.49626" lon="3.73053">
        <ele>161</ele>
        <time>2008-11-15T13:33:34Z</time>
      </trkpt>
      <trkpt lat="43.49625" lon="3.7306">
        <ele>161</ele>
        <time>2008-11-15T13:33:39Z</time>
      </trkpt>
      <trkpt lat="43.49627" lon="3.73067">
        <ele>161</ele>
        <time>2008-11-15T13:33:46Z</time>
      </trkpt>
      <trkpt lat="43.49628" lon="3.73078">
        <ele>160.5</ele>
        <time>2008-11-15T13:33:55Z</time>
      </trkpt>
      <trkpt lat="43.49627" lon="3.73087">
        <ele>159.5</ele>
        <time>2008-11-15T13:34:01Z</time>
      </trkpt>
      <trkpt lat="43.49627" lon="3.731">
        <ele>159.5</ele>
        <time>2008-11-15T13:34:11Z</time>
      </trkpt>
      <trkpt lat="43.49628" lon="3.73107">
        <ele>159.5</ele>
        <time>2008-11-15T13:34:16Z</time>
      </trkpt>
      <trkpt lat="43.49629" lon="3.73113">
        <ele>159.5</ele>
        <time>2008-11-15T13:34:21Z</time>
      </trkpt>
      <trkpt lat="43.49629" lon="3.73116">
        <ele>159.5</ele>
        <time>2008-11-15T13:34:26Z</time>
      </trkpt>
      <trkpt lat="43.49628" lon="3.73119">
        <ele>159.5</ele>
        <time>2008-11-15T13:34:31Z</time>
      </trkpt>
      <trkpt lat="43.49627" lon="3.73126">
        <ele>160</ele>
        <time>2008-11-15T13:34:36Z</time>
      </trkpt>
      <trkpt lat="43.49626" lon="3.73132">
        <ele>160.5</ele>
        <time>2008-11-15T13:34:41Z</time>
      </trkpt>
      <trkpt lat="43.49634" lon="3.73145">
        <ele>162</ele>
        <time>2008-11-15T13:34:56Z</time>
      </trkpt>
      <trkpt lat="43.49635" lon="3.73148">
        <ele>162</ele>
        <time>2008-11-15T13:34:59Z</time>
      </trkpt>
      <trkpt lat="43.49634" lon="3.73159">
        <ele>162.5</ele>
        <time>2008-11-15T13:35:09Z</time>
      </trkpt>
      <trkpt lat="43.49635" lon="3.73173">
        <ele>163</ele>
        <time>2008-11-15T13:35:19Z</time>
      </trkpt>
      <trkpt lat="43.49635" lon="3.73179">
        <ele>163.5</ele>
        <time>2008-11-15T13:35:24Z</time>
      </trkpt>
      <trkpt lat="43.49635" lon="3.73186">
        <ele>164.5</ele>
        <time>2008-11-15T13:35:29Z</time>
      </trkpt>
      <trkpt lat="43.49636" lon="3.73192">
        <ele>165</ele>
        <time>2008-11-15T13:35:34Z</time>
      </trkpt>
      <trkpt lat="43.49636" lon="3.73199">
        <ele>164.5</ele>
        <time>2008-11-15T13:35:39Z</time>
      </trkpt>
      <trkpt lat="43.49636" lon="3.73206">
        <ele>165</ele>
        <time>2008-11-15T13:35:44Z</time>
      </trkpt>
      <trkpt lat="43.49636" lon="3.73213">
        <ele>165</ele>
        <time>2008-11-15T13:35:49Z</time>
      </trkpt>
      <trkpt lat="43.49636" lon="3.73217">
        <ele>164.5</ele>
        <time>2008-11-15T13:36:21Z</time>
      </trkpt>
      <trkpt lat="43.49637" lon="3.73221">
        <ele>164.5</ele>
        <time>2008-11-15T13:36:26Z</time>
      </trkpt>
      <trkpt lat="43.49638" lon="3.73227">
        <ele>164</ele>
        <time>2008-11-15T13:36:31Z</time>
      </trkpt>
      <trkpt lat="43.49639" lon="3.73233">
        <ele>164</ele>
        <time>2008-11-15T13:36:36Z</time>
      </trkpt>
      <trkpt lat="43.49641" lon="3.7324">
        <ele>164</ele>
        <time>2008-11-15T13:36:41Z</time>
      </trkpt>
      <trkpt lat="43.49642" lon="3.73247">
        <ele>163.5</ele>
        <time>2008-11-15T13:36:46Z</time>
      </trkpt>
      <trkpt lat="43.49643" lon="3.73253">
        <ele>163.5</ele>
        <time>2008-11-15T13:36:51Z</time>
      </trkpt>
      <trkpt lat="43.49645" lon="3.73259">
        <ele>163.5</ele>
        <time>2008-11-15T13:36:56Z</time>
      </trkpt>
      <trkpt lat="43.49647" lon="3.73264">
        <ele>164</ele>
        <time>2008-11-15T13:37:01Z</time>
      </trkpt>
      <trkpt lat="43.49649" lon="3.73269">
        <ele>164</ele>
        <time>2008-11-15T13:37:06Z</time>
      </trkpt>
      <trkpt lat="43.49651" lon="3.73275">
        <ele>164.5</ele>
        <time>2008-11-15T13:37:11Z</time>
      </trkpt>
      <trkpt lat="43.49654" lon="3.7328">
        <ele>165</ele>
        <time>2008-11-15T13:37:16Z</time>
      </trkpt>
      <trkpt lat="43.49656" lon="3.73286">
        <ele>165</ele>
        <time>2008-11-15T13:37:21Z</time>
      </trkpt>
      <trkpt lat="43.49657" lon="3.73291">
        <ele>165.5</ele>
        <time>2008-11-15T13:37:26Z</time>
      </trkpt>
      <trkpt lat="43.49659" lon="3.73296">
        <ele>165.5</ele>
        <time>2008-11-15T13:37:31Z</time>
      </trkpt>
      <trkpt lat="43.49662" lon="3.73301">
        <ele>165.5</ele>
        <time>2008-11-15T13:37:36Z</time>
      </trkpt>
      <trkpt lat="43.49664" lon="3.73305">
        <ele>166</ele>
        <time>2008-11-15T13:37:41Z</time>
      </trkpt>
      <trkpt lat="43.49667" lon="3.73311">
        <ele>166.5</ele>
        <time>2008-11-15T13:37:46Z</time>
      </trkpt>
      <trkpt lat="43.49668" lon="3.73316">
        <ele>167</ele>
        <time>2008-11-15T13:37:51Z</time>
      </trkpt>
      <trkpt lat="43.4967" lon="3.73325">
        <ele>167</ele>
        <time>2008-11-15T13:37:59Z</time>
      </trkpt>
      <trkpt lat="43.49671" lon="3.73332">
        <ele>166.5</ele>
        <time>2008-11-15T13:38:05Z</time>
      </trkpt>
      <trkpt lat="43.49672" lon="3.73346">
        <ele>166.5</ele>
        <time>2008-11-15T13:38:15Z</time>
      </trkpt>
      <trkpt lat="43.49675" lon="3.73369">
        <ele>167.5</ele>
        <time>2008-11-15T13:38:33Z</time>
      </trkpt>
      <trkpt lat="43.49677" lon="3.7338">
        <ele>167.5</ele>
        <time>2008-11-15T13:38:42Z</time>
      </trkpt>
      <trkpt lat="43.49676" lon="3.73387">
        <ele>167</ele>
        <time>2008-11-15T13:38:47Z</time>
      </trkpt>
      <trkpt lat="43.49681" lon="3.73395">
        <ele>167.5</ele>
        <time>2008-11-15T13:38:55Z</time>
      </trkpt>
      <trkpt lat="43.49687" lon="3.73402">
        <ele>168</ele>
        <time>2008-11-15T13:39:05Z</time>
      </trkpt>
      <trkpt lat="43.4969" lon="3.73404">
        <ele>168.5</ele>
        <time>2008-11-15T13:39:10Z</time>
      </trkpt>
      <trkpt lat="43.49693" lon="3.73408">
        <ele>169</ele>
        <time>2008-11-15T13:39:15Z</time>
      </trkpt>
      <trkpt lat="43.49695" lon="3.73413">
        <ele>169</ele>
        <time>2008-11-15T13:39:20Z</time>
      </trkpt>
      <trkpt lat="43.49697" lon="3.7342">
        <ele>168</ele>
        <time>2008-11-15T13:39:25Z</time>
      </trkpt>
      <trkpt lat="43.49695" lon="3.73425">
        <ele>169</ele>
        <time>2008-11-15T13:39:30Z</time>
      </trkpt>
      <trkpt lat="43.49693" lon="3.7343">
        <ele>170</ele>
        <time>2008-11-15T13:39:35Z</time>
      </trkpt>
      <trkpt lat="43.4969" lon="3.73434">
        <ele>170.5</ele>
        <time>2008-11-15T13:39:40Z</time>
      </trkpt>
      <trkpt lat="43.49691" lon="3.73441">
        <ele>171</ele>
        <time>2008-11-15T13:39:45Z</time>
      </trkpt>
      <trkpt lat="43.49692" lon="3.73446">
        <ele>171.5</ele>
        <time>2008-11-15T13:39:50Z</time>
      </trkpt>
      <trkpt lat="43.49693" lon="3.73452">
        <ele>172</ele>
        <time>2008-11-15T13:39:55Z</time>
      </trkpt>
      <trkpt lat="43.49694" lon="3.73459">
        <ele>172</ele>
        <time>2008-11-15T13:40:00Z</time>
      </trkpt>
      <trkpt lat="43.49696" lon="3.73466">
        <ele>173.5</ele>
        <time>2008-11-15T13:40:05Z</time>
      </trkpt>
      <trkpt lat="43.49697" lon="3.73473">
        <ele>175</ele>
        <time>2008-11-15T13:40:10Z</time>
      </trkpt>
      <trkpt lat="43.49698" lon="3.7348">
        <ele>176</ele>
        <time>2008-11-15T13:40:15Z</time>
      </trkpt>
      <trkpt lat="43.49698" lon="3.73487">
        <ele>177</ele>
        <time>2008-11-15T13:40:20Z</time>
      </trkpt>
      <trkpt lat="43.49698" lon="3.73494">
        <ele>177.5</ele>
        <time>2008-11-15T13:40:25Z</time>
      </trkpt>
      <trkpt lat="43.497" lon="3.73501">
        <ele>177.5</ele>
        <time>2008-11-15T13:40:30Z</time>
      </trkpt>
      <trkpt lat="43.49701" lon="3.73508">
        <ele>178</ele>
        <time>2008-11-15T13:40:35Z</time>
      </trkpt>
      <trkpt lat="43.49703" lon="3.73513">
        <ele>177.5</ele>
        <time>2008-11-15T13:40:40Z</time>
      </trkpt>
      <trkpt lat="43.49705" lon="3.7352">
        <ele>177</ele>
        <time>2008-11-15T13:40:45Z</time>
      </trkpt>
      <trkpt lat="43.49706" lon="3.73526">
        <ele>177.5</ele>
        <time>2008-11-15T13:40:50Z</time>
      </trkpt>
      <trkpt lat="43.49708" lon="3.73533">
        <ele>177.5</ele>
        <time>2008-11-15T13:40:55Z</time>
      </trkpt>
      <trkpt lat="43.49711" lon="3.73539">
        <ele>176.5</ele>
        <time>2008-11-15T13:41:00Z</time>
      </trkpt>
      <trkpt lat="43.49713" lon="3.73544">
        <ele>176</ele>
        <time>2008-11-15T13:41:05Z</time>
      </trkpt>
      <trkpt lat="43.49715" lon="3.73551">
        <ele>176</ele>
        <time>2008-11-15T13:41:10Z</time>
      </trkpt>
      <trkpt lat="43.49717" lon="3.73557">
        <ele>175.5</ele>
        <time>2008-11-15T13:41:15Z</time>
      </trkpt>
      <trkpt lat="43.49719" lon="3.73563">
        <ele>175.5</ele>
        <time>2008-11-15T13:41:20Z</time>
      </trkpt>
      <trkpt lat="43.4972" lon="3.7357">
        <ele>175.5</ele>
        <time>2008-11-15T13:41:25Z</time>
      </trkpt>
      <trkpt lat="43.4972" lon="3.73577">
        <ele>176</ele>
        <time>2008-11-15T13:41:30Z</time>
      </trkpt>
      <trkpt lat="43.49723" lon="3.73584">
        <ele>175</ele>
        <time>2008-11-15T13:41:35Z</time>
      </trkpt>
      <trkpt lat="43.49725" lon="3.7359">
        <ele>175.5</ele>
        <time>2008-11-15T13:41:40Z</time>
      </trkpt>
      <trkpt lat="43.49727" lon="3.73596">
        <ele>175.5</ele>
        <time>2008-11-15T13:41:45Z</time>
      </trkpt>
      <trkpt lat="43.49726" lon="3.73603">
        <ele>176.5</ele>
        <time>2008-11-15T13:41:50Z</time>
      </trkpt>
      <trkpt lat="43.49724" lon="3.73608">
        <ele>177.5</ele>
        <time>2008-11-15T13:41:55Z</time>
      </trkpt>
      <trkpt lat="43.49723" lon="3.73616">
        <ele>178.5</ele>
        <time>2008-11-15T13:42:00Z</time>
      </trkpt>
      <trkpt lat="43.49722" lon="3.73621">
        <ele>179.5</ele>
        <time>2008-11-15T13:42:05Z</time>
      </trkpt>
      <trkpt lat="43.4972" lon="3.73627">
        <ele>180.5</ele>
        <time>2008-11-15T13:42:10Z</time>
      </trkpt>
      <trkpt lat="43.49718" lon="3.73638">
        <ele>181</ele>
        <time>2008-11-15T13:42:27Z</time>
      </trkpt>
      <trkpt lat="43.49718" lon="3.73638">
        <ele>181</ele>
        <time>2008-11-15T13:42:29Z</time>
      </trkpt>
      <trkpt lat="43.49716" lon="3.73644">
        <ele>180</ele>
        <time>2008-11-15T13:42:35Z</time>
      </trkpt>
      <trkpt lat="43.49709" lon="3.73652">
        <ele>179.5</ele>
        <time>2008-11-15T13:42:45Z</time>
      </trkpt>
      <trkpt lat="43.49698" lon="3.73662">
        <ele>178.5</ele>
        <time>2008-11-15T13:42:59Z</time>
      </trkpt>
      <trkpt lat="43.4969" lon="3.7367">
        <ele>179</ele>
        <time>2008-11-15T13:43:09Z</time>
      </trkpt>
      <trkpt lat="43.49684" lon="3.73678">
        <ele>181</ele>
        <time>2008-11-15T13:43:19Z</time>
      </trkpt>
      <trkpt lat="43.4968" lon="3.73681">
        <ele>181.5</ele>
        <time>2008-11-15T13:43:24Z</time>
      </trkpt>
      <trkpt lat="43.49677" lon="3.73683">
        <ele>182</ele>
        <time>2008-11-15T13:43:29Z</time>
      </trkpt>
      <trkpt lat="43.49672" lon="3.73686">
        <ele>182.5</ele>
        <time>2008-11-15T13:43:34Z</time>
      </trkpt>
      <trkpt lat="43.49668" lon="3.73689">
        <ele>183</ele>
        <time>2008-11-15T13:43:39Z</time>
      </trkpt>
      <trkpt lat="43.49665" lon="3.73692">
        <ele>184.5</ele>
        <time>2008-11-15T13:43:44Z</time>
      </trkpt>
      <trkpt lat="43.49661" lon="3.73695">
        <ele>185</ele>
        <time>2008-11-15T13:43:49Z</time>
      </trkpt>
      <trkpt lat="43.49657" lon="3.73699">
        <ele>186</ele>
        <time>2008-11-15T13:43:55Z</time>
      </trkpt>
      <trkpt lat="43.49646" lon="3.73705">
        <ele>188</ele>
        <time>2008-11-15T13:44:08Z</time>
      </trkpt>
      <trkpt lat="43.49637" lon="3.73711">
        <ele>189.5</ele>
        <time>2008-11-15T13:44:20Z</time>
      </trkpt>
      <trkpt lat="43.49632" lon="3.73714">
        <ele>189</ele>
        <time>2008-11-15T13:44:42Z</time>
      </trkpt>
      <trkpt lat="43.49626" lon="3.73717">
        <ele>188.5</ele>
        <time>2008-11-15T13:44:49Z</time>
      </trkpt>
      <trkpt lat="43.4962" lon="3.73721">
        <ele>189</ele>
        <time>2008-11-15T13:44:57Z</time>
      </trkpt>
      <trkpt lat="43.49614" lon="3.73724">
        <ele>189.5</ele>
        <time>2008-11-15T13:45:04Z</time>
      </trkpt>
      <trkpt lat="43.49609" lon="3.73728">
        <ele>189.5</ele>
        <time>2008-11-15T13:45:14Z</time>
      </trkpt>
      <trkpt lat="43.49603" lon="3.73735">
        <ele>190</ele>
        <time>2008-11-15T13:45:23Z</time>
      </trkpt>
      <trkpt lat="43.49599" lon="3.73739">
        <ele>189.5</ele>
        <time>2008-11-15T13:45:28Z</time>
      </trkpt>
      <trkpt lat="43.49594" lon="3.73742">
        <ele>189</ele>
        <time>2008-11-15T13:45:33Z</time>
      </trkpt>
      <trkpt lat="43.4959" lon="3.73746">
        <ele>188.5</ele>
        <time>2008-11-15T13:45:38Z</time>
      </trkpt>
      <trkpt lat="43.49586" lon="3.7375">
        <ele>189</ele>
        <time>2008-11-15T13:45:43Z</time>
      </trkpt>
      <trkpt lat="43.49582" lon="3.73754">
        <ele>189</ele>
        <time>2008-11-15T13:45:48Z</time>
      </trkpt>
      <trkpt lat="43.49578" lon="3.73758">
        <ele>189.5</ele>
        <time>2008-11-15T13:45:53Z</time>
      </trkpt>
      <trkpt lat="43.49574" lon="3.73763">
        <ele>190</ele>
        <time>2008-11-15T13:45:58Z</time>
      </trkpt>
      <trkpt lat="43.49571" lon="3.73767">
        <ele>190</ele>
        <time>2008-11-15T13:46:03Z</time>
      </trkpt>
      <trkpt lat="43.49564" lon="3.73774">
        <ele>190.5</ele>
        <time>2008-11-15T13:46:12Z</time>
      </trkpt>
      <trkpt lat="43.4956" lon="3.73778">
        <ele>191</ele>
        <time>2008-11-15T13:46:18Z</time>
      </trkpt>
      <trkpt lat="43.49556" lon="3.73783">
        <ele>192</ele>
        <time>2008-11-15T13:46:24Z</time>
      </trkpt>
      <trkpt lat="43.49549" lon="3.73791">
        <ele>192</ele>
        <time>2008-11-15T13:46:34Z</time>
      </trkpt>
      <trkpt lat="43.49542" lon="3.738">
        <ele>191.5</ele>
        <time>2008-11-15T13:46:44Z</time>
      </trkpt>
      <trkpt lat="43.49537" lon="3.73808">
        <ele>193.5</ele>
        <time>2008-11-15T13:46:54Z</time>
      </trkpt>
      <trkpt lat="43.4953" lon="3.73814">
        <ele>194</ele>
        <time>2008-11-15T13:47:03Z</time>
      </trkpt>
      <trkpt lat="43.49526" lon="3.73819">
        <ele>194.5</ele>
        <time>2008-11-15T13:47:09Z</time>
      </trkpt>
      <trkpt lat="43.4952" lon="3.73826">
        <ele>195.5</ele>
        <time>2008-11-15T13:47:19Z</time>
      </trkpt>
      <trkpt lat="43.49514" lon="3.73833">
        <ele>198</ele>
        <time>2008-11-15T13:47:31Z</time>
      </trkpt>
      <trkpt lat="43.49507" lon="3.7384">
        <ele>200</ele>
        <time>2008-11-15T13:47:44Z</time>
      </trkpt>
      <trkpt lat="43.495" lon="3.73847">
        <ele>201.5</ele>
        <time>2008-11-15T13:47:54Z</time>
      </trkpt>
      <trkpt lat="43.49495" lon="3.73852">
        <ele>202.5</ele>
        <time>2008-11-15T13:48:03Z</time>
      </trkpt>
      <trkpt lat="43.49491" lon="3.73857">
        <ele>204</ele>
        <time>2008-11-15T13:48:12Z</time>
      </trkpt>
      <trkpt lat="43.49488" lon="3.73859">
        <ele>203.5</ele>
        <time>2008-11-15T13:48:39Z</time>
      </trkpt>
      <trkpt lat="43.49483" lon="3.73866">
        <ele>206.5</ele>
        <time>2008-11-15T13:48:49Z</time>
      </trkpt>
      <trkpt lat="43.49476" lon="3.73871">
        <ele>207.5</ele>
        <time>2008-11-15T13:48:59Z</time>
      </trkpt>
      <trkpt lat="43.4947" lon="3.73877">
        <ele>209</ele>
        <time>2008-11-15T13:49:08Z</time>
      </trkpt>
      <trkpt lat="43.49467" lon="3.73881">
        <ele>209.5</ele>
        <time>2008-11-15T13:49:14Z</time>
      </trkpt>
      <trkpt lat="43.4946" lon="3.73889">
        <ele>212</ele>
        <time>2008-11-15T13:49:29Z</time>
      </trkpt>
      <trkpt lat="43.49458" lon="3.73891">
        <ele>212.5</ele>
        <time>2008-11-15T13:49:57Z</time>
      </trkpt>
      <trkpt lat="43.49455" lon="3.73894">
        <ele>210</ele>
        <time>2008-11-15T13:50:51Z</time>
      </trkpt>
      <trkpt lat="43.4945" lon="3.73899">
        <ele>211.5</ele>
        <time>2008-11-15T13:51:26Z</time>
      </trkpt>
      <trkpt lat="43.49448" lon="3.73903">
        <ele>214</ele>
        <time>2008-11-15T13:51:32Z</time>
      </trkpt>
      <trkpt lat="43.49439" lon="3.73912">
        <ele>219</ele>
        <time>2008-11-15T13:51:48Z</time>
      </trkpt>
      <trkpt lat="43.49433" lon="3.73918">
        <ele>221</ele>
        <time>2008-11-15T13:51:58Z</time>
      </trkpt>
      <trkpt lat="43.49426" lon="3.73924">
        <ele>222</ele>
        <time>2008-11-15T13:52:08Z</time>
      </trkpt>
      <trkpt lat="43.49421" lon="3.73928">
        <ele>222</ele>
        <time>2008-11-15T13:52:21Z</time>
      </trkpt>
      <trkpt lat="43.49416" lon="3.73931">
        <ele>223.5</ele>
        <time>2008-11-15T13:52:27Z</time>
      </trkpt>
      <trkpt lat="43.49407" lon="3.73935">
        <ele>224.5</ele>
        <time>2008-11-15T13:52:37Z</time>
      </trkpt>
      <trkpt lat="43.49397" lon="3.73939">
        <ele>225</ele>
        <time>2008-11-15T13:52:47Z</time>
      </trkpt>
      <trkpt lat="43.49389" lon="3.73943">
        <ele>225</ele>
        <time>2008-11-15T13:52:56Z</time>
      </trkpt>
      <trkpt lat="43.49384" lon="3.73944">
        <ele>225.5</ele>
        <time>2008-11-15T13:53:01Z</time>
      </trkpt>
      <trkpt lat="43.49379" lon="3.73946">
        <ele>225.5</ele>
        <time>2008-11-15T13:53:06Z</time>
      </trkpt>
      <trkpt lat="43.49374" lon="3.73947">
        <ele>226</ele>
        <time>2008-11-15T13:53:11Z</time>
      </trkpt>
      <trkpt lat="43.49369" lon="3.73948">
        <ele>226</ele>
        <time>2008-11-15T13:53:16Z</time>
      </trkpt>
      <trkpt lat="43.49364" lon="3.73951">
        <ele>225</ele>
        <time>2008-11-15T13:53:21Z</time>
      </trkpt>
      <trkpt lat="43.49359" lon="3.73954">
        <ele>224.5</ele>
        <time>2008-11-15T13:53:26Z</time>
      </trkpt>
      <trkpt lat="43.49356" lon="3.73957">
        <ele>224</ele>
        <time>2008-11-15T13:53:31Z</time>
      </trkpt>
      <trkpt lat="43.49348" lon="3.73966">
        <ele>222.5</ele>
        <time>2008-11-15T13:53:42Z</time>
      </trkpt>
      <trkpt lat="43.4934" lon="3.73975">
        <ele>222</ele>
        <time>2008-11-15T13:53:52Z</time>
      </trkpt>
      <trkpt lat="43.49336" lon="3.73981">
        <ele>221.5</ele>
        <time>2008-11-15T13:53:58Z</time>
      </trkpt>
      <trkpt lat="43.49334" lon="3.73986">
        <ele>220.5</ele>
        <time>2008-11-15T13:54:17Z</time>
      </trkpt>
      <trkpt lat="43.4933" lon="3.73991">
        <ele>220</ele>
        <time>2008-11-15T13:54:26Z</time>
      </trkpt>
      <trkpt lat="43.49325" lon="3.73991">
        <ele>221</ele>
        <time>2008-11-15T13:54:32Z</time>
      </trkpt>
      <trkpt lat="43.49321" lon="3.73995">
        <ele>221.5</ele>
        <time>2008-11-15T13:54:38Z</time>
      </trkpt>
      <trkpt lat="43.49314" lon="3.74001">
        <ele>222</ele>
        <time>2008-11-15T13:54:48Z</time>
      </trkpt>
      <trkpt lat="43.49308" lon="3.74001">
        <ele>223.5</ele>
        <time>2008-11-15T13:54:56Z</time>
      </trkpt>
      <trkpt lat="43.49302" lon="3.74002">
        <ele>225.5</ele>
        <time>2008-11-15T13:55:07Z</time>
      </trkpt>
      <trkpt lat="43.49299" lon="3.74004">
        <ele>225</ele>
        <time>2008-11-15T13:55:35Z</time>
      </trkpt>
      <trkpt lat="43.49292" lon="3.74006">
        <ele>224.5</ele>
        <time>2008-11-15T13:55:41Z</time>
      </trkpt>
      <trkpt lat="43.49289" lon="3.74012">
        <ele>224</ele>
        <time>2008-11-15T13:55:46Z</time>
      </trkpt>
      <trkpt lat="43.49287" lon="3.74017">
        <ele>223</ele>
        <time>2008-11-15T13:55:51Z</time>
      </trkpt>
      <trkpt lat="43.49285" lon="3.74023">
        <ele>222</ele>
        <time>2008-11-15T13:55:56Z</time>
      </trkpt>
      <trkpt lat="43.49284" lon="3.74031">
        <ele>220.5</ele>
        <time>2008-11-15T13:56:01Z</time>
      </trkpt>
      <trkpt lat="43.49283" lon="3.74039">
        <ele>220</ele>
        <time>2008-11-15T13:56:06Z</time>
      </trkpt>
      <trkpt lat="43.49283" lon="3.74046">
        <ele>219</ele>
        <time>2008-11-15T13:56:11Z</time>
      </trkpt>
      <trkpt lat="43.49283" lon="3.74054">
        <ele>218</ele>
        <time>2008-11-15T13:56:16Z</time>
      </trkpt>
      <trkpt lat="43.49283" lon="3.74062">
        <ele>218</ele>
        <time>2008-11-15T13:56:21Z</time>
      </trkpt>
      <trkpt lat="43.49282" lon="3.7407">
        <ele>217.5</ele>
        <time>2008-11-15T13:56:26Z</time>
      </trkpt>
      <trkpt lat="43.49279" lon="3.74076">
        <ele>217.5</ele>
        <time>2008-11-15T13:56:31Z</time>
      </trkpt>
      <trkpt lat="43.49276" lon="3.74082">
        <ele>217</ele>
        <time>2008-11-15T13:56:36Z</time>
      </trkpt>
      <trkpt lat="43.49274" lon="3.74087">
        <ele>217.5</ele>
        <time>2008-11-15T13:56:41Z</time>
      </trkpt>
      <trkpt lat="43.49269" lon="3.74096">
        <ele>219</ele>
        <time>2008-11-15T13:56:51Z</time>
      </trkpt>
      <trkpt lat="43.49268" lon="3.74101">
        <ele>219.5</ele>
        <time>2008-11-15T13:57:07Z</time>
      </trkpt>
      <trkpt lat="43.49257" lon="3.74119">
        <ele>221.5</ele>
        <time>2008-11-15T13:57:27Z</time>
      </trkpt>
      <trkpt lat="43.49256" lon="3.74119">
        <ele>221.5</ele>
        <time>2008-11-15T13:57:28Z</time>
      </trkpt>
      <trkpt lat="43.49246" lon="3.74124">
        <ele>225</ele>
        <time>2008-11-15T13:57:42Z</time>
      </trkpt>
      <trkpt lat="43.49239" lon="3.74127">
        <ele>227</ele>
        <time>2008-11-15T13:57:50Z</time>
      </trkpt>
      <trkpt lat="43.49237" lon="3.74128">
        <ele>227</ele>
        <time>2008-11-15T13:58:16Z</time>
      </trkpt>
      <trkpt lat="43.49222" lon="3.7413">
        <ele>230</ele>
        <time>2008-11-15T13:58:34Z</time>
      </trkpt>
      <trkpt lat="43.49216" lon="3.74131">
        <ele>230.5</ele>
        <time>2008-11-15T13:58:52Z</time>
      </trkpt>
      <trkpt lat="43.49213" lon="3.74133">
        <ele>230</ele>
        <time>2008-11-15T13:59:27Z</time>
      </trkpt>
      <trkpt lat="43.49211" lon="3.74133">
        <ele>228</ele>
        <time>2008-11-15T14:00:11Z</time>
      </trkpt>
      <trkpt lat="43.49199" lon="3.74134">
        <ele>232</ele>
        <time>2008-11-15T14:00:26Z</time>
      </trkpt>
      <trkpt lat="43.49178" lon="3.74131">
        <ele>236</ele>
        <time>2008-11-15T14:00:49Z</time>
      </trkpt>
      <trkpt lat="43.49169" lon="3.74127">
        <ele>236</ele>
        <time>2008-11-15T14:00:57Z</time>
      </trkpt>
      <trkpt lat="43.49168" lon="3.74127">
        <ele>235.5</ele>
        <time>2008-11-15T14:01:11Z</time>
      </trkpt>
      <trkpt lat="43.49161" lon="3.74124">
        <ele>236.5</ele>
        <time>2008-11-15T14:01:25Z</time>
      </trkpt>
      <trkpt lat="43.4915" lon="3.7412">
        <ele>238.5</ele>
        <time>2008-11-15T14:01:35Z</time>
      </trkpt>
      <trkpt lat="43.49141" lon="3.7412">
        <ele>240.5</ele>
        <time>2008-11-15T14:01:44Z</time>
      </trkpt>
      <trkpt lat="43.49132" lon="3.74121">
        <ele>239.5</ele>
        <time>2008-11-15T14:01:52Z</time>
      </trkpt>
      <trkpt lat="43.4912" lon="3.74126">
        <ele>238.5</ele>
        <time>2008-11-15T14:02:02Z</time>
      </trkpt>
      <trkpt lat="43.4911" lon="3.74139">
        <ele>238</ele>
        <time>2008-11-15T14:02:14Z</time>
      </trkpt>
      <trkpt lat="43.49103" lon="3.74148">
        <ele>237</ele>
        <time>2008-11-15T14:02:22Z</time>
      </trkpt>
      <trkpt lat="43.49093" lon="3.74157">
        <ele>237</ele>
        <time>2008-11-15T14:02:32Z</time>
      </trkpt>
      <trkpt lat="43.49084" lon="3.74156">
        <ele>236.5</ele>
        <time>2008-11-15T14:02:41Z</time>
      </trkpt>
      <trkpt lat="43.49077" lon="3.74154">
        <ele>234</ele>
        <time>2008-11-15T14:02:56Z</time>
      </trkpt>
      <trkpt lat="43.49063" lon="3.74155">
        <ele>235.5</ele>
        <time>2008-11-15T14:03:20Z</time>
      </trkpt>
      <trkpt lat="43.4905" lon="3.74159">
        <ele>237.5</ele>
        <time>2008-11-15T14:03:34Z</time>
      </trkpt>
      <trkpt lat="43.49038" lon="3.74165">
        <ele>237.5</ele>
        <time>2008-11-15T14:03:47Z</time>
      </trkpt>
      <trkpt lat="43.49028" lon="3.7417">
        <ele>238</ele>
        <time>2008-11-15T14:03:57Z</time>
      </trkpt>
      <trkpt lat="43.49007" lon="3.74185">
        <ele>239</ele>
        <time>2008-11-15T14:04:20Z</time>
      </trkpt>
      <trkpt lat="43.48997" lon="3.74193">
        <ele>240</ele>
        <time>2008-11-15T14:04:32Z</time>
      </trkpt>
      <trkpt lat="43.48981" lon="3.74219">
        <ele>239</ele>
        <time>2008-11-15T14:04:57Z</time>
      </trkpt>
      <trkpt lat="43.48978" lon="3.74226">
        <ele>239</ele>
        <time>2008-11-15T14:05:14Z</time>
      </trkpt>
      <trkpt lat="43.48976" lon="3.74237">
        <ele>238.5</ele>
        <time>2008-11-15T14:05:22Z</time>
      </trkpt>
      <trkpt lat="43.48975" lon="3.74243">
        <ele>238</ele>
        <time>2008-11-15T14:05:27Z</time>
      </trkpt>
      <trkpt lat="43.48973" lon="3.7425">
        <ele>238</ele>
        <time>2008-11-15T14:05:32Z</time>
      </trkpt>
      <trkpt lat="43.48972" lon="3.74256">
        <ele>238.5</ele>
        <time>2008-11-15T14:05:37Z</time>
      </trkpt>
      <trkpt lat="43.48972" lon="3.74263">
        <ele>239</ele>
        <time>2008-11-15T14:05:42Z</time>
      </trkpt>
      <trkpt lat="43.48973" lon="3.74269">
        <ele>239.5</ele>
        <time>2008-11-15T14:05:47Z</time>
      </trkpt>
      <trkpt lat="43.48973" lon="3.74277">
        <ele>240</ele>
        <time>2008-11-15T14:05:54Z</time>
      </trkpt>
      <trkpt lat="43.48976" lon="3.74291">
        <ele>241</ele>
        <time>2008-11-15T14:06:05Z</time>
      </trkpt>
      <trkpt lat="43.48977" lon="3.74302">
        <ele>241.5</ele>
        <time>2008-11-15T14:06:14Z</time>
      </trkpt>
      <trkpt lat="43.48977" lon="3.74307">
        <ele>241</ele>
        <time>2008-11-15T14:06:22Z</time>
      </trkpt>
      <trkpt lat="43.48978" lon="3.74307">
        <ele>241.5</ele>
        <time>2008-11-15T14:06:27Z</time>
      </trkpt>
      <trkpt lat="43.48977" lon="3.74312">
        <ele>241.5</ele>
        <time>2008-11-15T14:06:32Z</time>
      </trkpt>
      <trkpt lat="43.48978" lon="3.74318">
        <ele>242</ele>
        <time>2008-11-15T14:06:37Z</time>
      </trkpt>
      <trkpt lat="43.48978" lon="3.74325">
        <ele>242</ele>
        <time>2008-11-15T14:06:42Z</time>
      </trkpt>
      <trkpt lat="43.48978" lon="3.7433">
        <ele>242.5</ele>
        <time>2008-11-15T14:06:47Z</time>
      </trkpt>
      <trkpt lat="43.48979" lon="3.74335">
        <ele>242.5</ele>
        <time>2008-11-15T14:06:52Z</time>
      </trkpt>
      <trkpt lat="43.48979" lon="3.74346">
        <ele>241.5</ele>
        <time>2008-11-15T14:07:02Z</time>
      </trkpt>
      <trkpt lat="43.48979" lon="3.74358">
        <ele>242</ele>
        <time>2008-11-15T14:07:12Z</time>
      </trkpt>
      <trkpt lat="43.48978" lon="3.74367">
        <ele>242</ele>
        <time>2008-11-15T14:07:22Z</time>
      </trkpt>
      <trkpt lat="43.48978" lon="3.74371">
        <ele>242</ele>
        <time>2008-11-15T14:07:32Z</time>
      </trkpt>
      <trkpt lat="43.48982" lon="3.74357">
        <ele>241.5</ele>
        <time>2008-11-15T14:07:49Z</time>
      </trkpt>
      <trkpt lat="43.4898" lon="3.74346">
        <ele>240.5</ele>
        <time>2008-11-15T14:08:00Z</time>
      </trkpt>
      <trkpt lat="43.4898" lon="3.7434">
        <ele>239</ele>
        <time>2008-11-15T14:08:07Z</time>
      </trkpt>
      <trkpt lat="43.4898" lon="3.7433">
        <ele>238</ele>
        <time>2008-11-15T14:08:17Z</time>
      </trkpt>
      <trkpt lat="43.4898" lon="3.74321">
        <ele>237.5</ele>
        <time>2008-11-15T14:08:25Z</time>
      </trkpt>
      <trkpt lat="43.4898" lon="3.7431">
        <ele>238</ele>
        <time>2008-11-15T14:08:34Z</time>
      </trkpt>
      <trkpt lat="43.48983" lon="3.74306">
        <ele>239.5</ele>
        <time>2008-11-15T14:08:42Z</time>
      </trkpt>
      <trkpt lat="43.48987" lon="3.74308">
        <ele>240.5</ele>
        <time>2008-11-15T14:08:46Z</time>
      </trkpt>
      <trkpt lat="43.48988" lon="3.74309">
        <ele>240.5</ele>
        <time>2008-11-15T14:08:47Z</time>
      </trkpt>
      <trkpt lat="43.48991" lon="3.74312">
        <ele>240.5</ele>
        <time>2008-11-15T14:08:50Z</time>
      </trkpt>
      <trkpt lat="43.48996" lon="3.74315">
        <ele>240.5</ele>
        <time>2008-11-15T14:08:55Z</time>
      </trkpt>
      <trkpt lat="43.49" lon="3.74318">
        <ele>240</ele>
        <time>2008-11-15T14:09:00Z</time>
      </trkpt>
      <trkpt lat="43.49003" lon="3.74322">
        <ele>239</ele>
        <time>2008-11-15T14:09:05Z</time>
      </trkpt>
      <trkpt lat="43.49005" lon="3.74328">
        <ele>238</ele>
        <time>2008-11-15T14:09:10Z</time>
      </trkpt>
      <trkpt lat="43.49005" lon="3.74334">
        <ele>236.5</ele>
        <time>2008-11-15T14:09:15Z</time>
      </trkpt>
      <trkpt lat="43.49004" lon="3.7434">
        <ele>236</ele>
        <time>2008-11-15T14:09:20Z</time>
      </trkpt>
      <trkpt lat="43.49003" lon="3.74347">
        <ele>235.5</ele>
        <time>2008-11-15T14:09:25Z</time>
      </trkpt>
      <trkpt lat="43.49003" lon="3.74355">
        <ele>235.5</ele>
        <time>2008-11-15T14:09:30Z</time>
      </trkpt>
      <trkpt lat="43.49004" lon="3.74362">
        <ele>235.5</ele>
        <time>2008-11-15T14:09:35Z</time>
      </trkpt>
      <trkpt lat="43.49004" lon="3.7437">
        <ele>236</ele>
        <time>2008-11-15T14:09:41Z</time>
      </trkpt>
      <trkpt lat="43.49004" lon="3.74383">
        <ele>237.5</ele>
        <time>2008-11-15T14:09:51Z</time>
      </trkpt>
      <trkpt lat="43.49" lon="3.74402">
        <ele>239.5</ele>
        <time>2008-11-15T14:10:06Z</time>
      </trkpt>
      <trkpt lat="43.48997" lon="3.74413">
        <ele>241</ele>
        <time>2008-11-15T14:10:16Z</time>
      </trkpt>
      <trkpt lat="43.48989" lon="3.74426">
        <ele>243</ele>
        <time>2008-11-15T14:10:33Z</time>
      </trkpt>
      <trkpt lat="43.48994" lon="3.74428">
        <ele>243</ele>
        <time>2008-11-15T14:10:41Z</time>
      </trkpt>
      <trkpt lat="43.48995" lon="3.74438">
        <ele>245.5</ele>
        <time>2008-11-15T14:10:53Z</time>
      </trkpt>
      <trkpt lat="43.48992" lon="3.74444">
        <ele>246</ele>
        <time>2008-11-15T14:11:10Z</time>
      </trkpt>
      <trkpt lat="43.48986" lon="3.74449">
        <ele>247.5</ele>
        <time>2008-11-15T14:11:34Z</time>
      </trkpt>
      <trkpt lat="43.48978" lon="3.7446">
        <ele>249</ele>
        <time>2008-11-15T14:11:44Z</time>
      </trkpt>
      <trkpt lat="43.48968" lon="3.74471">
        <ele>252</ele>
        <time>2008-11-15T14:11:59Z</time>
      </trkpt>
      <trkpt lat="43.48964" lon="3.74476">
        <ele>253.5</ele>
        <time>2008-11-15T14:12:14Z</time>
      </trkpt>
      <trkpt lat="43.48958" lon="3.74487">
        <ele>256</ele>
        <time>2008-11-15T14:12:28Z</time>
      </trkpt>
      <trkpt lat="43.48957" lon="3.7449">
        <ele>256.5</ele>
        <time>2008-11-15T14:12:38Z</time>
      </trkpt>
      <trkpt lat="43.48958" lon="3.74495">
        <ele>257.5</ele>
        <time>2008-11-15T14:12:50Z</time>
      </trkpt>
      <trkpt lat="43.48956" lon="3.74496">
        <ele>257.5</ele>
        <time>2008-11-15T14:14:15Z</time>
      </trkpt>
      <trkpt lat="43.48955" lon="3.74501">
        <ele>259.5</ele>
        <time>2008-11-15T14:14:34Z</time>
      </trkpt>
      <trkpt lat="43.48952" lon="3.74508">
        <ele>260.5</ele>
        <time>2008-11-15T14:14:43Z</time>
      </trkpt>
      <trkpt lat="43.4895" lon="3.74512">
        <ele>260.5</ele>
        <time>2008-11-15T14:14:49Z</time>
      </trkpt>
      <trkpt lat="43.4895" lon="3.74513">
        <ele>261</ele>
        <time>2008-11-15T14:15:11Z</time>
      </trkpt>
      <trkpt lat="43.48949" lon="3.7452">
        <ele>263</ele>
        <time>2008-11-15T14:15:20Z</time>
      </trkpt>
      <trkpt lat="43.48945" lon="3.74527">
        <ele>263</ele>
        <time>2008-11-15T14:15:27Z</time>
      </trkpt>
      <trkpt lat="43.48943" lon="3.74533">
        <ele>263.5</ele>
        <time>2008-11-15T14:15:41Z</time>
      </trkpt>
      <trkpt lat="43.48941" lon="3.7454">
        <ele>263</ele>
        <time>2008-11-15T14:15:54Z</time>
      </trkpt>
      <trkpt lat="43.48936" lon="3.74564">
        <ele>261.5</ele>
        <time>2008-11-15T14:16:12Z</time>
      </trkpt>
      <trkpt lat="43.48935" lon="3.74574">
        <ele>261.5</ele>
        <time>2008-11-15T14:16:19Z</time>
      </trkpt>
      <trkpt lat="43.48935" lon="3.74585">
        <ele>262</ele>
        <time>2008-11-15T14:16:27Z</time>
      </trkpt>
      <trkpt lat="43.48934" lon="3.74598">
        <ele>261.5</ele>
        <time>2008-11-15T14:16:36Z</time>
      </trkpt>
      <trkpt lat="43.48933" lon="3.74606">
        <ele>261.5</ele>
        <time>2008-11-15T14:16:41Z</time>
      </trkpt>
      <trkpt lat="43.48933" lon="3.74613">
        <ele>261.5</ele>
        <time>2008-11-15T14:16:46Z</time>
      </trkpt>
      <trkpt lat="43.48932" lon="3.74621">
        <ele>261</ele>
        <time>2008-11-15T14:16:51Z</time>
      </trkpt>
      <trkpt lat="43.48932" lon="3.74629">
        <ele>261</ele>
        <time>2008-11-15T14:16:56Z</time>
      </trkpt>
      <trkpt lat="43.48932" lon="3.74637">
        <ele>261.5</ele>
        <time>2008-11-15T14:17:01Z</time>
      </trkpt>
      <trkpt lat="43.48932" lon="3.74643">
        <ele>261.5</ele>
        <time>2008-11-15T14:17:06Z</time>
      </trkpt>
      <trkpt lat="43.48931" lon="3.74655">
        <ele>261</ele>
        <time>2008-11-15T14:17:14Z</time>
      </trkpt>
      <trkpt lat="43.48931" lon="3.74666">
        <ele>263.5</ele>
        <time>2008-11-15T14:17:25Z</time>
      </trkpt>
      <trkpt lat="43.4893" lon="3.74682">
        <ele>267</ele>
        <time>2008-11-15T14:17:39Z</time>
      </trkpt>
      <trkpt lat="43.4893" lon="3.7469">
        <ele>269</ele>
        <time>2008-11-15T14:17:47Z</time>
      </trkpt>
      <trkpt lat="43.48929" lon="3.747">
        <ele>270</ele>
        <time>2008-11-15T14:17:56Z</time>
      </trkpt>
      <trkpt lat="43.48929" lon="3.7471">
        <ele>275</ele>
        <time>2008-11-15T14:18:05Z</time>
      </trkpt>
      <trkpt lat="43.48929" lon="3.74717">
        <ele>277.5</ele>
        <time>2008-11-15T14:18:12Z</time>
      </trkpt>
      <trkpt lat="43.4893" lon="3.74723">
        <ele>279</ele>
        <time>2008-11-15T14:18:17Z</time>
      </trkpt>
      <trkpt lat="43.48929" lon="3.7473">
        <ele>277</ele>
        <time>2008-11-15T14:18:22Z</time>
      </trkpt>
      <trkpt lat="43.48929" lon="3.74737">
        <ele>274</ele>
        <time>2008-11-15T14:18:27Z</time>
      </trkpt>
      <trkpt lat="43.48928" lon="3.74744">
        <ele>272.5</ele>
        <time>2008-11-15T14:18:32Z</time>
      </trkpt>
      <trkpt lat="43.48929" lon="3.74751">
        <ele>272.5</ele>
        <time>2008-11-15T14:18:37Z</time>
      </trkpt>
      <trkpt lat="43.48931" lon="3.74755">
        <ele>271.5</ele>
        <time>2008-11-15T14:18:42Z</time>
      </trkpt>
      <trkpt lat="43.48941" lon="3.74764">
        <ele>270</ele>
        <time>2008-11-15T14:18:57Z</time>
      </trkpt>
      <trkpt lat="43.48951" lon="3.74769">
        <ele>271.5</ele>
        <time>2008-11-15T14:19:07Z</time>
      </trkpt>
      <trkpt lat="43.48961" lon="3.74772">
        <ele>270</ele>
        <time>2008-11-15T14:19:17Z</time>
      </trkpt>
      <trkpt lat="43.48969" lon="3.74774">
        <ele>269.5</ele>
        <time>2008-11-15T14:19:25Z</time>
      </trkpt>
      <trkpt lat="43.48977" lon="3.74776">
        <ele>270.5</ele>
        <time>2008-11-15T14:19:34Z</time>
      </trkpt>
      <trkpt lat="43.48993" lon="3.74778">
        <ele>268.5</ele>
        <time>2008-11-15T14:19:50Z</time>
      </trkpt>
      <trkpt lat="43.49004" lon="3.74779">
        <ele>268.5</ele>
        <time>2008-11-15T14:20:00Z</time>
      </trkpt>
      <trkpt lat="43.49012" lon="3.7478">
        <ele>268</ele>
        <time>2008-11-15T14:20:07Z</time>
      </trkpt>
      <trkpt lat="43.49025" lon="3.7478">
        <ele>266.5</ele>
        <time>2008-11-15T14:20:19Z</time>
      </trkpt>
      <trkpt lat="43.49036" lon="3.74777">
        <ele>267.5</ele>
        <time>2008-11-15T14:20:29Z</time>
      </trkpt>
      <trkpt lat="43.49048" lon="3.74777">
        <ele>268.5</ele>
        <time>2008-11-15T14:20:40Z</time>
      </trkpt>
      <trkpt lat="43.4906" lon="3.74778">
        <ele>267</ele>
        <time>2008-11-15T14:20:52Z</time>
      </trkpt>
      <trkpt lat="43.4907" lon="3.74782">
        <ele>268.5</ele>
        <time>2008-11-15T14:21:02Z</time>
      </trkpt>
      <trkpt lat="43.49078" lon="3.74784">
        <ele>269</ele>
        <time>2008-11-15T14:21:10Z</time>
      </trkpt>
      <trkpt lat="43.49087" lon="3.74787">
        <ele>268</ele>
        <time>2008-11-15T14:21:19Z</time>
      </trkpt>
      <trkpt lat="43.49095" lon="3.74789">
        <ele>266</ele>
        <time>2008-11-15T14:21:27Z</time>
      </trkpt>
      <trkpt lat="43.49107" lon="3.74794">
        <ele>265.5</ele>
        <time>2008-11-15T14:21:39Z</time>
      </trkpt>
      <trkpt lat="43.49112" lon="3.74796">
        <ele>264.5</ele>
        <time>2008-11-15T14:21:49Z</time>
      </trkpt>
      <trkpt lat="43.4912" lon="3.74799">
        <ele>265</ele>
        <time>2008-11-15T14:21:57Z</time>
      </trkpt>
      <trkpt lat="43.4913" lon="3.74802">
        <ele>264.5</ele>
        <time>2008-11-15T14:22:07Z</time>
      </trkpt>
      <trkpt lat="43.49141" lon="3.74807">
        <ele>264</ele>
        <time>2008-11-15T14:22:19Z</time>
      </trkpt>
      <trkpt lat="43.49149" lon="3.74811">
        <ele>265</ele>
        <time>2008-11-15T14:22:28Z</time>
      </trkpt>
      <trkpt lat="43.49167" lon="3.74817">
        <ele>265.5</ele>
        <time>2008-11-15T14:22:46Z</time>
      </trkpt>
      <trkpt lat="43.49184" lon="3.74826">
        <ele>265</ele>
        <time>2008-11-15T14:23:04Z</time>
      </trkpt>
      <trkpt lat="43.49194" lon="3.74832">
        <ele>264.5</ele>
        <time>2008-11-15T14:23:13Z</time>
      </trkpt>
      <trkpt lat="43.49207" lon="3.7484">
        <ele>264</ele>
        <time>2008-11-15T14:23:26Z</time>
      </trkpt>
      <trkpt lat="43.4922" lon="3.74848">
        <ele>266</ele>
        <time>2008-11-15T14:23:43Z</time>
      </trkpt>
      <trkpt lat="43.49229" lon="3.74841">
        <ele>267</ele>
        <time>2008-11-15T14:24:00Z</time>
      </trkpt>
      <trkpt lat="43.49236" lon="3.7483">
        <ele>266.5</ele>
        <time>2008-11-15T14:24:09Z</time>
      </trkpt>
      <trkpt lat="43.49239" lon="3.74824">
        <ele>266.5</ele>
        <time>2008-11-15T14:24:14Z</time>
      </trkpt>
      <trkpt lat="43.49243" lon="3.74817">
        <ele>267</ele>
        <time>2008-11-15T14:24:19Z</time>
      </trkpt>
      <trkpt lat="43.49245" lon="3.7481">
        <ele>266.5</ele>
        <time>2008-11-15T14:24:24Z</time>
      </trkpt>
      <trkpt lat="43.49248" lon="3.74803">
        <ele>265.5</ele>
        <time>2008-11-15T14:24:29Z</time>
      </trkpt>
      <trkpt lat="43.49249" lon="3.74795">
        <ele>265</ele>
        <time>2008-11-15T14:24:34Z</time>
      </trkpt>
      <trkpt lat="43.4925" lon="3.74784">
        <ele>264.5</ele>
        <time>2008-11-15T14:24:41Z</time>
      </trkpt>
      <trkpt lat="43.49251" lon="3.7477">
        <ele>263.5</ele>
        <time>2008-11-15T14:24:51Z</time>
      </trkpt>
      <trkpt lat="43.49255" lon="3.74754">
        <ele>263</ele>
        <time>2008-11-15T14:25:03Z</time>
      </trkpt>
      <trkpt lat="43.49263" lon="3.74741">
        <ele>263</ele>
        <time>2008-11-15T14:25:16Z</time>
      </trkpt>
      <trkpt lat="43.49276" lon="3.74739">
        <ele>264</ele>
        <time>2008-11-15T14:25:31Z</time>
      </trkpt>
      <trkpt lat="43.49287" lon="3.74739">
        <ele>263.5</ele>
        <time>2008-11-15T14:25:46Z</time>
      </trkpt>
      <trkpt lat="43.49298" lon="3.74737">
        <ele>263</ele>
        <time>2008-11-15T14:25:56Z</time>
      </trkpt>
      <trkpt lat="43.4932" lon="3.74732">
        <ele>260.5</ele>
        <time>2008-11-15T14:26:21Z</time>
      </trkpt>
      <trkpt lat="43.49329" lon="3.74732">
        <ele>258.5</ele>
        <time>2008-11-15T14:26:31Z</time>
      </trkpt>
      <trkpt lat="43.4934" lon="3.74731">
        <ele>258.5</ele>
        <time>2008-11-15T14:26:43Z</time>
      </trkpt>
      <trkpt lat="43.49357" lon="3.74736">
        <ele>256</ele>
        <time>2008-11-15T14:27:03Z</time>
      </trkpt>
      <trkpt lat="43.49372" lon="3.74743">
        <ele>252</ele>
        <time>2008-11-15T14:27:20Z</time>
      </trkpt>
      <trkpt lat="43.4938" lon="3.74749">
        <ele>251</ele>
        <time>2008-11-15T14:27:29Z</time>
      </trkpt>
      <trkpt lat="43.49385" lon="3.74752">
        <ele>250.5</ele>
        <time>2008-11-15T14:27:34Z</time>
      </trkpt>
      <trkpt lat="43.49394" lon="3.74762">
        <ele>250</ele>
        <time>2008-11-15T14:27:46Z</time>
      </trkpt>
      <trkpt lat="43.49403" lon="3.74774">
        <ele>248.5</ele>
        <time>2008-11-15T14:27:58Z</time>
      </trkpt>
      <trkpt lat="43.4941" lon="3.74787">
        <ele>247</ele>
        <time>2008-11-15T14:28:09Z</time>
      </trkpt>
      <trkpt lat="43.49416" lon="3.74797">
        <ele>246</ele>
        <time>2008-11-15T14:28:18Z</time>
      </trkpt>
      <trkpt lat="43.4942" lon="3.74812">
        <ele>246</ele>
        <time>2008-11-15T14:28:29Z</time>
      </trkpt>
      <trkpt lat="43.49427" lon="3.74817">
        <ele>245</ele>
        <time>2008-11-15T14:28:36Z</time>
      </trkpt>
      <trkpt lat="43.49437" lon="3.7482">
        <ele>244</ele>
        <time>2008-11-15T14:28:46Z</time>
      </trkpt>
      <trkpt lat="43.49454" lon="3.74823">
        <ele>241.5</ele>
        <time>2008-11-15T14:29:03Z</time>
      </trkpt>
      <trkpt lat="43.49465" lon="3.74825">
        <ele>239</ele>
        <time>2008-11-15T14:29:14Z</time>
      </trkpt>
      <trkpt lat="43.49474" lon="3.74832">
        <ele>237.5</ele>
        <time>2008-11-15T14:29:25Z</time>
      </trkpt>
      <trkpt lat="43.49485" lon="3.74839">
        <ele>237.5</ele>
        <time>2008-11-15T14:29:38Z</time>
      </trkpt>
      <trkpt lat="43.49492" lon="3.74842">
        <ele>238.5</ele>
        <time>2008-11-15T14:30:01Z</time>
      </trkpt>
      <trkpt lat="43.49502" lon="3.74845">
        <ele>239.5</ele>
        <time>2008-11-15T14:30:10Z</time>
      </trkpt>
      <trkpt lat="43.49513" lon="3.74846">
        <ele>239</ele>
        <time>2008-11-15T14:30:20Z</time>
      </trkpt>
      <trkpt lat="43.49528" lon="3.74842">
        <ele>239</ele>
        <time>2008-11-15T14:30:36Z</time>
      </trkpt>
      <trkpt lat="43.49535" lon="3.74838">
        <ele>239.5</ele>
        <time>2008-11-15T14:30:44Z</time>
      </trkpt>
      <trkpt lat="43.49554" lon="3.74829">
        <ele>235.5</ele>
        <time>2008-11-15T14:31:05Z</time>
      </trkpt>
      <trkpt lat="43.49562" lon="3.74825">
        <ele>235</ele>
        <time>2008-11-15T14:31:13Z</time>
      </trkpt>
      <trkpt lat="43.4957" lon="3.74821">
        <ele>232</ele>
        <time>2008-11-15T14:31:21Z</time>
      </trkpt>
      <trkpt lat="43.49575" lon="3.74817">
        <ele>231</ele>
        <time>2008-11-15T14:31:29Z</time>
      </trkpt>
      <trkpt lat="43.49583" lon="3.74813">
        <ele>227.5</ele>
        <time>2008-11-15T14:31:51Z</time>
      </trkpt>
      <trkpt lat="43.49592" lon="3.74808">
        <ele>226</ele>
        <time>2008-11-15T14:32:01Z</time>
      </trkpt>
      <trkpt lat="43.49603" lon="3.74798">
        <ele>227</ele>
        <time>2008-11-15T14:32:13Z</time>
      </trkpt>
      <trkpt lat="43.49615" lon="3.74788">
        <ele>228.5</ele>
        <time>2008-11-15T14:32:26Z</time>
      </trkpt>
      <trkpt lat="43.49619" lon="3.74783">
        <ele>228</ele>
        <time>2008-11-15T14:32:31Z</time>
      </trkpt>
      <trkpt lat="43.4962" lon="3.74772">
        <ele>226</ele>
        <time>2008-11-15T14:32:38Z</time>
      </trkpt>
      <trkpt lat="43.49618" lon="3.74763">
        <ele>225.5</ele>
        <time>2008-11-15T14:32:44Z</time>
      </trkpt>
      <trkpt lat="43.49613" lon="3.74751">
        <ele>224.5</ele>
        <time>2008-11-15T14:32:53Z</time>
      </trkpt>
      <trkpt lat="43.49604" lon="3.74742">
        <ele>224</ele>
        <time>2008-11-15T14:33:03Z</time>
      </trkpt>
      <trkpt lat="43.49598" lon="3.74735">
        <ele>223</ele>
        <time>2008-11-15T14:33:11Z</time>
      </trkpt>
      <trkpt lat="43.49589" lon="3.74728">
        <ele>221.5</ele>
        <time>2008-11-15T14:33:21Z</time>
      </trkpt>
      <trkpt lat="43.49573" lon="3.74712">
        <ele>221</ele>
        <time>2008-11-15T14:33:42Z</time>
      </trkpt>
      <trkpt lat="43.49562" lon="3.74702">
        <ele>221.5</ele>
        <time>2008-11-15T14:33:58Z</time>
      </trkpt>
      <trkpt lat="43.49555" lon="3.74693">
        <ele>220.5</ele>
        <time>2008-11-15T14:34:09Z</time>
      </trkpt>
      <trkpt lat="43.49551" lon="3.74682">
        <ele>219.5</ele>
        <time>2008-11-15T14:34:20Z</time>
      </trkpt>
      <trkpt lat="43.49543" lon="3.74663">
        <ele>216.5</ele>
        <time>2008-11-15T14:34:35Z</time>
      </trkpt>
      <trkpt lat="43.49539" lon="3.74644">
        <ele>218.5</ele>
        <time>2008-11-15T14:34:50Z</time>
      </trkpt>
      <trkpt lat="43.49537" lon="3.74634">
        <ele>218.5</ele>
        <time>2008-11-15T14:34:59Z</time>
      </trkpt>
      <trkpt lat="43.49537" lon="3.74621">
        <ele>218.5</ele>
        <time>2008-11-15T14:35:10Z</time>
      </trkpt>
      <trkpt lat="43.49536" lon="3.74607">
        <ele>215.5</ele>
        <time>2008-11-15T14:35:22Z</time>
      </trkpt>
      <trkpt lat="43.49536" lon="3.74597">
        <ele>213.5</ele>
        <time>2008-11-15T14:35:30Z</time>
      </trkpt>
      <trkpt lat="43.49536" lon="3.74585">
        <ele>214</ele>
        <time>2008-11-15T14:35:40Z</time>
      </trkpt>
      <trkpt lat="43.49538" lon="3.74577">
        <ele>215</ele>
        <time>2008-11-15T14:35:47Z</time>
      </trkpt>
      <trkpt lat="43.49541" lon="3.74562">
        <ele>214</ele>
        <time>2008-11-15T14:36:00Z</time>
      </trkpt>
      <trkpt lat="43.49546" lon="3.74551">
        <ele>212.5</ele>
        <time>2008-11-15T14:36:10Z</time>
      </trkpt>
      <trkpt lat="43.49552" lon="3.74536">
        <ele>212.5</ele>
        <time>2008-11-15T14:36:24Z</time>
      </trkpt>
      <trkpt lat="43.49553" lon="3.74531">
        <ele>211.5</ele>
        <time>2008-11-15T14:36:33Z</time>
      </trkpt>
      <trkpt lat="43.49557" lon="3.74522">
        <ele>210.5</ele>
        <time>2008-11-15T14:36:40Z</time>
      </trkpt>
      <trkpt lat="43.49562" lon="3.74508">
        <ele>210.5</ele>
        <time>2008-11-15T14:36:50Z</time>
      </trkpt>
      <trkpt lat="43.49568" lon="3.74495">
        <ele>209.5</ele>
        <time>2008-11-15T14:37:00Z</time>
      </trkpt>
      <trkpt lat="43.49575" lon="3.7448">
        <ele>208</ele>
        <time>2008-11-15T14:37:13Z</time>
      </trkpt>
      <trkpt lat="43.49581" lon="3.74464">
        <ele>207.5</ele>
        <time>2008-11-15T14:37:25Z</time>
      </trkpt>
      <trkpt lat="43.49587" lon="3.74448">
        <ele>207.5</ele>
        <time>2008-11-15T14:37:38Z</time>
      </trkpt>
      <trkpt lat="43.49591" lon="3.74432">
        <ele>207</ele>
        <time>2008-11-15T14:37:50Z</time>
      </trkpt>
      <trkpt lat="43.49593" lon="3.74417">
        <ele>206.5</ele>
        <time>2008-11-15T14:38:02Z</time>
      </trkpt>
      <trkpt lat="43.49594" lon="3.74403">
        <ele>206.5</ele>
        <time>2008-11-15T14:38:13Z</time>
      </trkpt>
      <trkpt lat="43.49592" lon="3.74361">
        <ele>204.5</ele>
        <time>2008-11-15T14:38:44Z</time>
      </trkpt>
      <trkpt lat="43.49591" lon="3.74354">
        <ele>204</ele>
        <time>2008-11-15T14:38:49Z</time>
      </trkpt>
      <trkpt lat="43.49588" lon="3.74344">
        <ele>204</ele>
        <time>2008-11-15T14:38:57Z</time>
      </trkpt>
      <trkpt lat="43.49583" lon="3.74333">
        <ele>204</ele>
        <time>2008-11-15T14:39:07Z</time>
      </trkpt>
      <trkpt lat="43.49579" lon="3.74323">
        <ele>197</ele>
        <time>2008-11-15T14:39:15Z</time>
      </trkpt>
      <trkpt lat="43.49579" lon="3.74315">
        <ele>196.5</ele>
        <time>2008-11-15T14:39:22Z</time>
      </trkpt>
      <trkpt lat="43.49587" lon="3.74313">
        <ele>196</ele>
        <time>2008-11-15T14:39:32Z</time>
      </trkpt>
      <trkpt lat="43.49597" lon="3.74323">
        <ele>197</ele>
        <time>2008-11-15T14:39:44Z</time>
      </trkpt>
      <trkpt lat="43.49605" lon="3.74327">
        <ele>194</ele>
        <time>2008-11-15T14:39:54Z</time>
      </trkpt>
      <trkpt lat="43.49616" lon="3.74325">
        <ele>188.5</ele>
        <time>2008-11-15T14:40:09Z</time>
      </trkpt>
      <trkpt lat="43.49627" lon="3.74319">
        <ele>183.5</ele>
        <time>2008-11-15T14:40:27Z</time>
      </trkpt>
      <trkpt lat="43.49627" lon="3.74314">
        <ele>182.5</ele>
        <time>2008-11-15T14:40:32Z</time>
      </trkpt>
      <trkpt lat="43.49625" lon="3.74299">
        <ele>177.5</ele>
        <time>2008-11-15T14:40:42Z</time>
      </trkpt>
      <trkpt lat="43.49624" lon="3.74292">
        <ele>176.5</ele>
        <time>2008-11-15T14:40:47Z</time>
      </trkpt>
      <trkpt lat="43.49624" lon="3.74285">
        <ele>175.5</ele>
        <time>2008-11-15T14:40:52Z</time>
      </trkpt>
      <trkpt lat="43.49624" lon="3.74278">
        <ele>175.5</ele>
        <time>2008-11-15T14:40:57Z</time>
      </trkpt>
      <trkpt lat="43.49624" lon="3.74271">
        <ele>175.5</ele>
        <time>2008-11-15T14:41:02Z</time>
      </trkpt>
      <trkpt lat="43.49623" lon="3.74264">
        <ele>175</ele>
        <time>2008-11-15T14:41:07Z</time>
      </trkpt>
      <trkpt lat="43.49623" lon="3.74257">
        <ele>174</ele>
        <time>2008-11-15T14:41:12Z</time>
      </trkpt>
      <trkpt lat="43.49622" lon="3.74247">
        <ele>173.5</ele>
        <time>2008-11-15T14:41:30Z</time>
      </trkpt>
      <trkpt lat="43.49622" lon="3.74235">
        <ele>173</ele>
        <time>2008-11-15T14:41:40Z</time>
      </trkpt>
      <trkpt lat="43.49622" lon="3.74225">
        <ele>173</ele>
        <time>2008-11-15T14:41:47Z</time>
      </trkpt>
      <trkpt lat="43.49621" lon="3.74218">
        <ele>172.5</ele>
        <time>2008-11-15T14:41:52Z</time>
      </trkpt>
      <trkpt lat="43.4962" lon="3.74211">
        <ele>172</ele>
        <time>2008-11-15T14:41:57Z</time>
      </trkpt>
      <trkpt lat="43.49618" lon="3.74204">
        <ele>171.5</ele>
        <time>2008-11-15T14:42:02Z</time>
      </trkpt>
      <trkpt lat="43.49617" lon="3.74197">
        <ele>171</ele>
        <time>2008-11-15T14:42:07Z</time>
      </trkpt>
      <trkpt lat="43.49616" lon="3.74189">
        <ele>171</ele>
        <time>2008-11-15T14:42:12Z</time>
      </trkpt>
      <trkpt lat="43.49616" lon="3.74182">
        <ele>172</ele>
        <time>2008-11-15T14:42:17Z</time>
      </trkpt>
      <trkpt lat="43.49619" lon="3.74167">
        <ele>172</ele>
        <time>2008-11-15T14:42:29Z</time>
      </trkpt>
      <trkpt lat="43.49619" lon="3.74167">
        <ele>172</ele>
        <time>2008-11-15T14:42:29Z</time>
      </trkpt>
      <trkpt lat="43.49621" lon="3.74161">
        <ele>172</ele>
        <time>2008-11-15T14:42:34Z</time>
      </trkpt>
      <trkpt lat="43.49622" lon="3.74157">
        <ele>172</ele>
        <time>2008-11-15T14:42:37Z</time>
      </trkpt>
      <trkpt lat="43.49624" lon="3.74151">
        <ele>173</ele>
        <time>2008-11-15T14:42:42Z</time>
      </trkpt>
      <trkpt lat="43.49626" lon="3.74146">
        <ele>174</ele>
        <time>2008-11-15T14:42:47Z</time>
      </trkpt>
      <trkpt lat="43.49626" lon="3.74139">
        <ele>174</ele>
        <time>2008-11-15T14:42:52Z</time>
      </trkpt>
      <trkpt lat="43.49627" lon="3.74133">
        <ele>174.5</ele>
        <time>2008-11-15T14:42:57Z</time>
      </trkpt>
      <trkpt lat="43.49627" lon="3.74126">
        <ele>175.5</ele>
        <time>2008-11-15T14:43:02Z</time>
      </trkpt>
      <trkpt lat="43.49626" lon="3.74119">
        <ele>175.5</ele>
        <time>2008-11-15T14:43:07Z</time>
      </trkpt>
      <trkpt lat="43.49626" lon="3.74112">
        <ele>175.5</ele>
        <time>2008-11-15T14:43:12Z</time>
      </trkpt>
      <trkpt lat="43.49626" lon="3.74105">
        <ele>176</ele>
        <time>2008-11-15T14:43:17Z</time>
      </trkpt>
      <trkpt lat="43.49625" lon="3.74098">
        <ele>177</ele>
        <time>2008-11-15T14:43:22Z</time>
      </trkpt>
      <trkpt lat="43.49624" lon="3.74096">
        <ele>180</ele>
        <time>2008-11-15T14:43:49Z</time>
      </trkpt>
      <trkpt lat="43.49623" lon="3.74088">
        <ele>180</ele>
        <time>2008-11-15T14:44:09Z</time>
      </trkpt>
      <trkpt lat="43.49622" lon="3.74064">
        <ele>179.5</ele>
        <time>2008-11-15T14:44:24Z</time>
      </trkpt>
      <trkpt lat="43.49625" lon="3.74043">
        <ele>178</ele>
        <time>2008-11-15T14:44:37Z</time>
      </trkpt>
      <trkpt lat="43.49631" lon="3.74027">
        <ele>177</ele>
        <time>2008-11-15T14:44:49Z</time>
      </trkpt>
      <trkpt lat="43.49638" lon="3.74014">
        <ele>177.5</ele>
        <time>2008-11-15T14:44:59Z</time>
      </trkpt>
      <trkpt lat="43.49643" lon="3.74003">
        <ele>176.5</ele>
        <time>2008-11-15T14:45:08Z</time>
      </trkpt>
      <trkpt lat="43.49649" lon="3.73985">
        <ele>178</ele>
        <time>2008-11-15T14:45:22Z</time>
      </trkpt>
      <trkpt lat="43.49655" lon="3.7397">
        <ele>181.5</ele>
        <time>2008-11-15T14:45:34Z</time>
      </trkpt>
      <trkpt lat="43.49661" lon="3.73951">
        <ele>181</ele>
        <time>2008-11-15T14:45:49Z</time>
      </trkpt>
      <trkpt lat="43.49673" lon="3.73923">
        <ele>183.5</ele>
        <time>2008-11-15T14:46:14Z</time>
      </trkpt>
      <trkpt lat="43.49675" lon="3.73917">
        <ele>185.5</ele>
        <time>2008-11-15T14:46:19Z</time>
      </trkpt>
      <trkpt lat="43.49678" lon="3.73906">
        <ele>187</ele>
        <time>2008-11-15T14:46:27Z</time>
      </trkpt>
      <trkpt lat="43.49682" lon="3.73891">
        <ele>186</ele>
        <time>2008-11-15T14:46:37Z</time>
      </trkpt>
      <trkpt lat="43.49691" lon="3.73876">
        <ele>188</ele>
        <time>2008-11-15T14:46:51Z</time>
      </trkpt>
      <trkpt lat="43.49696" lon="3.73866">
        <ele>188</ele>
        <time>2008-11-15T14:46:59Z</time>
      </trkpt>
      <trkpt lat="43.49702" lon="3.73853">
        <ele>189.5</ele>
        <time>2008-11-15T14:47:09Z</time>
      </trkpt>
      <trkpt lat="43.49704" lon="3.73846">
        <ele>189</ele>
        <time>2008-11-15T14:47:14Z</time>
      </trkpt>
      <trkpt lat="43.49706" lon="3.73838">
        <ele>190</ele>
        <time>2008-11-15T14:47:19Z</time>
      </trkpt>
      <trkpt lat="43.49707" lon="3.73831">
        <ele>190</ele>
        <time>2008-11-15T14:47:24Z</time>
      </trkpt>
      <trkpt lat="43.49708" lon="3.73824">
        <ele>190.5</ele>
        <time>2008-11-15T14:47:29Z</time>
      </trkpt>
      <trkpt lat="43.4971" lon="3.73817">
        <ele>191.5</ele>
        <time>2008-11-15T14:47:34Z</time>
      </trkpt>
      <trkpt lat="43.49713" lon="3.73811">
        <ele>191.5</ele>
        <time>2008-11-15T14:47:39Z</time>
      </trkpt>
      <trkpt lat="43.49716" lon="3.73806">
        <ele>191.5</ele>
        <time>2008-11-15T14:47:44Z</time>
      </trkpt>
      <trkpt lat="43.4972" lon="3.73801">
        <ele>192</ele>
        <time>2008-11-15T14:47:49Z</time>
      </trkpt>
      <trkpt lat="43.49724" lon="3.73797">
        <ele>192.5</ele>
        <time>2008-11-15T14:47:54Z</time>
      </trkpt>
      <trkpt lat="43.49728" lon="3.73792">
        <ele>193</ele>
        <time>2008-11-15T14:47:59Z</time>
      </trkpt>
      <trkpt lat="43.49733" lon="3.73788">
        <ele>194</ele>
        <time>2008-11-15T14:48:04Z</time>
      </trkpt>
      <trkpt lat="43.49737" lon="3.73783">
        <ele>193.5</ele>
        <time>2008-11-15T14:48:09Z</time>
      </trkpt>
      <trkpt lat="43.49745" lon="3.7377">
        <ele>191</ele>
        <time>2008-11-15T14:48:19Z</time>
      </trkpt>
      <trkpt lat="43.49751" lon="3.7376">
        <ele>191</ele>
        <time>2008-11-15T14:48:27Z</time>
      </trkpt>
      <trkpt lat="43.49758" lon="3.73747">
        <ele>190</ele>
        <time>2008-11-15T14:48:36Z</time>
      </trkpt>
      <trkpt lat="43.49765" lon="3.73735">
        <ele>189.5</ele>
        <time>2008-11-15T14:48:46Z</time>
      </trkpt>
      <trkpt lat="43.49777" lon="3.73719">
        <ele>188</ele>
        <time>2008-11-15T14:49:01Z</time>
      </trkpt>
      <trkpt lat="43.49782" lon="3.7371">
        <ele>189.5</ele>
        <time>2008-11-15T14:49:08Z</time>
      </trkpt>
      <trkpt lat="43.49784" lon="3.737">
        <ele>188</ele>
        <time>2008-11-15T14:49:14Z</time>
      </trkpt>
      <trkpt lat="43.49785" lon="3.73691">
        <ele>187.5</ele>
        <time>2008-11-15T14:49:19Z</time>
      </trkpt>
      <trkpt lat="43.49785" lon="3.73683">
        <ele>188.5</ele>
        <time>2008-11-15T14:49:24Z</time>
      </trkpt>
      <trkpt lat="43.49786" lon="3.73675">
        <ele>188</ele>
        <time>2008-11-15T14:49:29Z</time>
      </trkpt>
      <trkpt lat="43.49787" lon="3.73667">
        <ele>186.5</ele>
        <time>2008-11-15T14:49:34Z</time>
      </trkpt>
      <trkpt lat="43.49787" lon="3.73659">
        <ele>186</ele>
        <time>2008-11-15T14:49:39Z</time>
      </trkpt>
      <trkpt lat="43.49788" lon="3.73651">
        <ele>185</ele>
        <time>2008-11-15T14:49:44Z</time>
      </trkpt>
      <trkpt lat="43.49791" lon="3.73625">
        <ele>187</ele>
        <time>2008-11-15T14:49:59Z</time>
      </trkpt>
      <trkpt lat="43.49791" lon="3.73622">
        <ele>186.5</ele>
        <time>2008-11-15T14:50:01Z</time>
      </trkpt>
      <trkpt lat="43.49792" lon="3.73617">
        <ele>186.5</ele>
        <time>2008-11-15T14:50:04Z</time>
      </trkpt>
      <trkpt lat="43.49793" lon="3.73611">
        <ele>185</ele>
        <time>2008-11-15T14:50:07Z</time>
      </trkpt>
      <trkpt lat="43.49794" lon="3.73603">
        <ele>183</ele>
        <time>2008-11-15T14:50:12Z</time>
      </trkpt>
      <trkpt lat="43.49795" lon="3.73594">
        <ele>181.5</ele>
        <time>2008-11-15T14:50:17Z</time>
      </trkpt>
      <trkpt lat="43.49797" lon="3.73586">
        <ele>180</ele>
        <time>2008-11-15T14:50:22Z</time>
      </trkpt>
      <trkpt lat="43.49798" lon="3.73578">
        <ele>179</ele>
        <time>2008-11-15T14:50:27Z</time>
      </trkpt>
      <trkpt lat="43.49801" lon="3.7357">
        <ele>179</ele>
        <time>2008-11-15T14:50:32Z</time>
      </trkpt>
      <trkpt lat="43.49803" lon="3.73561">
        <ele>178</ele>
        <time>2008-11-15T14:50:37Z</time>
      </trkpt>
      <trkpt lat="43.49805" lon="3.73553">
        <ele>177</ele>
        <time>2008-11-15T14:50:42Z</time>
      </trkpt>
      <trkpt lat="43.49807" lon="3.73545">
        <ele>176</ele>
        <time>2008-11-15T14:50:47Z</time>
      </trkpt>
      <trkpt lat="43.4981" lon="3.73537">
        <ele>175.5</ele>
        <time>2008-11-15T14:50:52Z</time>
      </trkpt>
      <trkpt lat="43.49813" lon="3.73529">
        <ele>175.5</ele>
        <time>2008-11-15T14:50:57Z</time>
      </trkpt>
      <trkpt lat="43.49816" lon="3.73521">
        <ele>174.5</ele>
        <time>2008-11-15T14:51:02Z</time>
      </trkpt>
      <trkpt lat="43.49819" lon="3.73513">
        <ele>173.5</ele>
        <time>2008-11-15T14:51:07Z</time>
      </trkpt>
      <trkpt lat="43.49822" lon="3.73505">
        <ele>173</ele>
        <time>2008-11-15T14:51:12Z</time>
      </trkpt>
      <trkpt lat="43.49825" lon="3.73499">
        <ele>172</ele>
        <time>2008-11-15T14:51:17Z</time>
      </trkpt>
      <trkpt lat="43.49829" lon="3.73493">
        <ele>171.5</ele>
        <time>2008-11-15T14:51:22Z</time>
      </trkpt>
      <trkpt lat="43.49833" lon="3.73488">
        <ele>171.5</ele>
        <time>2008-11-15T14:51:27Z</time>
      </trkpt>
      <trkpt lat="43.49838" lon="3.73484">
        <ele>171</ele>
        <time>2008-11-15T14:51:32Z</time>
      </trkpt>
      <trkpt lat="43.49843" lon="3.7348">
        <ele>169</ele>
        <time>2008-11-15T14:51:37Z</time>
      </trkpt>
      <trkpt lat="43.49848" lon="3.73476">
        <ele>170</ele>
        <time>2008-11-15T14:51:42Z</time>
      </trkpt>
      <trkpt lat="43.49853" lon="3.73475">
        <ele>170</ele>
        <time>2008-11-15T14:51:47Z</time>
      </trkpt>
      <trkpt lat="43.49858" lon="3.73473">
        <ele>170</ele>
        <time>2008-11-15T14:51:52Z</time>
      </trkpt>
      <trkpt lat="43.49865" lon="3.7347">
        <ele>168.5</ele>
        <time>2008-11-15T14:51:59Z</time>
      </trkpt>
      <trkpt lat="43.49873" lon="3.73469">
        <ele>166.5</ele>
        <time>2008-11-15T14:52:06Z</time>
      </trkpt>
      <trkpt lat="43.49884" lon="3.73468">
        <ele>165.5</ele>
        <time>2008-11-15T14:52:16Z</time>
      </trkpt>
      <trkpt lat="43.49895" lon="3.73467">
        <ele>163.5</ele>
        <time>2008-11-15T14:52:26Z</time>
      </trkpt>
      <trkpt lat="43.49908" lon="3.73458">
        <ele>160.5</ele>
        <time>2008-11-15T14:52:39Z</time>
      </trkpt>
      <trkpt lat="43.49914" lon="3.73449">
        <ele>159</ele>
        <time>2008-11-15T14:52:48Z</time>
      </trkpt>
      <trkpt lat="43.49918" lon="3.73439">
        <ele>153.5</ele>
        <time>2008-11-15T14:52:58Z</time>
      </trkpt>
      <trkpt lat="43.49927" lon="3.73428">
        <ele>152</ele>
        <time>2008-11-15T14:53:08Z</time>
      </trkpt>
      <trkpt lat="43.49943" lon="3.73405">
        <ele>150.5</ele>
        <time>2008-11-15T14:53:26Z</time>
      </trkpt>
      <trkpt lat="43.49957" lon="3.73381">
        <ele>149.5</ele>
        <time>2008-11-15T14:53:45Z</time>
      </trkpt>
      <trkpt lat="43.49957" lon="3.73379">
        <ele>149.5</ele>
        <time>2008-11-15T14:53:46Z</time>
      </trkpt>
      <trkpt lat="43.49961" lon="3.73366">
        <ele>148.5</ele>
        <time>2008-11-15T14:53:55Z</time>
      </trkpt>
      <trkpt lat="43.49965" lon="3.73346">
        <ele>149</ele>
        <time>2008-11-15T14:54:07Z</time>
      </trkpt>
      <trkpt lat="43.49968" lon="3.73334">
        <ele>149</ele>
        <time>2008-11-15T14:54:15Z</time>
      </trkpt>
      <trkpt lat="43.49974" lon="3.7332">
        <ele>149</ele>
        <time>2008-11-15T14:54:25Z</time>
      </trkpt>
      <trkpt lat="43.49984" lon="3.733">
        <ele>147.5</ele>
        <time>2008-11-15T14:54:41Z</time>
      </trkpt>
      <trkpt lat="43.4999" lon="3.73287">
        <ele>147</ele>
        <time>2008-11-15T14:54:51Z</time>
      </trkpt>
      <trkpt lat="43.49993" lon="3.73282">
        <ele>147.5</ele>
        <time>2008-11-15T14:55:01Z</time>
      </trkpt>
      <trkpt lat="43.49997" lon="3.73272">
        <ele>148</ele>
        <time>2008-11-15T14:55:08Z</time>
      </trkpt>
      <trkpt lat="43.50006" lon="3.7325">
        <ele>146.5</ele>
        <time>2008-11-15T14:55:23Z</time>
      </trkpt>
      <trkpt lat="43.50013" lon="3.73231">
        <ele>146</ele>
        <time>2008-11-15T14:55:36Z</time>
      </trkpt>
      <trkpt lat="43.50015" lon="3.7322">
        <ele>146</ele>
        <time>2008-11-15T14:55:43Z</time>
      </trkpt>
      <trkpt lat="43.50016" lon="3.73216">
        <ele>146</ele>
        <time>2008-11-15T14:55:48Z</time>
      </trkpt>
      <trkpt lat="43.50018" lon="3.73207">
        <ele>145.5</ele>
        <time>2008-11-15T14:55:53Z</time>
      </trkpt>
      <trkpt lat="43.5002" lon="3.73199">
        <ele>145</ele>
        <time>2008-11-15T14:55:58Z</time>
      </trkpt>
      <trkpt lat="43.50022" lon="3.73192">
        <ele>145</ele>
        <time>2008-11-15T14:56:03Z</time>
      </trkpt>
      <trkpt lat="43.50024" lon="3.73184">
        <ele>145</ele>
        <time>2008-11-15T14:56:08Z</time>
      </trkpt>
      <trkpt lat="43.50025" lon="3.73176">
        <ele>145</ele>
        <time>2008-11-15T14:56:13Z</time>
      </trkpt>
      <trkpt lat="43.50027" lon="3.73168">
        <ele>144.5</ele>
        <time>2008-11-15T14:56:18Z</time>
      </trkpt>
      <trkpt lat="43.50028" lon="3.7316">
        <ele>143.5</ele>
        <time>2008-11-15T14:56:23Z</time>
      </trkpt>
      <trkpt lat="43.50029" lon="3.73152">
        <ele>142.5</ele>
        <time>2008-11-15T14:56:28Z</time>
      </trkpt>
      <trkpt lat="43.5003" lon="3.73145">
        <ele>142</ele>
        <time>2008-11-15T14:56:33Z</time>
      </trkpt>
      <trkpt lat="43.50033" lon="3.73138">
        <ele>141.5</ele>
        <time>2008-11-15T14:56:38Z</time>
      </trkpt>
      <trkpt lat="43.50036" lon="3.73133">
        <ele>141.5</ele>
        <time>2008-11-15T14:56:43Z</time>
      </trkpt>
      <trkpt lat="43.50043" lon="3.73124">
        <ele>141.5</ele>
        <time>2008-11-15T14:56:53Z</time>
      </trkpt>
      <trkpt lat="43.5005" lon="3.73114">
        <ele>141</ele>
        <time>2008-11-15T14:57:01Z</time>
      </trkpt>
      <trkpt lat="43.50055" lon="3.73106">
        <ele>141</ele>
        <time>2008-11-15T14:57:08Z</time>
      </trkpt>
      <trkpt lat="43.50064" lon="3.7309">
        <ele>140</ele>
        <time>2008-11-15T14:57:21Z</time>
      </trkpt>
      <trkpt lat="43.50069" lon="3.73079">
        <ele>139</ele>
        <time>2008-11-15T14:57:30Z</time>
      </trkpt>
      <trkpt lat="43.50072" lon="3.73073">
        <ele>139</ele>
        <time>2008-11-15T14:57:35Z</time>
      </trkpt>
      <trkpt lat="43.50076" lon="3.73066">
        <ele>139</ele>
        <time>2008-11-15T14:57:40Z</time>
      </trkpt>
      <trkpt lat="43.50084" lon="3.73053">
        <ele>138.5</ele>
        <time>2008-11-15T14:57:52Z</time>
      </trkpt>
      <trkpt lat="43.50093" lon="3.7304">
        <ele>137.5</ele>
        <time>2008-11-15T14:58:05Z</time>
      </trkpt>
      <trkpt lat="43.50099" lon="3.73033">
        <ele>137.5</ele>
        <time>2008-11-15T14:58:13Z</time>
      </trkpt>
      <trkpt lat="43.50108" lon="3.73022">
        <ele>135.5</ele>
        <time>2008-11-15T14:58:23Z</time>
      </trkpt>
      <trkpt lat="43.50119" lon="3.73009">
        <ele>134</ele>
        <time>2008-11-15T14:58:35Z</time>
      </trkpt>
      <trkpt lat="43.50125" lon="3.73002">
        <ele>133.5</ele>
        <time>2008-11-15T14:58:43Z</time>
      </trkpt>
      <trkpt lat="43.50133" lon="3.72995">
        <ele>132.5</ele>
        <time>2008-11-15T14:58:52Z</time>
      </trkpt>
      <trkpt lat="43.50138" lon="3.7299">
        <ele>132.5</ele>
        <time>2008-11-15T14:58:58Z</time>
      </trkpt>
      <trkpt lat="43.50143" lon="3.72986">
        <ele>131.5</ele>
        <time>2008-11-15T14:59:03Z</time>
      </trkpt>
      <trkpt lat="43.50146" lon="3.72983">
        <ele>131</ele>
        <time>2008-11-15T14:59:08Z</time>
      </trkpt>
      <trkpt lat="43.50151" lon="3.72979">
        <ele>130.5</ele>
        <time>2008-11-15T14:59:13Z</time>
      </trkpt>
      <trkpt lat="43.50156" lon="3.72975">
        <ele>130</ele>
        <time>2008-11-15T14:59:18Z</time>
      </trkpt>
      <trkpt lat="43.50162" lon="3.72971">
        <ele>129.5</ele>
        <time>2008-11-15T14:59:23Z</time>
      </trkpt>
      <trkpt lat="43.50168" lon="3.72966">
        <ele>128.5</ele>
        <time>2008-11-15T14:59:28Z</time>
      </trkpt>
      <trkpt lat="43.50173" lon="3.72961">
        <ele>128.5</ele>
        <time>2008-11-15T14:59:33Z</time>
      </trkpt>
      <trkpt lat="43.50178" lon="3.72956">
        <ele>128.5</ele>
        <time>2008-11-15T14:59:38Z</time>
      </trkpt>
      <trkpt lat="43.50182" lon="3.7295">
        <ele>128</ele>
        <time>2008-11-15T14:59:43Z</time>
      </trkpt>
      <trkpt lat="43.50186" lon="3.72944">
        <ele>128</ele>
        <time>2008-11-15T14:59:48Z</time>
      </trkpt>
      <trkpt lat="43.50198" lon="3.72945">
        <ele>128</ele>
        <time>2008-11-15T14:59:59Z</time>
      </trkpt>
      <trkpt lat="43.502" lon="3.72924">
        <ele>128</ele>
        <time>2008-11-15T15:00:03Z</time>
      </trkpt>
      <trkpt lat="43.50209" lon="3.72919">
        <ele>130</ele>
        <time>2008-11-15T15:00:08Z</time>
      </trkpt>
      <trkpt lat="43.5021" lon="3.72915">
        <ele>133</ele>
        <time>2008-11-15T15:00:13Z</time>
      </trkpt>
      <trkpt lat="43.50209" lon="3.72909">
        <ele>135</ele>
        <time>2008-11-15T15:00:18Z</time>
      </trkpt>
      <trkpt lat="43.50207" lon="3.72901">
        <ele>135</ele>
        <time>2008-11-15T15:00:23Z</time>
      </trkpt>
      <trkpt lat="43.50204" lon="3.72894">
        <ele>134.5</ele>
        <time>2008-11-15T15:00:28Z</time>
      </trkpt>
      <trkpt lat="43.502" lon="3.7289">
        <ele>133.5</ele>
        <time>2008-11-15T15:00:33Z</time>
      </trkpt>
      <trkpt lat="43.50195" lon="3.72887">
        <ele>133</ele>
        <time>2008-11-15T15:00:38Z</time>
      </trkpt>
      <trkpt lat="43.50191" lon="3.72881">
        <ele>132</ele>
        <time>2008-11-15T15:00:43Z</time>
      </trkpt>
      <trkpt lat="43.50186" lon="3.72876">
        <ele>132</ele>
        <time>2008-11-15T15:00:48Z</time>
      </trkpt>
      <trkpt lat="43.50182" lon="3.72871">
        <ele>132</ele>
        <time>2008-11-15T15:00:53Z</time>
      </trkpt>
      <trkpt lat="43.50177" lon="3.72865">
        <ele>132</ele>
        <time>2008-11-15T15:00:58Z</time>
      </trkpt>
      <trkpt lat="43.50173" lon="3.72859">
        <ele>132</ele>
        <time>2008-11-15T15:01:03Z</time>
      </trkpt>
      <trkpt lat="43.50169" lon="3.72853">
        <ele>132</ele>
        <time>2008-11-15T15:01:08Z</time>
      </trkpt>
      <trkpt lat="43.5016" lon="3.72837">
        <ele>132</ele>
        <time>2008-11-15T15:01:20Z</time>
      </trkpt>
      <trkpt lat="43.50159" lon="3.72835">
        <ele>132.5</ele>
        <time>2008-11-15T15:01:21Z</time>
      </trkpt>
      <trkpt lat="43.50159" lon="3.72834">
        <ele>132.5</ele>
        <time>2008-11-15T15:01:22Z</time>
      </trkpt>
      <trkpt lat="43.50155" lon="3.72828">
        <ele>132.5</ele>
        <time>2008-11-15T15:01:27Z</time>
      </trkpt>
      <trkpt lat="43.50151" lon="3.72822">
        <ele>132.5</ele>
        <time>2008-11-15T15:01:32Z</time>
      </trkpt>
      <trkpt lat="43.50147" lon="3.72815">
        <ele>132.5</ele>
        <time>2008-11-15T15:01:37Z</time>
      </trkpt>
      <trkpt lat="43.50143" lon="3.72808">
        <ele>132</ele>
        <time>2008-11-15T15:01:42Z</time>
      </trkpt>
      <trkpt lat="43.50141" lon="3.728">
        <ele>132</ele>
        <time>2008-11-15T15:01:47Z</time>
      </trkpt>
      <trkpt lat="43.5014" lon="3.72792">
        <ele>131.5</ele>
        <time>2008-11-15T15:01:52Z</time>
      </trkpt>
      <trkpt lat="43.5014" lon="3.72784">
        <ele>131</ele>
        <time>2008-11-15T15:01:57Z</time>
      </trkpt>
      <trkpt lat="43.5014" lon="3.72776">
        <ele>130.5</ele>
        <time>2008-11-15T15:02:02Z</time>
      </trkpt>
      <trkpt lat="43.50141" lon="3.72768">
        <ele>130</ele>
        <time>2008-11-15T15:02:07Z</time>
      </trkpt>
      <trkpt lat="43.50141" lon="3.72759">
        <ele>129.5</ele>
        <time>2008-11-15T15:02:12Z</time>
      </trkpt>
      <trkpt lat="43.50142" lon="3.72751">
        <ele>129</ele>
        <time>2008-11-15T15:02:17Z</time>
      </trkpt>
      <trkpt lat="43.50143" lon="3.72744">
        <ele>129</ele>
        <time>2008-11-15T15:02:22Z</time>
      </trkpt>
      <trkpt lat="43.50144" lon="3.72736">
        <ele>128.5</ele>
        <time>2008-11-15T15:02:27Z</time>
      </trkpt>
      <trkpt lat="43.50145" lon="3.72728">
        <ele>127.5</ele>
        <time>2008-11-15T15:02:32Z</time>
      </trkpt>
      <trkpt lat="43.50146" lon="3.7272">
        <ele>127.5</ele>
        <time>2008-11-15T15:02:37Z</time>
      </trkpt>
      <trkpt lat="43.50147" lon="3.72712">
        <ele>127</ele>
        <time>2008-11-15T15:02:42Z</time>
      </trkpt>
      <trkpt lat="43.50148" lon="3.72704">
        <ele>126.5</ele>
        <time>2008-11-15T15:02:47Z</time>
      </trkpt>
      <trkpt lat="43.50149" lon="3.72697">
        <ele>126</ele>
        <time>2008-11-15T15:02:52Z</time>
      </trkpt>
      <trkpt lat="43.50151" lon="3.72689">
        <ele>126</ele>
        <time>2008-11-15T15:02:57Z</time>
      </trkpt>
      <trkpt lat="43.50152" lon="3.72681">
        <ele>126</ele>
        <time>2008-11-15T15:03:02Z</time>
      </trkpt>
      <trkpt lat="43.50154" lon="3.72674">
        <ele>125.5</ele>
        <time>2008-11-15T15:03:07Z</time>
      </trkpt>
      <trkpt lat="43.50155" lon="3.72666">
        <ele>125</ele>
        <time>2008-11-15T15:03:12Z</time>
      </trkpt>
      <trkpt lat="43.50157" lon="3.72658">
        <ele>125</ele>
        <time>2008-11-15T15:03:17Z</time>
      </trkpt>
      <trkpt lat="43.50159" lon="3.72651">
        <ele>125</ele>
        <time>2008-11-15T15:03:22Z</time>
      </trkpt>
      <trkpt lat="43.50162" lon="3.72644">
        <ele>124.5</ele>
        <time>2008-11-15T15:03:27Z</time>
      </trkpt>
      <trkpt lat="43.50165" lon="3.72638">
        <ele>124</ele>
        <time>2008-11-15T15:03:32Z</time>
      </trkpt>
      <trkpt lat="43.50169" lon="3.72632">
        <ele>124</ele>
        <time>2008-11-15T15:03:37Z</time>
      </trkpt>
      <trkpt lat="43.50172" lon="3.72625">
        <ele>123.5</ele>
        <time>2008-11-15T15:03:42Z</time>
      </trkpt>
      <trkpt lat="43.50174" lon="3.72618">
        <ele>124</ele>
        <time>2008-11-15T15:03:47Z</time>
      </trkpt>
      <trkpt lat="43.50175" lon="3.7261">
        <ele>125</ele>
        <time>2008-11-15T15:03:52Z</time>
      </trkpt>
      <trkpt lat="43.50177" lon="3.72602">
        <ele>125</ele>
        <time>2008-11-15T15:03:57Z</time>
      </trkpt>
      <trkpt lat="43.50178" lon="3.72593">
        <ele>125.5</ele>
        <time>2008-11-15T15:04:02Z</time>
      </trkpt>
      <trkpt lat="43.5018" lon="3.72585">
        <ele>125</ele>
        <time>2008-11-15T15:04:07Z</time>
      </trkpt>
      <trkpt lat="43.50181" lon="3.72576">
        <ele>125</ele>
        <time>2008-11-15T15:04:12Z</time>
      </trkpt>
      <trkpt lat="43.50181" lon="3.72568">
        <ele>125</ele>
        <time>2008-11-15T15:04:17Z</time>
      </trkpt>
      <trkpt lat="43.50182" lon="3.72559">
        <ele>125</ele>
        <time>2008-11-15T15:04:22Z</time>
      </trkpt>
      <trkpt lat="43.50182" lon="3.72551">
        <ele>125.5</ele>
        <time>2008-11-15T15:04:27Z</time>
      </trkpt>
      <trkpt lat="43.50182" lon="3.72542">
        <ele>126</ele>
        <time>2008-11-15T15:04:32Z</time>
      </trkpt>
      <trkpt lat="43.50178" lon="3.7249">
        <ele>127.5</ele>
        <time>2008-11-15T15:05:05Z</time>
      </trkpt>
      <trkpt lat="43.50178" lon="3.72489">
        <ele>127.5</ele>
        <time>2008-11-15T15:05:06Z</time>
      </trkpt>
      <trkpt lat="43.50177" lon="3.72481">
        <ele>127</ele>
        <time>2008-11-15T15:05:11Z</time>
      </trkpt>
      <trkpt lat="43.50177" lon="3.72479">
        <ele>127</ele>
        <time>2008-11-15T15:05:12Z</time>
      </trkpt>
      <trkpt lat="43.50176" lon="3.72473">
        <ele>127</ele>
        <time>2008-11-15T15:05:17Z</time>
      </trkpt>
      <trkpt lat="43.50176" lon="3.72472">
        <ele>127</ele>
        <time>2008-11-15T15:05:22Z</time>
      </trkpt>
      <trkpt lat="43.50176" lon="3.72471">
        <ele>127</ele>
        <time>2008-11-15T15:05:27Z</time>
      </trkpt>
      <trkpt lat="43.50175" lon="3.72467">
        <ele>128</ele>
        <time>2008-11-15T15:05:32Z</time>
      </trkpt>
      <trkpt lat="43.50175" lon="3.72462">
        <ele>128.5</ele>
        <time>2008-11-15T15:05:37Z</time>
      </trkpt>
      <trkpt lat="43.50175" lon="3.72462">
        <ele>128.5</ele>
        <time>2008-11-15T15:05:42Z</time>
      </trkpt>
      <trkpt lat="43.50174" lon="3.72457">
        <ele>128.5</ele>
        <time>2008-11-15T15:05:47Z</time>
      </trkpt>
      <trkpt lat="43.50173" lon="3.7245">
        <ele>128.5</ele>
        <time>2008-11-15T15:05:52Z</time>
      </trkpt>
      <trkpt lat="43.50171" lon="3.72441">
        <ele>127.5</ele>
        <time>2008-11-15T15:05:57Z</time>
      </trkpt>
      <trkpt lat="43.50168" lon="3.72434">
        <ele>127</ele>
        <time>2008-11-15T15:06:02Z</time>
      </trkpt>
      <trkpt lat="43.50165" lon="3.72427">
        <ele>127</ele>
        <time>2008-11-15T15:06:07Z</time>
      </trkpt>
      <trkpt lat="43.50163" lon="3.7242">
        <ele>127</ele>
        <time>2008-11-15T15:06:12Z</time>
      </trkpt>
      <trkpt lat="43.50161" lon="3.72412">
        <ele>126</ele>
        <time>2008-11-15T15:06:17Z</time>
      </trkpt>
      <trkpt lat="43.50159" lon="3.72405">
        <ele>125.5</ele>
        <time>2008-11-15T15:06:22Z</time>
      </trkpt>
      <trkpt lat="43.50157" lon="3.72397">
        <ele>125</ele>
        <time>2008-11-15T15:06:27Z</time>
      </trkpt>
      <trkpt lat="43.50155" lon="3.7239">
        <ele>124.5</ele>
        <time>2008-11-15T15:06:32Z</time>
      </trkpt>
      <trkpt lat="43.50153" lon="3.72383">
        <ele>124</ele>
        <time>2008-11-15T15:06:37Z</time>
      </trkpt>
      <trkpt lat="43.50152" lon="3.72375">
        <ele>123.5</ele>
        <time>2008-11-15T15:06:42Z</time>
      </trkpt>
      <trkpt lat="43.50151" lon="3.72368">
        <ele>123.5</ele>
        <time>2008-11-15T15:06:47Z</time>
      </trkpt>
      <trkpt lat="43.50149" lon="3.72361">
        <ele>123</ele>
        <time>2008-11-15T15:06:52Z</time>
      </trkpt>
      <trkpt lat="43.50148" lon="3.72354">
        <ele>122</ele>
        <time>2008-11-15T15:06:57Z</time>
      </trkpt>
      <trkpt lat="43.50147" lon="3.72347">
        <ele>121.5</ele>
        <time>2008-11-15T15:07:02Z</time>
      </trkpt>
      <trkpt lat="43.50146" lon="3.72346">
        <ele>121.5</ele>
        <time>2008-11-15T15:07:07Z</time>
      </trkpt>
      <trkpt lat="43.50146" lon="3.72339">
        <ele>122</ele>
        <time>2008-11-15T15:07:12Z</time>
      </trkpt>
      <trkpt lat="43.50145" lon="3.72332">
        <ele>122</ele>
        <time>2008-11-15T15:07:17Z</time>
      </trkpt>
      <trkpt lat="43.50145" lon="3.72325">
        <ele>121.5</ele>
        <time>2008-11-15T15:07:22Z</time>
      </trkpt>
      <trkpt lat="43.50144" lon="3.72317">
        <ele>121</ele>
        <time>2008-11-15T15:07:27Z</time>
      </trkpt>
      <trkpt lat="43.50143" lon="3.72309">
        <ele>120.5</ele>
        <time>2008-11-15T15:07:32Z</time>
      </trkpt>
      <trkpt lat="43.50143" lon="3.72301">
        <ele>119.5</ele>
        <time>2008-11-15T15:07:37Z</time>
      </trkpt>
      <trkpt lat="43.50142" lon="3.72293">
        <ele>117.5</ele>
        <time>2008-11-15T15:07:42Z</time>
      </trkpt>
      <trkpt lat="43.50142" lon="3.72284">
        <ele>116.5</ele>
        <time>2008-11-15T15:07:47Z</time>
      </trkpt>
      <trkpt lat="43.50142" lon="3.72276">
        <ele>116</ele>
        <time>2008-11-15T15:07:52Z</time>
      </trkpt>
      <trkpt lat="43.50143" lon="3.72269">
        <ele>114.5</ele>
        <time>2008-11-15T15:07:57Z</time>
      </trkpt>
      <trkpt lat="43.50144" lon="3.72262">
        <ele>114</ele>
        <time>2008-11-15T15:08:02Z</time>
      </trkpt>
      <trkpt lat="43.50146" lon="3.72255">
        <ele>113</ele>
        <time>2008-11-15T15:08:07Z</time>
      </trkpt>
      <trkpt lat="43.50148" lon="3.7225">
        <ele>112.5</ele>
        <time>2008-11-15T15:08:12Z</time>
      </trkpt>
      <trkpt lat="43.5015" lon="3.72243">
        <ele>112</ele>
        <time>2008-11-15T15:08:17Z</time>
      </trkpt>
      <trkpt lat="43.50155" lon="3.72212">
        <ele>111</ele>
        <time>2008-11-15T15:08:41Z</time>
      </trkpt>
      <trkpt lat="43.50157" lon="3.722">
        <ele>111</ele>
        <time>2008-11-15T15:08:50Z</time>
      </trkpt>
      <trkpt lat="43.50157" lon="3.722">
        <ele>111</ele>
        <time>2008-11-15T15:08:50Z</time>
      </trkpt>
      <trkpt lat="43.50157" lon="3.72198">
        <ele>111</ele>
        <time>2008-11-15T15:08:51Z</time>
      </trkpt>
      <trkpt lat="43.50157" lon="3.72198">
        <ele>111</ele>
        <time>2008-11-15T15:08:51Z</time>
      </trkpt>
      <trkpt lat="43.50157" lon="3.72198">
        <ele>111</ele>
        <time>2008-11-15T15:08:51Z</time>
      </trkpt>
      <trkpt lat="43.50157" lon="3.72198">
        <ele>111</ele>
        <time>2008-11-15T15:08:51Z</time>
      </trkpt>
      <trkpt lat="43.50157" lon="3.72197">
        <ele>111</ele>
        <time>2008-11-15T15:08:52Z</time>
      </trkpt>
      <trkpt lat="43.50157" lon="3.72197">
        <ele>111</ele>
        <time>2008-11-15T15:08:52Z</time>
      </trkpt>
      <trkpt lat="43.50157" lon="3.72197">
        <ele>111</ele>
        <time>2008-11-15T15:08:52Z</time>
      </trkpt>
      <trkpt lat="43.50158" lon="3.72191">
        <ele>110.5</ele>
        <time>2008-11-15T15:08:56Z</time>
      </trkpt>
      <trkpt lat="43.50158" lon="3.72191">
        <ele>110.5</ele>
        <time>2008-11-15T15:08:56Z</time>
      </trkpt>
      <trkpt lat="43.50158" lon="3.72191">
        <ele>110.5</ele>
        <time>2008-11-15T15:08:56Z</time>
      </trkpt>
      <trkpt lat="43.50158" lon="3.7219">
        <ele>110.5</ele>
        <time>2008-11-15T15:08:57Z</time>
      </trkpt>
      <trkpt lat="43.50158" lon="3.72187">
        <ele>110.5</ele>
        <time>2008-11-15T15:08:59Z</time>
      </trkpt>
      <trkpt lat="43.50158" lon="3.72186">
        <ele>110.5</ele>
        <time>2008-11-15T15:09:00Z</time>
      </trkpt>
      <trkpt lat="43.50158" lon="3.72184">
        <ele>110.5</ele>
        <time>2008-11-15T15:09:01Z</time>
      </trkpt>
      <trkpt lat="43.50158" lon="3.72183">
        <ele>110.5</ele>
        <time>2008-11-15T15:09:02Z</time>
      </trkpt>
      <trkpt lat="43.50159" lon="3.7218">
        <ele>110.5</ele>
        <time>2008-11-15T15:09:04Z</time>
      </trkpt>
      <trkpt lat="43.50159" lon="3.72179">
        <ele>110</ele>
        <time>2008-11-15T15:09:05Z</time>
      </trkpt>
      <trkpt lat="43.50159" lon="3.72177">
        <ele>110</ele>
        <time>2008-11-15T15:09:06Z</time>
      </trkpt>
      <trkpt lat="43.50159" lon="3.72176">
        <ele>109.5</ele>
        <time>2008-11-15T15:09:07Z</time>
      </trkpt>
      <trkpt lat="43.5016" lon="3.72173">
        <ele>109.5</ele>
        <time>2008-11-15T15:09:09Z</time>
      </trkpt>
      <trkpt lat="43.5016" lon="3.72172">
        <ele>109.5</ele>
        <time>2008-11-15T15:09:10Z</time>
      </trkpt>
      <trkpt lat="43.5016" lon="3.7217">
        <ele>109</ele>
        <time>2008-11-15T15:09:11Z</time>
      </trkpt>
      <trkpt lat="43.50161" lon="3.72168">
        <ele>109</ele>
        <time>2008-11-15T15:09:12Z</time>
      </trkpt>
      <trkpt lat="43.50161" lon="3.72166">
        <ele>109</ele>
        <time>2008-11-15T15:09:14Z</time>
      </trkpt>
      <trkpt lat="43.50161" lon="3.72165">
        <ele>109</ele>
        <time>2008-11-15T15:09:15Z</time>
      </trkpt>
      <trkpt lat="43.50161" lon="3.72163">
        <ele>109</ele>
        <time>2008-11-15T15:09:16Z</time>
      </trkpt>
      <trkpt lat="43.50162" lon="3.72162">
        <ele>109</ele>
        <time>2008-11-15T15:09:17Z</time>
      </trkpt>
      <trkpt lat="43.50162" lon="3.72159">
        <ele>109</ele>
        <time>2008-11-15T15:09:19Z</time>
      </trkpt>
      <trkpt lat="43.50162" lon="3.72158">
        <ele>108.5</ele>
        <time>2008-11-15T15:09:20Z</time>
      </trkpt>
      <trkpt lat="43.50162" lon="3.72156">
        <ele>108.5</ele>
        <time>2008-11-15T15:09:21Z</time>
      </trkpt>
      <trkpt lat="43.50163" lon="3.72155">
        <ele>108.5</ele>
        <time>2008-11-15T15:09:22Z</time>
      </trkpt>
      <trkpt lat="43.50163" lon="3.72152">
        <ele>108.5</ele>
        <time>2008-11-15T15:09:24Z</time>
      </trkpt>
      <trkpt lat="43.50163" lon="3.72151">
        <ele>109</ele>
        <time>2008-11-15T15:09:25Z</time>
      </trkpt>
      <trkpt lat="43.50163" lon="3.72149">
        <ele>109</ele>
        <time>2008-11-15T15:09:26Z</time>
      </trkpt>
      <trkpt lat="43.50164" lon="3.72148">
        <ele>108.5</ele>
        <time>2008-11-15T15:09:27Z</time>
      </trkpt>
      <trkpt lat="43.50164" lon="3.72145">
        <ele>108.5</ele>
        <time>2008-11-15T15:09:29Z</time>
      </trkpt>
      <trkpt lat="43.50164" lon="3.72143">
        <ele>108.5</ele>
        <time>2008-11-15T15:09:30Z</time>
      </trkpt>
      <trkpt lat="43.50165" lon="3.72142">
        <ele>108.5</ele>
        <time>2008-11-15T15:09:31Z</time>
      </trkpt>
      <trkpt lat="43.50165" lon="3.7214">
        <ele>108.5</ele>
        <time>2008-11-15T15:09:32Z</time>
      </trkpt>
      <trkpt lat="43.50165" lon="3.72137">
        <ele>108.5</ele>
        <time>2008-11-15T15:09:34Z</time>
      </trkpt>
      <trkpt lat="43.50166" lon="3.72136">
        <ele>108.5</ele>
        <time>2008-11-15T15:09:35Z</time>
      </trkpt>
      <trkpt lat="43.50166" lon="3.72134">
        <ele>108.5</ele>
        <time>2008-11-15T15:09:36Z</time>
      </trkpt>
      <trkpt lat="43.50166" lon="3.72133">
        <ele>108.5</ele>
        <time>2008-11-15T15:09:37Z</time>
      </trkpt>
      <trkpt lat="43.50166" lon="3.7213">
        <ele>108.5</ele>
        <time>2008-11-15T15:09:39Z</time>
      </trkpt>
      <trkpt lat="43.50167" lon="3.72128">
        <ele>108.5</ele>
        <time>2008-11-15T15:09:40Z</time>
      </trkpt>
      <trkpt lat="43.50167" lon="3.72127">
        <ele>108.5</ele>
        <time>2008-11-15T15:09:41Z</time>
      </trkpt>
      <trkpt lat="43.50167" lon="3.72125">
        <ele>108</ele>
        <time>2008-11-15T15:09:42Z</time>
      </trkpt>
      <trkpt lat="43.50167" lon="3.72123">
        <ele>108</ele>
        <time>2008-11-15T15:09:44Z</time>
      </trkpt>
      <trkpt lat="43.50167" lon="3.72121">
        <ele>108</ele>
        <time>2008-11-15T15:09:45Z</time>
      </trkpt>
      <trkpt lat="43.50167" lon="3.7212">
        <ele>108</ele>
        <time>2008-11-15T15:09:46Z</time>
      </trkpt>
      <trkpt lat="43.50168" lon="3.72118">
        <ele>108</ele>
        <time>2008-11-15T15:09:47Z</time>
      </trkpt>
      <trkpt lat="43.50168" lon="3.72116">
        <ele>108</ele>
        <time>2008-11-15T15:09:49Z</time>
      </trkpt>
      <trkpt lat="43.50168" lon="3.72114">
        <ele>108</ele>
        <time>2008-11-15T15:09:50Z</time>
      </trkpt>
      <trkpt lat="43.50168" lon="3.72113">
        <ele>107.5</ele>
        <time>2008-11-15T15:09:51Z</time>
      </trkpt>
      <trkpt lat="43.50168" lon="3.72112">
        <ele>107.5</ele>
        <time>2008-11-15T15:09:52Z</time>
      </trkpt>
      <trkpt lat="43.50168" lon="3.72109">
        <ele>107.5</ele>
        <time>2008-11-15T15:09:54Z</time>
      </trkpt>
      <trkpt lat="43.50168" lon="3.72108">
        <ele>107.5</ele>
        <time>2008-11-15T15:09:55Z</time>
      </trkpt>
      <trkpt lat="43.50169" lon="3.72106">
        <ele>107.5</ele>
        <time>2008-11-15T15:09:56Z</time>
      </trkpt>
      <trkpt lat="43.50169" lon="3.72105">
        <ele>107.5</ele>
        <time>2008-11-15T15:09:57Z</time>
      </trkpt>
      <trkpt lat="43.50169" lon="3.72103">
        <ele>107</ele>
        <time>2008-11-15T15:09:59Z</time>
      </trkpt>
      <trkpt lat="43.50169" lon="3.72101">
        <ele>107</ele>
        <time>2008-11-15T15:10:00Z</time>
      </trkpt>
      <trkpt lat="43.50169" lon="3.721">
        <ele>107</ele>
        <time>2008-11-15T15:10:01Z</time>
      </trkpt>
      <trkpt lat="43.5017" lon="3.72099">
        <ele>107</ele>
        <time>2008-11-15T15:10:02Z</time>
      </trkpt>
      <trkpt lat="43.5017" lon="3.72096">
        <ele>107</ele>
        <time>2008-11-15T15:10:04Z</time>
      </trkpt>
      <trkpt lat="43.5017" lon="3.72095">
        <ele>107</ele>
        <time>2008-11-15T15:10:05Z</time>
      </trkpt>
      <trkpt lat="43.5017" lon="3.72093">
        <ele>107</ele>
        <time>2008-11-15T15:10:06Z</time>
      </trkpt>
      <trkpt lat="43.50171" lon="3.72092">
        <ele>107</ele>
        <time>2008-11-15T15:10:07Z</time>
      </trkpt>
      <trkpt lat="43.50171" lon="3.72089">
        <ele>107</ele>
        <time>2008-11-15T15:10:09Z</time>
      </trkpt>
      <trkpt lat="43.50172" lon="3.72088">
        <ele>107</ele>
        <time>2008-11-15T15:10:10Z</time>
      </trkpt>
      <trkpt lat="43.50172" lon="3.72086">
        <ele>107</ele>
        <time>2008-11-15T15:10:11Z</time>
      </trkpt>
      <trkpt lat="43.50173" lon="3.72085">
        <ele>107</ele>
        <time>2008-11-15T15:10:12Z</time>
      </trkpt>
      <trkpt lat="43.50173" lon="3.72082">
        <ele>107.5</ele>
        <time>2008-11-15T15:10:14Z</time>
      </trkpt>
      <trkpt lat="43.50173" lon="3.7208">
        <ele>107.5</ele>
        <time>2008-11-15T15:10:15Z</time>
      </trkpt>
      <trkpt lat="43.50174" lon="3.72079">
        <ele>107.5</ele>
        <time>2008-11-15T15:10:16Z</time>
      </trkpt>
      <trkpt lat="43.50174" lon="3.72077">
        <ele>107.5</ele>
        <time>2008-11-15T15:10:17Z</time>
      </trkpt>
      <trkpt lat="43.50174" lon="3.72075">
        <ele>107.5</ele>
        <time>2008-11-15T15:10:19Z</time>
      </trkpt>
      <trkpt lat="43.50175" lon="3.72073">
        <ele>107.5</ele>
        <time>2008-11-15T15:10:20Z</time>
      </trkpt>
      <trkpt lat="43.50175" lon="3.72072">
        <ele>107.5</ele>
        <time>2008-11-15T15:10:21Z</time>
      </trkpt>
      <trkpt lat="43.50175" lon="3.7207">
        <ele>107.5</ele>
        <time>2008-11-15T15:10:22Z</time>
      </trkpt>
      <trkpt lat="43.50176" lon="3.72067">
        <ele>107</ele>
        <time>2008-11-15T15:10:24Z</time>
      </trkpt>
      <trkpt lat="43.50176" lon="3.72066">
        <ele>107</ele>
        <time>2008-11-15T15:10:25Z</time>
      </trkpt>
      <trkpt lat="43.50176" lon="3.72064">
        <ele>107</ele>
        <time>2008-11-15T15:10:26Z</time>
      </trkpt>
      <trkpt lat="43.50177" lon="3.72062">
        <ele>107</ele>
        <time>2008-11-15T15:10:27Z</time>
      </trkpt>
      <trkpt lat="43.50178" lon="3.72059">
        <ele>106.5</ele>
        <time>2008-11-15T15:10:29Z</time>
      </trkpt>
      <trkpt lat="43.50178" lon="3.72058">
        <ele>106.5</ele>
        <time>2008-11-15T15:10:30Z</time>
      </trkpt>
      <trkpt lat="43.50178" lon="3.72056">
        <ele>106.5</ele>
        <time>2008-11-15T15:10:31Z</time>
      </trkpt>
      <trkpt lat="43.50179" lon="3.72055">
        <ele>106.5</ele>
        <time>2008-11-15T15:10:32Z</time>
      </trkpt>
      <trkpt lat="43.5018" lon="3.72052">
        <ele>106.5</ele>
        <time>2008-11-15T15:10:34Z</time>
      </trkpt>
      <trkpt lat="43.5018" lon="3.7205">
        <ele>106.5</ele>
        <time>2008-11-15T15:10:35Z</time>
      </trkpt>
      <trkpt lat="43.5018" lon="3.72049">
        <ele>106.5</ele>
        <time>2008-11-15T15:10:36Z</time>
      </trkpt>
      <trkpt lat="43.50181" lon="3.72047">
        <ele>106.5</ele>
        <time>2008-11-15T15:10:37Z</time>
      </trkpt>
      <trkpt lat="43.50182" lon="3.72044">
        <ele>106.5</ele>
        <time>2008-11-15T15:10:39Z</time>
      </trkpt>
      <trkpt lat="43.50182" lon="3.72043">
        <ele>106</ele>
        <time>2008-11-15T15:10:40Z</time>
      </trkpt>
      <trkpt lat="43.50182" lon="3.72041">
        <ele>106.5</ele>
        <time>2008-11-15T15:10:41Z</time>
      </trkpt>
      <trkpt lat="43.50183" lon="3.7204">
        <ele>106.5</ele>
        <time>2008-11-15T15:10:42Z</time>
      </trkpt>
      <trkpt lat="43.50184" lon="3.72037">
        <ele>106.5</ele>
        <time>2008-11-15T15:10:44Z</time>
      </trkpt>
      <trkpt lat="43.50184" lon="3.72036">
        <ele>106.5</ele>
        <time>2008-11-15T15:10:45Z</time>
      </trkpt>
      <trkpt lat="43.50184" lon="3.72034">
        <ele>106.5</ele>
        <time>2008-11-15T15:10:46Z</time>
      </trkpt>
      <trkpt lat="43.50185" lon="3.72033">
        <ele>106.5</ele>
        <time>2008-11-15T15:10:47Z</time>
      </trkpt>
      <trkpt lat="43.50185" lon="3.7203">
        <ele>106.5</ele>
        <time>2008-11-15T15:10:49Z</time>
      </trkpt>
      <trkpt lat="43.50185" lon="3.72028">
        <ele>106</ele>
        <time>2008-11-15T15:10:50Z</time>
      </trkpt>
      <trkpt lat="43.50185" lon="3.72026">
        <ele>106</ele>
        <time>2008-11-15T15:10:51Z</time>
      </trkpt>
      <trkpt lat="43.50186" lon="3.72025">
        <ele>106</ele>
        <time>2008-11-15T15:10:52Z</time>
      </trkpt>
      <trkpt lat="43.50186" lon="3.72022">
        <ele>106</ele>
        <time>2008-11-15T15:10:54Z</time>
      </trkpt>
      <trkpt lat="43.50187" lon="3.7202">
        <ele>106</ele>
        <time>2008-11-15T15:10:55Z</time>
      </trkpt>
      <trkpt lat="43.50187" lon="3.72018">
        <ele>106</ele>
        <time>2008-11-15T15:10:56Z</time>
      </trkpt>
      <trkpt lat="43.50187" lon="3.72017">
        <ele>105.5</ele>
        <time>2008-11-15T15:10:57Z</time>
      </trkpt>
      <trkpt lat="43.50188" lon="3.72014">
        <ele>105.5</ele>
        <time>2008-11-15T15:10:59Z</time>
      </trkpt>
      <trkpt lat="43.50189" lon="3.72012">
        <ele>105.5</ele>
        <time>2008-11-15T15:11:00Z</time>
      </trkpt>
      <trkpt lat="43.50189" lon="3.7201">
        <ele>105.5</ele>
        <time>2008-11-15T15:11:01Z</time>
      </trkpt>
      <trkpt lat="43.50189" lon="3.72009">
        <ele>105</ele>
        <time>2008-11-15T15:11:02Z</time>
      </trkpt>
      <trkpt lat="43.5019" lon="3.72006">
        <ele>105</ele>
        <time>2008-11-15T15:11:04Z</time>
      </trkpt>
      <trkpt lat="43.50191" lon="3.72004">
        <ele>105</ele>
        <time>2008-11-15T15:11:05Z</time>
      </trkpt>
      <trkpt lat="43.50191" lon="3.72002">
        <ele>105</ele>
        <time>2008-11-15T15:11:06Z</time>
      </trkpt>
      <trkpt lat="43.50191" lon="3.72001">
        <ele>105</ele>
        <time>2008-11-15T15:11:07Z</time>
      </trkpt>
      <trkpt lat="43.50192" lon="3.71998">
        <ele>104.5</ele>
        <time>2008-11-15T15:11:09Z</time>
      </trkpt>
      <trkpt lat="43.50192" lon="3.71996">
        <ele>104.5</ele>
        <time>2008-11-15T15:11:10Z</time>
      </trkpt>
      <trkpt lat="43.50192" lon="3.71995">
        <ele>104.5</ele>
        <time>2008-11-15T15:11:11Z</time>
      </trkpt>
      <trkpt lat="43.50192" lon="3.71993">
        <ele>104.5</ele>
        <time>2008-11-15T15:11:12Z</time>
      </trkpt>
      <trkpt lat="43.50192" lon="3.7199">
        <ele>104.5</ele>
        <time>2008-11-15T15:11:14Z</time>
      </trkpt>
      <trkpt lat="43.50193" lon="3.71988">
        <ele>104.5</ele>
        <time>2008-11-15T15:11:15Z</time>
      </trkpt>
      <trkpt lat="43.50193" lon="3.71987">
        <ele>104.5</ele>
        <time>2008-11-15T15:11:16Z</time>
      </trkpt>
      <trkpt lat="43.50193" lon="3.71985">
        <ele>104.5</ele>
        <time>2008-11-15T15:11:17Z</time>
      </trkpt>
      <trkpt lat="43.50193" lon="3.71982">
        <ele>104.5</ele>
        <time>2008-11-15T15:11:19Z</time>
      </trkpt>
      <trkpt lat="43.50194" lon="3.7198">
        <ele>105</ele>
        <time>2008-11-15T15:11:20Z</time>
      </trkpt>
      <trkpt lat="43.50194" lon="3.71979">
        <ele>105</ele>
        <time>2008-11-15T15:11:21Z</time>
      </trkpt>
      <trkpt lat="43.50194" lon="3.71977">
        <ele>104.5</ele>
        <time>2008-11-15T15:11:22Z</time>
      </trkpt>
      <trkpt lat="43.50194" lon="3.71974">
        <ele>105</ele>
        <time>2008-11-15T15:11:24Z</time>
      </trkpt>
      <trkpt lat="43.50194" lon="3.71972">
        <ele>105</ele>
        <time>2008-11-15T15:11:25Z</time>
      </trkpt>
      <trkpt lat="43.50193" lon="3.71971">
        <ele>105</ele>
        <time>2008-11-15T15:11:26Z</time>
      </trkpt>
      <trkpt lat="43.50193" lon="3.71969">
        <ele>105</ele>
        <time>2008-11-15T15:11:27Z</time>
      </trkpt>
      <trkpt lat="43.50192" lon="3.71966">
        <ele>105.5</ele>
        <time>2008-11-15T15:11:29Z</time>
      </trkpt>
      <trkpt lat="43.50192" lon="3.71965">
        <ele>106</ele>
        <time>2008-11-15T15:11:30Z</time>
      </trkpt>
      <trkpt lat="43.50191" lon="3.71963">
        <ele>106</ele>
        <time>2008-11-15T15:11:31Z</time>
      </trkpt>
      <trkpt lat="43.50191" lon="3.71962">
        <ele>106</ele>
        <time>2008-11-15T15:11:32Z</time>
      </trkpt>
      <trkpt lat="43.50189" lon="3.7196">
        <ele>107</ele>
        <time>2008-11-15T15:11:34Z</time>
      </trkpt>
      <trkpt lat="43.50188" lon="3.71959">
        <ele>107</ele>
        <time>2008-11-15T15:11:35Z</time>
      </trkpt>
      <trkpt lat="43.50188" lon="3.71958">
        <ele>107.5</ele>
        <time>2008-11-15T15:11:36Z</time>
      </trkpt>
      <trkpt lat="43.50188" lon="3.71957">
        <ele>108.5</ele>
        <time>2008-11-15T15:11:37Z</time>
      </trkpt>
      <trkpt lat="43.50186" lon="3.71954">
        <ele>109.5</ele>
        <time>2008-11-15T15:11:39Z</time>
      </trkpt>
      <trkpt lat="43.50186" lon="3.71953">
        <ele>110</ele>
        <time>2008-11-15T15:11:40Z</time>
      </trkpt>
      <trkpt lat="43.50185" lon="3.71952">
        <ele>110</ele>
        <time>2008-11-15T15:11:41Z</time>
      </trkpt>
      <trkpt lat="43.50184" lon="3.7195">
        <ele>110</ele>
        <time>2008-11-15T15:11:42Z</time>
      </trkpt>
      <trkpt lat="43.50183" lon="3.71948">
        <ele>110.5</ele>
        <time>2008-11-15T15:11:44Z</time>
      </trkpt>
      <trkpt lat="43.50182" lon="3.71946">
        <ele>110.5</ele>
        <time>2008-11-15T15:11:45Z</time>
      </trkpt>
      <trkpt lat="43.50181" lon="3.71945">
        <ele>111</ele>
        <time>2008-11-15T15:11:46Z</time>
      </trkpt>
      <trkpt lat="43.50181" lon="3.71944">
        <ele>111</ele>
        <time>2008-11-15T15:11:47Z</time>
      </trkpt>
      <trkpt lat="43.50179" lon="3.71941">
        <ele>111</ele>
        <time>2008-11-15T15:11:49Z</time>
      </trkpt>
      <trkpt lat="43.50178" lon="3.7194">
        <ele>111</ele>
        <time>2008-11-15T15:11:50Z</time>
      </trkpt>
      <trkpt lat="43.50178" lon="3.71938">
        <ele>111</ele>
        <time>2008-11-15T15:11:51Z</time>
      </trkpt>
      <trkpt lat="43.50177" lon="3.71937">
        <ele>111</ele>
        <time>2008-11-15T15:11:52Z</time>
      </trkpt>
      <trkpt lat="43.50175" lon="3.71934">
        <ele>111</ele>
        <time>2008-11-15T15:11:54Z</time>
      </trkpt>
      <trkpt lat="43.50174" lon="3.71933">
        <ele>111</ele>
        <time>2008-11-15T15:11:55Z</time>
      </trkpt>
      <trkpt lat="43.50173" lon="3.71931">
        <ele>111</ele>
        <time>2008-11-15T15:11:56Z</time>
      </trkpt>
      <trkpt lat="43.50173" lon="3.7193">
        <ele>111.5</ele>
        <time>2008-11-15T15:11:57Z</time>
      </trkpt>
      <trkpt lat="43.50171" lon="3.71927">
        <ele>111.5</ele>
        <time>2008-11-15T15:11:59Z</time>
      </trkpt>
      <trkpt lat="43.5017" lon="3.71926">
        <ele>111.5</ele>
        <time>2008-11-15T15:12:00Z</time>
      </trkpt>
      <trkpt lat="43.5017" lon="3.71924">
        <ele>112</ele>
        <time>2008-11-15T15:12:01Z</time>
      </trkpt>
      <trkpt lat="43.50169" lon="3.71923">
        <ele>112</ele>
        <time>2008-11-15T15:12:02Z</time>
      </trkpt>
      <trkpt lat="43.50167" lon="3.7192">
        <ele>112</ele>
        <time>2008-11-15T15:12:04Z</time>
      </trkpt>
      <trkpt lat="43.50166" lon="3.71919">
        <ele>112</ele>
        <time>2008-11-15T15:12:05Z</time>
      </trkpt>
      <trkpt lat="43.50166" lon="3.71918">
        <ele>112</ele>
        <time>2008-11-15T15:12:06Z</time>
      </trkpt>
      <trkpt lat="43.50165" lon="3.71916">
        <ele>112</ele>
        <time>2008-11-15T15:12:07Z</time>
      </trkpt>
      <trkpt lat="43.50163" lon="3.71914">
        <ele>112</ele>
        <time>2008-11-15T15:12:09Z</time>
      </trkpt>
      <trkpt lat="43.50162" lon="3.71913">
        <ele>112.5</ele>
        <time>2008-11-15T15:12:10Z</time>
      </trkpt>
      <trkpt lat="43.50162" lon="3.71912">
        <ele>112.5</ele>
        <time>2008-11-15T15:12:11Z</time>
      </trkpt>
      <trkpt lat="43.50161" lon="3.7191">
        <ele>112.5</ele>
        <time>2008-11-15T15:12:12Z</time>
      </trkpt>
      <trkpt lat="43.5016" lon="3.71908">
        <ele>112.5</ele>
        <time>2008-11-15T15:12:14Z</time>
      </trkpt>
      <trkpt lat="43.50159" lon="3.71906">
        <ele>113</ele>
        <time>2008-11-15T15:12:15Z</time>
      </trkpt>
      <trkpt lat="43.50158" lon="3.71905">
        <ele>112.5</ele>
        <time>2008-11-15T15:12:16Z</time>
      </trkpt>
      <trkpt lat="43.50158" lon="3.71904">
        <ele>112.5</ele>
        <time>2008-11-15T15:12:17Z</time>
      </trkpt>
      <trkpt lat="43.50156" lon="3.71901">
        <ele>112.5</ele>
        <time>2008-11-15T15:12:19Z</time>
      </trkpt>
      <trkpt lat="43.50155" lon="3.719">
        <ele>112.5</ele>
        <time>2008-11-15T15:12:20Z</time>
      </trkpt>
      <trkpt lat="43.50155" lon="3.71898">
        <ele>112.5</ele>
        <time>2008-11-15T15:12:21Z</time>
      </trkpt>
      <trkpt lat="43.50154" lon="3.71897">
        <ele>112.5</ele>
        <time>2008-11-15T15:12:22Z</time>
      </trkpt>
      <trkpt lat="43.50152" lon="3.71894">
        <ele>112.5</ele>
        <time>2008-11-15T15:12:24Z</time>
      </trkpt>
      <trkpt lat="43.50152" lon="3.71893">
        <ele>112.5</ele>
        <time>2008-11-15T15:12:25Z</time>
      </trkpt>
      <trkpt lat="43.50151" lon="3.71891">
        <ele>112.5</ele>
        <time>2008-11-15T15:12:26Z</time>
      </trkpt>
      <trkpt lat="43.50143" lon="3.71879">
        <ele>111.5</ele>
        <time>2008-11-15T15:12:35Z</time>
      </trkpt>
      <trkpt lat="43.50143" lon="3.71878">
        <ele>111.5</ele>
        <time>2008-11-15T15:12:36Z</time>
      </trkpt>
      <trkpt lat="43.5014" lon="3.71874">
        <ele>111.5</ele>
        <time>2008-11-15T15:12:39Z</time>
      </trkpt>
      <trkpt lat="43.50137" lon="3.7187">
        <ele>112</ele>
        <time>2008-11-15T15:12:43Z</time>
      </trkpt>
      <trkpt lat="43.50135" lon="3.71865">
        <ele>113</ele>
        <time>2008-11-15T15:12:48Z</time>
      </trkpt>
      <trkpt lat="43.50132" lon="3.71858">
        <ele>113</ele>
        <time>2008-11-15T15:12:53Z</time>
      </trkpt>
      <trkpt lat="43.50129" lon="3.71851">
        <ele>112.5</ele>
        <time>2008-11-15T15:12:58Z</time>
      </trkpt>
      <trkpt lat="43.50126" lon="3.71845">
        <ele>112.5</ele>
        <time>2008-11-15T15:13:03Z</time>
      </trkpt>
      <trkpt lat="43.50122" lon="3.71839">
        <ele>113</ele>
        <time>2008-11-15T15:13:08Z</time>
      </trkpt>
      <trkpt lat="43.50119" lon="3.71833">
        <ele>114.5</ele>
        <time>2008-11-15T15:13:13Z</time>
      </trkpt>
      <trkpt lat="43.50115" lon="3.71827">
        <ele>114.5</ele>
        <time>2008-11-15T15:13:18Z</time>
      </trkpt>
      <trkpt lat="43.50112" lon="3.71819">
        <ele>114</ele>
        <time>2008-11-15T15:13:23Z</time>
      </trkpt>
      <trkpt lat="43.50109" lon="3.71813">
        <ele>114</ele>
        <time>2008-11-15T15:13:28Z</time>
      </trkpt>
      <trkpt lat="43.50107" lon="3.71806">
        <ele>114.5</ele>
        <time>2008-11-15T15:13:33Z</time>
      </trkpt>
      <trkpt lat="43.50104" lon="3.71799">
        <ele>115</ele>
        <time>2008-11-15T15:13:38Z</time>
      </trkpt>
      <trkpt lat="43.50102" lon="3.71791">
        <ele>114.5</ele>
        <time>2008-11-15T15:13:43Z</time>
      </trkpt>
      <trkpt lat="43.50101" lon="3.71782">
        <ele>114</ele>
        <time>2008-11-15T15:13:48Z</time>
      </trkpt>
      <trkpt lat="43.50099" lon="3.71774">
        <ele>113</ele>
        <time>2008-11-15T15:13:53Z</time>
      </trkpt>
      <trkpt lat="43.50097" lon="3.71765">
        <ele>113</ele>
        <time>2008-11-15T15:13:58Z</time>
      </trkpt>
      <trkpt lat="43.50095" lon="3.71757">
        <ele>113</ele>
        <time>2008-11-15T15:14:03Z</time>
      </trkpt>
      <trkpt lat="43.50092" lon="3.71749">
        <ele>112.5</ele>
        <time>2008-11-15T15:14:08Z</time>
      </trkpt>
      <trkpt lat="43.50089" lon="3.71742">
        <ele>112.5</ele>
        <time>2008-11-15T15:14:13Z</time>
      </trkpt>
      <trkpt lat="43.50086" lon="3.71734">
        <ele>111.5</ele>
        <time>2008-11-15T15:14:18Z</time>
      </trkpt>
      <trkpt lat="43.50082" lon="3.71727">
        <ele>112</ele>
        <time>2008-11-15T15:14:23Z</time>
      </trkpt>
      <trkpt lat="43.50079" lon="3.71721">
        <ele>112</ele>
        <time>2008-11-15T15:14:28Z</time>
      </trkpt>
      <trkpt lat="43.50077" lon="3.71715">
        <ele>110.5</ele>
        <time>2008-11-15T15:14:33Z</time>
      </trkpt>
      <trkpt lat="43.50073" lon="3.71719">
        <ele>108</ele>
        <time>2008-11-15T15:14:38Z</time>
      </trkpt>
      <trkpt lat="43.5007" lon="3.71725">
        <ele>106.5</ele>
        <time>2008-11-15T15:14:43Z</time>
      </trkpt>
      <trkpt lat="43.50068" lon="3.7173">
        <ele>105.5</ele>
        <time>2008-11-15T15:14:48Z</time>
      </trkpt>
      <trkpt lat="43.50066" lon="3.71734">
        <ele>106</ele>
        <time>2008-11-15T15:14:53Z</time>
      </trkpt>
      <trkpt lat="43.50065" lon="3.7174">
        <ele>105.5</ele>
        <time>2008-11-15T15:14:58Z</time>
      </trkpt>
      <trkpt lat="43.50063" lon="3.71747">
        <ele>105.5</ele>
        <time>2008-11-15T15:15:03Z</time>
      </trkpt>
      <trkpt lat="43.50061" lon="3.71752">
        <ele>105.5</ele>
        <time>2008-11-15T15:15:08Z</time>
      </trkpt>
      <trkpt lat="43.50057" lon="3.71753">
        <ele>105.5</ele>
        <time>2008-11-15T15:15:13Z</time>
      </trkpt>
      <trkpt lat="43.50053" lon="3.71752">
        <ele>105.5</ele>
        <time>2008-11-15T15:15:18Z</time>
      </trkpt>
      <trkpt lat="43.50049" lon="3.71748">
        <ele>104</ele>
        <time>2008-11-15T15:15:23Z</time>
      </trkpt>
      <trkpt lat="43.50045" lon="3.71744">
        <ele>104</ele>
        <time>2008-11-15T15:15:28Z</time>
      </trkpt>
      <trkpt lat="43.5004" lon="3.7174">
        <ele>104</ele>
        <time>2008-11-15T15:15:33Z</time>
      </trkpt>
      <trkpt lat="43.50036" lon="3.71736">
        <ele>103.5</ele>
        <time>2008-11-15T15:15:38Z</time>
      </trkpt>
      <trkpt lat="43.50031" lon="3.71731">
        <ele>104</ele>
        <time>2008-11-15T15:15:43Z</time>
      </trkpt>
      <trkpt lat="43.50027" lon="3.71726">
        <ele>103.5</ele>
        <time>2008-11-15T15:15:48Z</time>
      </trkpt>
      <trkpt lat="43.50022" lon="3.71722">
        <ele>103</ele>
        <time>2008-11-15T15:15:53Z</time>
      </trkpt>
      <trkpt lat="43.50017" lon="3.71719">
        <ele>102.5</ele>
        <time>2008-11-15T15:15:58Z</time>
      </trkpt>
      <trkpt lat="43.50012" lon="3.71718">
        <ele>102</ele>
        <time>2008-11-15T15:16:03Z</time>
      </trkpt>
      <trkpt lat="43.50004" lon="3.7172">
        <ele>101.5</ele>
        <time>2008-11-15T15:16:11Z</time>
      </trkpt>
      <trkpt lat="43.49996" lon="3.71729">
        <ele>100.5</ele>
        <time>2008-11-15T15:16:20Z</time>
      </trkpt>
      <trkpt lat="43.49996" lon="3.7173">
        <ele>100.5</ele>
        <time>2008-11-15T15:16:21Z</time>
      </trkpt>
      <trkpt lat="43.49994" lon="3.71731">
        <ele>100.5</ele>
        <time>2008-11-15T15:16:23Z</time>
      </trkpt>
      <trkpt lat="43.49989" lon="3.71735">
        <ele>100.5</ele>
        <time>2008-11-15T15:16:28Z</time>
      </trkpt>
      <trkpt lat="43.49984" lon="3.7174">
        <ele>100.5</ele>
        <time>2008-11-15T15:16:33Z</time>
      </trkpt>
      <trkpt lat="43.49979" lon="3.71744">
        <ele>100.5</ele>
        <time>2008-11-15T15:16:38Z</time>
      </trkpt>
      <trkpt lat="43.49975" lon="3.71747">
        <ele>101</ele>
        <time>2008-11-15T15:16:43Z</time>
      </trkpt>
      <trkpt lat="43.49971" lon="3.71749">
        <ele>102</ele>
        <time>2008-11-15T15:16:49Z</time>
      </trkpt>
      <trkpt lat="43.49961" lon="3.71752">
        <ele>103.5</ele>
        <time>2008-11-15T15:16:59Z</time>
      </trkpt>
      <trkpt lat="43.49956" lon="3.71752">
        <ele>105.5</ele>
        <time>2008-11-15T15:17:05Z</time>
      </trkpt>
      <trkpt lat="43.4995" lon="3.71745">
        <ele>106.5</ele>
        <time>2008-11-15T15:17:15Z</time>
      </trkpt>
      <trkpt lat="43.49945" lon="3.7174">
        <ele>105</ele>
        <time>2008-11-15T15:17:20Z</time>
      </trkpt>
      <trkpt lat="43.49941" lon="3.71735">
        <ele>103.5</ele>
        <time>2008-11-15T15:17:25Z</time>
      </trkpt>
      <trkpt lat="43.49936" lon="3.71729">
        <ele>101.5</ele>
        <time>2008-11-15T15:17:30Z</time>
      </trkpt>
      <trkpt lat="43.49933" lon="3.71723">
        <ele>102</ele>
        <time>2008-11-15T15:17:35Z</time>
      </trkpt>
      <trkpt lat="43.49929" lon="3.71717">
        <ele>101.5</ele>
        <time>2008-11-15T15:17:40Z</time>
      </trkpt>
      <trkpt lat="43.49926" lon="3.71713">
        <ele>102</ele>
        <time>2008-11-15T15:17:45Z</time>
      </trkpt>
      <trkpt lat="43.49922" lon="3.71708">
        <ele>102.5</ele>
        <time>2008-11-15T15:17:50Z</time>
      </trkpt>
      <trkpt lat="43.49919" lon="3.71702">
        <ele>103</ele>
        <time>2008-11-15T15:17:55Z</time>
      </trkpt>
      <trkpt lat="43.49915" lon="3.71698">
        <ele>103.5</ele>
        <time>2008-11-15T15:18:00Z</time>
      </trkpt>
      <trkpt lat="43.4991" lon="3.71693">
        <ele>103</ele>
        <time>2008-11-15T15:18:05Z</time>
      </trkpt>
      <trkpt lat="43.49905" lon="3.71689">
        <ele>103</ele>
        <time>2008-11-15T15:18:10Z</time>
      </trkpt>
      <trkpt lat="43.49901" lon="3.71686">
        <ele>103.5</ele>
        <time>2008-11-15T15:18:15Z</time>
      </trkpt>
      <trkpt lat="43.49898" lon="3.71683">
        <ele>105</ele>
        <time>2008-11-15T15:18:20Z</time>
      </trkpt>
      <trkpt lat="43.49894" lon="3.71679">
        <ele>105.5</ele>
        <time>2008-11-15T15:18:25Z</time>
      </trkpt>
      <trkpt lat="43.49889" lon="3.71676">
        <ele>107</ele>
        <time>2008-11-15T15:18:30Z</time>
      </trkpt>
      <trkpt lat="43.49884" lon="3.71673">
        <ele>107</ele>
        <time>2008-11-15T15:18:35Z</time>
      </trkpt>
      <trkpt lat="43.49878" lon="3.71668">
        <ele>103</ele>
        <time>2008-11-15T15:18:40Z</time>
      </trkpt>
      <trkpt lat="43.49871" lon="3.71665">
        <ele>99.5</ele>
        <time>2008-11-15T15:18:45Z</time>
      </trkpt>
      <trkpt lat="43.49865" lon="3.71662">
        <ele>98.5</ele>
        <time>2008-11-15T15:18:50Z</time>
      </trkpt>
      <trkpt lat="43.4986" lon="3.71658">
        <ele>98</ele>
        <time>2008-11-15T15:18:55Z</time>
      </trkpt>
      <trkpt lat="43.49854" lon="3.71654">
        <ele>98</ele>
        <time>2008-11-15T15:19:00Z</time>
      </trkpt>
      <trkpt lat="43.49848" lon="3.7165">
        <ele>98.5</ele>
        <time>2008-11-15T15:19:05Z</time>
      </trkpt>
      <trkpt lat="43.49843" lon="3.71647">
        <ele>98.5</ele>
        <time>2008-11-15T15:19:10Z</time>
      </trkpt>
      <trkpt lat="43.49837" lon="3.71643">
        <ele>99</ele>
        <time>2008-11-15T15:19:15Z</time>
      </trkpt>
      <trkpt lat="43.49832" lon="3.7164">
        <ele>99.5</ele>
        <time>2008-11-15T15:19:20Z</time>
      </trkpt>
      <trkpt lat="43.49827" lon="3.71637">
        <ele>100</ele>
        <time>2008-11-15T15:19:25Z</time>
      </trkpt>
      <trkpt lat="43.49822" lon="3.71633">
        <ele>99.5</ele>
        <time>2008-11-15T15:19:30Z</time>
      </trkpt>
      <trkpt lat="43.49816" lon="3.7163">
        <ele>99.5</ele>
        <time>2008-11-15T15:19:35Z</time>
      </trkpt>
      <trkpt lat="43.49811" lon="3.71627">
        <ele>99</ele>
        <time>2008-11-15T15:19:40Z</time>
      </trkpt>
      <trkpt lat="43.49804" lon="3.71623">
        <ele>98</ele>
        <time>2008-11-15T15:19:45Z</time>
      </trkpt>
      <trkpt lat="43.49799" lon="3.7162">
        <ele>98.5</ele>
        <time>2008-11-15T15:19:50Z</time>
      </trkpt>
      <trkpt lat="43.49792" lon="3.71615">
        <ele>99</ele>
        <time>2008-11-15T15:19:57Z</time>
      </trkpt>
      <trkpt lat="43.49782" lon="3.71609">
        <ele>99.5</ele>
        <time>2008-11-15T15:20:07Z</time>
      </trkpt>
      <trkpt lat="43.49776" lon="3.71605">
        <ele>99</ele>
        <time>2008-11-15T15:20:13Z</time>
      </trkpt>
      <trkpt lat="43.49769" lon="3.71601">
        <ele>97</ele>
        <time>2008-11-15T15:20:19Z</time>
      </trkpt>
      <trkpt lat="43.49758" lon="3.71595">
        <ele>96</ele>
        <time>2008-11-15T15:20:30Z</time>
      </trkpt>
      <trkpt lat="43.49753" lon="3.71592">
        <ele>95</ele>
        <time>2008-11-15T15:20:35Z</time>
      </trkpt>
      <trkpt lat="43.4975" lon="3.71589">
        <ele>94.5</ele>
        <time>2008-11-15T15:20:40Z</time>
      </trkpt>
      <trkpt lat="43.49746" lon="3.71585">
        <ele>94</ele>
        <time>2008-11-15T15:20:45Z</time>
      </trkpt>
      <trkpt lat="43.49741" lon="3.71582">
        <ele>93.5</ele>
        <time>2008-11-15T15:20:50Z</time>
      </trkpt>
      <trkpt lat="43.49736" lon="3.71579">
        <ele>94</ele>
        <time>2008-11-15T15:20:55Z</time>
      </trkpt>
      <trkpt lat="43.49731" lon="3.71577">
        <ele>94</ele>
        <time>2008-11-15T15:21:00Z</time>
      </trkpt>
      <trkpt lat="43.49726" lon="3.71573">
        <ele>95.5</ele>
        <time>2008-11-15T15:21:05Z</time>
      </trkpt>
      <trkpt lat="43.49721" lon="3.7157">
        <ele>96</ele>
        <time>2008-11-15T15:21:10Z</time>
      </trkpt>
      <trkpt lat="43.49716" lon="3.71567">
        <ele>97.5</ele>
        <time>2008-11-15T15:21:15Z</time>
      </trkpt>
      <trkpt lat="43.49712" lon="3.71564">
        <ele>98.5</ele>
        <time>2008-11-15T15:21:20Z</time>
      </trkpt>
      <trkpt lat="43.49707" lon="3.71561">
        <ele>99</ele>
        <time>2008-11-15T15:21:25Z</time>
      </trkpt>
      <trkpt lat="43.49702" lon="3.71558">
        <ele>99.5</ele>
        <time>2008-11-15T15:21:30Z</time>
      </trkpt>
      <trkpt lat="43.49698" lon="3.71556">
        <ele>100.5</ele>
        <time>2008-11-15T15:21:35Z</time>
      </trkpt>
      <trkpt lat="43.49692" lon="3.71553">
        <ele>98.5</ele>
        <time>2008-11-15T15:21:40Z</time>
      </trkpt>
      <trkpt lat="43.49688" lon="3.71549">
        <ele>98.5</ele>
        <time>2008-11-15T15:21:45Z</time>
      </trkpt>
      <trkpt lat="43.49683" lon="3.71545">
        <ele>99</ele>
        <time>2008-11-15T15:21:50Z</time>
      </trkpt>
      <trkpt lat="43.49679" lon="3.71542">
        <ele>100.5</ele>
        <time>2008-11-15T15:21:55Z</time>
      </trkpt>
      <trkpt lat="43.49674" lon="3.71539">
        <ele>102</ele>
        <time>2008-11-15T15:22:00Z</time>
      </trkpt>
      <trkpt lat="43.49671" lon="3.71536">
        <ele>103.5</ele>
        <time>2008-11-15T15:22:05Z</time>
      </trkpt>
      <trkpt lat="43.49667" lon="3.71532">
        <ele>103.5</ele>
        <time>2008-11-15T15:22:10Z</time>
      </trkpt>
      <trkpt lat="43.49662" lon="3.71528">
        <ele>102.5</ele>
        <time>2008-11-15T15:22:15Z</time>
      </trkpt>
      <trkpt lat="43.49657" lon="3.71524">
        <ele>101</ele>
        <time>2008-11-15T15:22:20Z</time>
      </trkpt>
      <trkpt lat="43.49652" lon="3.7152">
        <ele>99</ele>
        <time>2008-11-15T15:22:25Z</time>
      </trkpt>
      <trkpt lat="43.49647" lon="3.71515">
        <ele>97</ele>
        <time>2008-11-15T15:22:30Z</time>
      </trkpt>
      <trkpt lat="43.49641" lon="3.71511">
        <ele>96</ele>
        <time>2008-11-15T15:22:37Z</time>
      </trkpt>
      <trkpt lat="43.49634" lon="3.71509">
        <ele>95</ele>
        <time>2008-11-15T15:22:44Z</time>
      </trkpt>
      <trkpt lat="43.49625" lon="3.71504">
        <ele>95.5</ele>
        <time>2008-11-15T15:22:58Z</time>
      </trkpt>
      <trkpt lat="43.4962" lon="3.71502">
        <ele>95.5</ele>
        <time>2008-11-15T15:23:04Z</time>
      </trkpt>
      <trkpt lat="43.49612" lon="3.71501">
        <ele>95</ele>
        <time>2008-11-15T15:23:14Z</time>
      </trkpt>
      <trkpt lat="43.49608" lon="3.71498">
        <ele>96</ele>
        <time>2008-11-15T15:23:20Z</time>
      </trkpt>
      <trkpt lat="43.49602" lon="3.71494">
        <ele>97</ele>
        <time>2008-11-15T15:23:29Z</time>
      </trkpt>
      <trkpt lat="43.49595" lon="3.71493">
        <ele>98.5</ele>
        <time>2008-11-15T15:23:50Z</time>
      </trkpt>
      <trkpt lat="43.4959" lon="3.71488">
        <ele>100.5</ele>
        <time>2008-11-15T15:23:57Z</time>
      </trkpt>
      <trkpt lat="43.49586" lon="3.71485">
        <ele>101.5</ele>
        <time>2008-11-15T15:24:02Z</time>
      </trkpt>
      <trkpt lat="43.49582" lon="3.71482">
        <ele>102.5</ele>
        <time>2008-11-15T15:24:09Z</time>
      </trkpt>
      <trkpt lat="43.49576" lon="3.71478">
        <ele>104.5</ele>
        <time>2008-11-15T15:24:19Z</time>
      </trkpt>
      <trkpt lat="43.49572" lon="3.71476">
        <ele>105</ele>
        <time>2008-11-15T15:24:24Z</time>
      </trkpt>
      <trkpt lat="43.49566" lon="3.7147">
        <ele>106</ele>
        <time>2008-11-15T15:24:37Z</time>
      </trkpt>
      <trkpt lat="43.49565" lon="3.71466">
        <ele>104.5</ele>
        <time>2008-11-15T15:24:45Z</time>
      </trkpt>
      <trkpt lat="43.49564" lon="3.7146">
        <ele>104.5</ele>
        <time>2008-11-15T15:24:50Z</time>
      </trkpt>
      <trkpt lat="43.49564" lon="3.71453">
        <ele>104</ele>
        <time>2008-11-15T15:24:55Z</time>
      </trkpt>
      <trkpt lat="43.49566" lon="3.71447">
        <ele>104</ele>
        <time>2008-11-15T15:25:00Z</time>
      </trkpt>
      <trkpt lat="43.49567" lon="3.7144">
        <ele>103.5</ele>
        <time>2008-11-15T15:25:05Z</time>
      </trkpt>
      <trkpt lat="43.49568" lon="3.71433">
        <ele>104</ele>
        <time>2008-11-15T15:25:10Z</time>
      </trkpt>
      <trkpt lat="43.49568" lon="3.71426">
        <ele>103</ele>
        <time>2008-11-15T15:25:15Z</time>
      </trkpt>
      <trkpt lat="43.49568" lon="3.71415">
        <ele>103.5</ele>
        <time>2008-11-15T15:25:24Z</time>
      </trkpt>
      <trkpt lat="43.49566" lon="3.71404">
        <ele>105.5</ele>
        <time>2008-11-15T15:25:34Z</time>
      </trkpt>
      <trkpt lat="43.49565" lon="3.71397">
        <ele>103.5</ele>
        <time>2008-11-15T15:25:44Z</time>
      </trkpt>
      <trkpt lat="43.49565" lon="3.71393">
        <ele>104</ele>
        <time>2008-11-15T15:26:14Z</time>
      </trkpt>
      <trkpt lat="43.49566" lon="3.71389">
        <ele>103.5</ele>
        <time>2008-11-15T15:26:20Z</time>
      </trkpt>
      <trkpt lat="43.49567" lon="3.71381">
        <ele>104</ele>
        <time>2008-11-15T15:26:25Z</time>
      </trkpt>
      <trkpt lat="43.49569" lon="3.71374">
        <ele>104</ele>
        <time>2008-11-15T15:26:30Z</time>
      </trkpt>
      <trkpt lat="43.49571" lon="3.71367">
        <ele>103.5</ele>
        <time>2008-11-15T15:26:35Z</time>
      </trkpt>
      <trkpt lat="43.49573" lon="3.71358">
        <ele>103</ele>
        <time>2008-11-15T15:26:41Z</time>
      </trkpt>
      <trkpt lat="43.49575" lon="3.71351">
        <ele>103</ele>
        <time>2008-11-15T15:26:46Z</time>
      </trkpt>
      <trkpt lat="43.49578" lon="3.71345">
        <ele>103</ele>
        <time>2008-11-15T15:26:51Z</time>
      </trkpt>
      <trkpt lat="43.4958" lon="3.7134">
        <ele>103</ele>
        <time>2008-11-15T15:26:56Z</time>
      </trkpt>
      <trkpt lat="43.49582" lon="3.71333">
        <ele>102.5</ele>
        <time>2008-11-15T15:27:01Z</time>
      </trkpt>
      <trkpt lat="43.49585" lon="3.71327">
        <ele>102.5</ele>
        <time>2008-11-15T15:27:06Z</time>
      </trkpt>
      <trkpt lat="43.49587" lon="3.71321">
        <ele>102</ele>
        <time>2008-11-15T15:27:10Z</time>
      </trkpt>
      <trkpt lat="43.49588" lon="3.71311">
        <ele>101.5</ele>
        <time>2008-11-15T15:27:16Z</time>
      </trkpt>
      <trkpt lat="43.49584" lon="3.71306">
        <ele>101.5</ele>
        <time>2008-11-15T15:27:21Z</time>
      </trkpt>
      <trkpt lat="43.49578" lon="3.71303">
        <ele>103</ele>
        <time>2008-11-15T15:27:27Z</time>
      </trkpt>
      <trkpt lat="43.49573" lon="3.71296">
        <ele>106</ele>
        <time>2008-11-15T15:27:36Z</time>
      </trkpt>
      <trkpt lat="43.49567" lon="3.71291">
        <ele>107</ele>
        <time>2008-11-15T15:27:43Z</time>
      </trkpt>
      <trkpt lat="43.49559" lon="3.71284">
        <ele>108.5</ele>
        <time>2008-11-15T15:27:53Z</time>
      </trkpt>
      <trkpt lat="43.49553" lon="3.71277">
        <ele>105</ele>
        <time>2008-11-15T15:28:11Z</time>
      </trkpt>
      <trkpt lat="43.49547" lon="3.71271">
        <ele>105.5</ele>
        <time>2008-11-15T15:28:19Z</time>
      </trkpt>
      <trkpt lat="43.49541" lon="3.71265">
        <ele>105.5</ele>
        <time>2008-11-15T15:28:26Z</time>
      </trkpt>
      <trkpt lat="43.49534" lon="3.71259">
        <ele>105</ele>
        <time>2008-11-15T15:28:34Z</time>
      </trkpt>
      <trkpt lat="43.49526" lon="3.71251">
        <ele>105.5</ele>
        <time>2008-11-15T15:28:44Z</time>
      </trkpt>
      <trkpt lat="43.49518" lon="3.71243">
        <ele>105.5</ele>
        <time>2008-11-15T15:28:53Z</time>
      </trkpt>
      <trkpt lat="43.49511" lon="3.71234">
        <ele>105</ele>
        <time>2008-11-15T15:29:03Z</time>
      </trkpt>
      <trkpt lat="43.49504" lon="3.71228">
        <ele>106.5</ele>
        <time>2008-11-15T15:29:13Z</time>
      </trkpt>
      <trkpt lat="43.49494" lon="3.71221">
        <ele>108.5</ele>
        <time>2008-11-15T15:29:23Z</time>
      </trkpt>
      <trkpt lat="43.49485" lon="3.71213">
        <ele>109</ele>
        <time>2008-11-15T15:29:32Z</time>
      </trkpt>
      <trkpt lat="43.49481" lon="3.71209">
        <ele>110.5</ele>
        <time>2008-11-15T15:29:37Z</time>
      </trkpt>
      <trkpt lat="43.49476" lon="3.71206">
        <ele>112</ele>
        <time>2008-11-15T15:29:42Z</time>
      </trkpt>
      <trkpt lat="43.49472" lon="3.71201">
        <ele>112.5</ele>
        <time>2008-11-15T15:29:47Z</time>
      </trkpt>
      <trkpt lat="43.49467" lon="3.71197">
        <ele>113</ele>
        <time>2008-11-15T15:29:52Z</time>
      </trkpt>
      <trkpt lat="43.49463" lon="3.71194">
        <ele>114.5</ele>
        <time>2008-11-15T15:29:57Z</time>
      </trkpt>
      <trkpt lat="43.49459" lon="3.7119">
        <ele>114</ele>
        <time>2008-11-15T15:30:02Z</time>
      </trkpt>
      <trkpt lat="43.49456" lon="3.71185">
        <ele>113</ele>
        <time>2008-11-15T15:30:08Z</time>
      </trkpt>
      <trkpt lat="43.49459" lon="3.71175">
        <ele>114</ele>
        <time>2008-11-15T15:30:16Z</time>
      </trkpt>
      <trkpt lat="43.49463" lon="3.71172">
        <ele>112</ele>
        <time>2008-11-15T15:30:26Z</time>
      </trkpt>
      <trkpt lat="43.49469" lon="3.71173">
        <ele>110</ele>
        <time>2008-11-15T15:30:33Z</time>
      </trkpt>
      <trkpt lat="43.49472" lon="3.71179">
        <ele>110.5</ele>
        <time>2008-11-15T15:30:38Z</time>
      </trkpt>
      <trkpt lat="43.49475" lon="3.71183">
        <ele>112.5</ele>
        <time>2008-11-15T15:30:43Z</time>
      </trkpt>
      <trkpt lat="43.49479" lon="3.71187">
        <ele>112.5</ele>
        <time>2008-11-15T15:30:48Z</time>
      </trkpt>
      <trkpt lat="43.49483" lon="3.71191">
        <ele>112.5</ele>
        <time>2008-11-15T15:30:53Z</time>
      </trkpt>
      <trkpt lat="43.49487" lon="3.71194">
        <ele>112.5</ele>
        <time>2008-11-15T15:30:58Z</time>
      </trkpt>
      <trkpt lat="43.4949" lon="3.71197">
        <ele>112.5</ele>
        <time>2008-11-15T15:31:03Z</time>
      </trkpt>
      <trkpt lat="43.49492" lon="3.71195">
        <ele>111</ele>
        <time>2008-11-15T15:31:08Z</time>
      </trkpt>
      <trkpt lat="43.49494" lon="3.71189">
        <ele>109</ele>
        <time>2008-11-15T15:31:21Z</time>
      </trkpt>
      <trkpt lat="43.49495" lon="3.71189">
        <ele>108.5</ele>
        <time>2008-11-15T15:31:22Z</time>
      </trkpt>
      <trkpt lat="43.49496" lon="3.71185">
        <ele>108.5</ele>
        <time>2008-11-15T15:31:26Z</time>
      </trkpt>
      <trkpt lat="43.49497" lon="3.71182">
        <ele>108</ele>
        <time>2008-11-15T15:31:28Z</time>
      </trkpt>
      <trkpt lat="43.49501" lon="3.71175">
        <ele>107</ele>
        <time>2008-11-15T15:31:33Z</time>
      </trkpt>
      <trkpt lat="43.49504" lon="3.71167">
        <ele>106.5</ele>
        <time>2008-11-15T15:31:38Z</time>
      </trkpt>
      <trkpt lat="43.49508" lon="3.71161">
        <ele>107</ele>
        <time>2008-11-15T15:31:43Z</time>
      </trkpt>
      <trkpt lat="43.49515" lon="3.7115">
        <ele>105.5</ele>
        <time>2008-11-15T15:31:52Z</time>
      </trkpt>
      <trkpt lat="43.49519" lon="3.7114">
        <ele>104.5</ele>
        <time>2008-11-15T15:31:58Z</time>
      </trkpt>
      <trkpt lat="43.49522" lon="3.71132">
        <ele>104.5</ele>
        <time>2008-11-15T15:32:03Z</time>
      </trkpt>
      <trkpt lat="43.49528" lon="3.71118">
        <ele>103</ele>
        <time>2008-11-15T15:32:13Z</time>
      </trkpt>
      <trkpt lat="43.4953" lon="3.71104">
        <ele>102.5</ele>
        <time>2008-11-15T15:32:23Z</time>
      </trkpt>
    </trkseg>
  </trk>
</gpx>